<?xml version="1.0" encoding="UTF-8" standalone="no" ?>
<gpx xmlns="http://www.topografix.com/GPX/1/1" xmlns:xsi="http://www.w3.org/2001/XMLSchema-instance" xsi:schemaLocation="http://www.topografix.com/GPX/1/1 http://www.topografix.com/GPX/1/1/gpx.xsd" version="1.1" creator="VisuGPX - https://www.visugpx.com">
  <metadata>
    <name>Collet du tat par les Estroits</name>
    <desc><![CDATA[Jeudi 04 août 2016
Groupe B de la R.S.P.G.
28 participants avec Bernard et Elizabeth]]></desc>
  </metadata>
  <trk>
    <name><![CDATA[2016 08 04 Collet du Tat par les Estroits]]></name>
    <trkseg>
      <trkpt lat="44.69634" lon="5.93458">
        <ele>1281.09</ele>
        <time>2016-08-04T06:25:06Z</time>
      </trkpt>
      <trkpt lat="44.69634" lon="5.93459">
        <ele>1281.09</ele>
        <time>2016-08-04T06:25:07Z</time>
      </trkpt>
      <trkpt lat="44.69632" lon="5.93464">
        <ele>1282.06</ele>
        <time>2016-08-04T06:25:11Z</time>
      </trkpt>
      <trkpt lat="44.69631" lon="5.93466">
        <ele>1282.54</ele>
        <time>2016-08-04T06:25:13Z</time>
      </trkpt>
      <trkpt lat="44.69631" lon="5.93469">
        <ele>1282.54</ele>
        <time>2016-08-04T06:25:15Z</time>
      </trkpt>
      <trkpt lat="44.69624" lon="5.93474">
        <ele>1283.5</ele>
        <time>2016-08-04T06:25:28Z</time>
      </trkpt>
      <trkpt lat="44.69621" lon="5.93476">
        <ele>1282.54</ele>
        <time>2016-08-04T06:25:36Z</time>
      </trkpt>
      <trkpt lat="44.69618" lon="5.93485">
        <ele>1282.54</ele>
        <time>2016-08-04T06:25:42Z</time>
      </trkpt>
      <trkpt lat="44.69608" lon="5.9349">
        <ele>1283.98</ele>
        <time>2016-08-04T06:25:58Z</time>
      </trkpt>
      <trkpt lat="44.69598" lon="5.93492">
        <ele>1286.38</ele>
        <time>2016-08-04T06:26:14Z</time>
      </trkpt>
      <trkpt lat="44.69593" lon="5.93482">
        <ele>1287.34</ele>
        <time>2016-08-04T06:26:31Z</time>
      </trkpt>
      <trkpt lat="44.69595" lon="5.93486">
        <ele>1287.82</ele>
        <time>2016-08-04T06:26:50Z</time>
      </trkpt>
      <trkpt lat="44.69587" lon="5.93491">
        <ele>1287.82</ele>
        <time>2016-08-04T06:27:07Z</time>
      </trkpt>
      <trkpt lat="44.69586" lon="5.9349">
        <ele>1288.3</ele>
        <time>2016-08-04T06:27:20Z</time>
      </trkpt>
      <trkpt lat="44.69578" lon="5.93496">
        <ele>1289.27</ele>
        <time>2016-08-04T06:27:34Z</time>
      </trkpt>
      <trkpt lat="44.69572" lon="5.93498">
        <ele>1289.75</ele>
        <time>2016-08-04T06:27:47Z</time>
      </trkpt>
      <trkpt lat="44.69568" lon="5.93498">
        <ele>1290.71</ele>
        <time>2016-08-04T06:28:05Z</time>
      </trkpt>
      <trkpt lat="44.69546" lon="5.93508">
        <ele>1292.15</ele>
        <time>2016-08-04T06:28:23Z</time>
      </trkpt>
      <trkpt lat="44.69525" lon="5.93506">
        <ele>1294.07</ele>
        <time>2016-08-04T06:28:43Z</time>
      </trkpt>
      <trkpt lat="44.69523" lon="5.93505">
        <ele>1295.03</ele>
        <time>2016-08-04T06:28:46Z</time>
      </trkpt>
      <trkpt lat="44.69505" lon="5.93513">
        <ele>1295.99</ele>
        <time>2016-08-04T06:29:04Z</time>
      </trkpt>
      <trkpt lat="44.69492" lon="5.93519">
        <ele>1296.48</ele>
        <time>2016-08-04T06:29:19Z</time>
      </trkpt>
      <trkpt lat="44.69479" lon="5.93524">
        <ele>1296.48</ele>
        <time>2016-08-04T06:29:33Z</time>
      </trkpt>
      <trkpt lat="44.69464" lon="5.93533">
        <ele>1297.44</ele>
        <time>2016-08-04T06:29:49Z</time>
      </trkpt>
      <trkpt lat="44.69459" lon="5.93538">
        <ele>1297.44</ele>
        <time>2016-08-04T06:29:55Z</time>
      </trkpt>
      <trkpt lat="44.69445" lon="5.9355">
        <ele>1296.96</ele>
        <time>2016-08-04T06:30:11Z</time>
      </trkpt>
      <trkpt lat="44.69434" lon="5.93558">
        <ele>1296.48</ele>
        <time>2016-08-04T06:30:25Z</time>
      </trkpt>
      <trkpt lat="44.69421" lon="5.9357">
        <ele>1296.96</ele>
        <time>2016-08-04T06:30:39Z</time>
      </trkpt>
      <trkpt lat="44.69407" lon="5.93584">
        <ele>1295.99</ele>
        <time>2016-08-04T06:30:55Z</time>
      </trkpt>
      <trkpt lat="44.69391" lon="5.936">
        <ele>1295.99</ele>
        <time>2016-08-04T06:31:13Z</time>
      </trkpt>
      <trkpt lat="44.69378" lon="5.93613">
        <ele>1294.55</ele>
        <time>2016-08-04T06:31:29Z</time>
      </trkpt>
      <trkpt lat="44.69367" lon="5.93624">
        <ele>1294.07</ele>
        <time>2016-08-04T06:31:45Z</time>
      </trkpt>
      <trkpt lat="44.69361" lon="5.93631">
        <ele>1294.07</ele>
        <time>2016-08-04T06:31:53Z</time>
      </trkpt>
      <trkpt lat="44.69348" lon="5.93642">
        <ele>1293.59</ele>
        <time>2016-08-04T06:32:09Z</time>
      </trkpt>
      <trkpt lat="44.69334" lon="5.93649">
        <ele>1294.07</ele>
        <time>2016-08-04T06:32:25Z</time>
      </trkpt>
      <trkpt lat="44.6932" lon="5.93659">
        <ele>1295.51</ele>
        <time>2016-08-04T06:32:40Z</time>
      </trkpt>
      <trkpt lat="44.69305" lon="5.9367">
        <ele>1295.99</ele>
        <time>2016-08-04T06:32:56Z</time>
      </trkpt>
      <trkpt lat="44.69291" lon="5.93676">
        <ele>1296.96</ele>
        <time>2016-08-04T06:33:12Z</time>
      </trkpt>
      <trkpt lat="44.69276" lon="5.93682">
        <ele>1297.92</ele>
        <time>2016-08-04T06:33:27Z</time>
      </trkpt>
      <trkpt lat="44.69264" lon="5.93686">
        <ele>1299.36</ele>
        <time>2016-08-04T06:33:44Z</time>
      </trkpt>
      <trkpt lat="44.69258" lon="5.93683">
        <ele>1299.36</ele>
        <time>2016-08-04T06:34:00Z</time>
      </trkpt>
      <trkpt lat="44.6926" lon="5.93686">
        <ele>1298.4</ele>
        <time>2016-08-04T06:34:21Z</time>
      </trkpt>
      <trkpt lat="44.6926" lon="5.93683">
        <ele>1299.36</ele>
        <time>2016-08-04T06:34:39Z</time>
      </trkpt>
      <trkpt lat="44.69259" lon="5.93683">
        <ele>1299.36</ele>
        <time>2016-08-04T06:35:05Z</time>
      </trkpt>
      <trkpt lat="44.69261" lon="5.93683">
        <ele>1299.36</ele>
        <time>2016-08-04T06:35:15Z</time>
      </trkpt>
      <trkpt lat="44.69259" lon="5.93684">
        <ele>1299.36</ele>
        <time>2016-08-04T06:35:20Z</time>
      </trkpt>
      <trkpt lat="44.69249" lon="5.93693">
        <ele>1301.76</ele>
        <time>2016-08-04T06:35:33Z</time>
      </trkpt>
      <trkpt lat="44.69239" lon="5.93697">
        <ele>1301.28</ele>
        <time>2016-08-04T06:35:48Z</time>
      </trkpt>
      <trkpt lat="44.69238" lon="5.93698">
        <ele>1301.28</ele>
        <time>2016-08-04T06:36:09Z</time>
      </trkpt>
      <trkpt lat="44.69238" lon="5.93697">
        <ele>1301.28</ele>
        <time>2016-08-04T06:36:26Z</time>
      </trkpt>
      <trkpt lat="44.6924" lon="5.93698">
        <ele>1301.28</ele>
        <time>2016-08-04T06:36:43Z</time>
      </trkpt>
      <trkpt lat="44.69237" lon="5.93697">
        <ele>1301.76</ele>
        <time>2016-08-04T06:37:08Z</time>
      </trkpt>
      <trkpt lat="44.69231" lon="5.93698">
        <ele>1301.28</ele>
        <time>2016-08-04T06:37:30Z</time>
      </trkpt>
      <trkpt lat="44.69238" lon="5.93688">
        <ele>1303.69</ele>
        <time>2016-08-04T06:37:41Z</time>
      </trkpt>
      <trkpt lat="44.69249" lon="5.93674">
        <ele>1304.65</ele>
        <time>2016-08-04T06:37:58Z</time>
      </trkpt>
      <trkpt lat="44.6926" lon="5.93659">
        <ele>1307.53</ele>
        <time>2016-08-04T06:38:16Z</time>
      </trkpt>
      <trkpt lat="44.69268" lon="5.93648">
        <ele>1308.49</ele>
        <time>2016-08-04T06:38:30Z</time>
      </trkpt>
      <trkpt lat="44.69281" lon="5.93633">
        <ele>1310.41</ele>
        <time>2016-08-04T06:38:48Z</time>
      </trkpt>
      <trkpt lat="44.69289" lon="5.93621">
        <ele>1311.38</ele>
        <time>2016-08-04T06:39:03Z</time>
      </trkpt>
      <trkpt lat="44.69297" lon="5.93608">
        <ele>1313.78</ele>
        <time>2016-08-04T06:39:17Z</time>
      </trkpt>
      <trkpt lat="44.69305" lon="5.93594">
        <ele>1314.26</ele>
        <time>2016-08-04T06:39:34Z</time>
      </trkpt>
      <trkpt lat="44.69316" lon="5.9358">
        <ele>1317.62</ele>
        <time>2016-08-04T06:39:50Z</time>
      </trkpt>
      <trkpt lat="44.69328" lon="5.93562">
        <ele>1318.59</ele>
        <time>2016-08-04T06:40:08Z</time>
      </trkpt>
      <trkpt lat="44.69339" lon="5.93549">
        <ele>1320.03</ele>
        <time>2016-08-04T06:40:23Z</time>
      </trkpt>
      <trkpt lat="44.69349" lon="5.93538">
        <ele>1320.99</ele>
        <time>2016-08-04T06:40:37Z</time>
      </trkpt>
      <trkpt lat="44.6936" lon="5.93526">
        <ele>1321.95</ele>
        <time>2016-08-04T06:40:51Z</time>
      </trkpt>
      <trkpt lat="44.69361" lon="5.93524">
        <ele>1321.47</ele>
        <time>2016-08-04T06:40:53Z</time>
      </trkpt>
      <trkpt lat="44.69374" lon="5.93514">
        <ele>1322.91</ele>
        <time>2016-08-04T06:41:13Z</time>
      </trkpt>
      <trkpt lat="44.69384" lon="5.93503">
        <ele>1324.35</ele>
        <time>2016-08-04T06:41:33Z</time>
      </trkpt>
      <trkpt lat="44.69392" lon="5.93493">
        <ele>1325.8</ele>
        <time>2016-08-04T06:41:50Z</time>
      </trkpt>
      <trkpt lat="44.69402" lon="5.93482">
        <ele>1327.72</ele>
        <time>2016-08-04T06:42:08Z</time>
      </trkpt>
      <trkpt lat="44.69412" lon="5.93473">
        <ele>1331.08</ele>
        <time>2016-08-04T06:42:28Z</time>
      </trkpt>
      <trkpt lat="44.69419" lon="5.93461">
        <ele>1332.04</ele>
        <time>2016-08-04T06:42:49Z</time>
      </trkpt>
      <trkpt lat="44.69428" lon="5.93452">
        <ele>1334.93</ele>
        <time>2016-08-04T06:43:08Z</time>
      </trkpt>
      <trkpt lat="44.69434" lon="5.93442">
        <ele>1337.81</ele>
        <time>2016-08-04T06:43:32Z</time>
      </trkpt>
      <trkpt lat="44.69443" lon="5.93431">
        <ele>1340.22</ele>
        <time>2016-08-04T06:43:49Z</time>
      </trkpt>
      <trkpt lat="44.69454" lon="5.93425">
        <ele>1342.62</ele>
        <time>2016-08-04T06:44:06Z</time>
      </trkpt>
      <trkpt lat="44.69463" lon="5.93423">
        <ele>1344.06</ele>
        <time>2016-08-04T06:44:23Z</time>
      </trkpt>
      <trkpt lat="44.69473" lon="5.93419">
        <ele>1345.98</ele>
        <time>2016-08-04T06:44:40Z</time>
      </trkpt>
      <trkpt lat="44.69481" lon="5.93417">
        <ele>1347.43</ele>
        <time>2016-08-04T06:44:55Z</time>
      </trkpt>
      <trkpt lat="44.69494" lon="5.93414">
        <ele>1349.35</ele>
        <time>2016-08-04T06:45:13Z</time>
      </trkpt>
      <trkpt lat="44.69508" lon="5.93407">
        <ele>1351.27</ele>
        <time>2016-08-04T06:45:30Z</time>
      </trkpt>
      <trkpt lat="44.69519" lon="5.93397">
        <ele>1353.67</ele>
        <time>2016-08-04T06:45:50Z</time>
      </trkpt>
      <trkpt lat="44.69528" lon="5.93383">
        <ele>1355.12</ele>
        <time>2016-08-04T06:46:07Z</time>
      </trkpt>
      <trkpt lat="44.69534" lon="5.93372">
        <ele>1356.56</ele>
        <time>2016-08-04T06:46:19Z</time>
      </trkpt>
      <trkpt lat="44.69537" lon="5.9336">
        <ele>1358</ele>
        <time>2016-08-04T06:46:34Z</time>
      </trkpt>
      <trkpt lat="44.69542" lon="5.93345">
        <ele>1358.48</ele>
        <time>2016-08-04T06:46:51Z</time>
      </trkpt>
      <trkpt lat="44.69544" lon="5.93325">
        <ele>1358</ele>
        <time>2016-08-04T06:47:10Z</time>
      </trkpt>
      <trkpt lat="44.69555" lon="5.9331">
        <ele>1358.48</ele>
        <time>2016-08-04T06:47:25Z</time>
      </trkpt>
      <trkpt lat="44.6956" lon="5.93301">
        <ele>1358</ele>
        <time>2016-08-04T06:47:44Z</time>
      </trkpt>
      <trkpt lat="44.6956" lon="5.93292">
        <ele>1356.08</ele>
        <time>2016-08-04T06:48:00Z</time>
      </trkpt>
      <trkpt lat="44.69567" lon="5.93275">
        <ele>1356.08</ele>
        <time>2016-08-04T06:48:18Z</time>
      </trkpt>
      <trkpt lat="44.6958" lon="5.93256">
        <ele>1356.56</ele>
        <time>2016-08-04T06:48:37Z</time>
      </trkpt>
      <trkpt lat="44.6958" lon="5.93252">
        <ele>1357.04</ele>
        <time>2016-08-04T06:48:58Z</time>
      </trkpt>
      <trkpt lat="44.6959" lon="5.93247">
        <ele>1357.52</ele>
        <time>2016-08-04T06:49:14Z</time>
      </trkpt>
      <trkpt lat="44.69595" lon="5.93238">
        <ele>1360.88</ele>
        <time>2016-08-04T06:49:27Z</time>
      </trkpt>
      <trkpt lat="44.69605" lon="5.9323">
        <ele>1361.84</ele>
        <time>2016-08-04T06:49:46Z</time>
      </trkpt>
      <trkpt lat="44.69613" lon="5.9322">
        <ele>1364.73</ele>
        <time>2016-08-04T06:50:05Z</time>
      </trkpt>
      <trkpt lat="44.69627" lon="5.93204">
        <ele>1367.61</ele>
        <time>2016-08-04T06:50:23Z</time>
      </trkpt>
      <trkpt lat="44.69633" lon="5.93194">
        <ele>1369.05</ele>
        <time>2016-08-04T06:50:39Z</time>
      </trkpt>
      <trkpt lat="44.6964" lon="5.93189">
        <ele>1370.5</ele>
        <time>2016-08-04T06:50:54Z</time>
      </trkpt>
      <trkpt lat="44.69646" lon="5.93178">
        <ele>1372.42</ele>
        <time>2016-08-04T06:51:12Z</time>
      </trkpt>
      <trkpt lat="44.69654" lon="5.93162">
        <ele>1371.94</ele>
        <time>2016-08-04T06:51:32Z</time>
      </trkpt>
      <trkpt lat="44.6966" lon="5.93146">
        <ele>1373.38</ele>
        <time>2016-08-04T06:51:49Z</time>
      </trkpt>
      <trkpt lat="44.69662" lon="5.93135">
        <ele>1375.78</ele>
        <time>2016-08-04T06:52:05Z</time>
      </trkpt>
      <trkpt lat="44.69663" lon="5.93113">
        <ele>1374.82</ele>
        <time>2016-08-04T06:52:25Z</time>
      </trkpt>
      <trkpt lat="44.69665" lon="5.93107">
        <ele>1375.3</ele>
        <time>2016-08-04T06:52:53Z</time>
      </trkpt>
      <trkpt lat="44.69671" lon="5.93106">
        <ele>1374.82</ele>
        <time>2016-08-04T06:53:16Z</time>
      </trkpt>
      <trkpt lat="44.69672" lon="5.93108">
        <ele>1374.82</ele>
        <time>2016-08-04T06:53:39Z</time>
      </trkpt>
      <trkpt lat="44.69674" lon="5.93104">
        <ele>1374.82</ele>
        <time>2016-08-04T06:53:59Z</time>
      </trkpt>
      <trkpt lat="44.69671" lon="5.931">
        <ele>1374.34</ele>
        <time>2016-08-04T06:54:27Z</time>
      </trkpt>
      <trkpt lat="44.69664" lon="5.93087">
        <ele>1375.78</ele>
        <time>2016-08-04T06:54:45Z</time>
      </trkpt>
      <trkpt lat="44.69661" lon="5.93073">
        <ele>1377.71</ele>
        <time>2016-08-04T06:55:04Z</time>
      </trkpt>
      <trkpt lat="44.69661" lon="5.93061">
        <ele>1381.07</ele>
        <time>2016-08-04T06:55:22Z</time>
      </trkpt>
      <trkpt lat="44.69662" lon="5.93045">
        <ele>1382.51</ele>
        <time>2016-08-04T06:55:40Z</time>
      </trkpt>
      <trkpt lat="44.69662" lon="5.93027">
        <ele>1385.4</ele>
        <time>2016-08-04T06:56:00Z</time>
      </trkpt>
      <trkpt lat="44.6966" lon="5.93013">
        <ele>1387.8</ele>
        <time>2016-08-04T06:56:19Z</time>
      </trkpt>
      <trkpt lat="44.69653" lon="5.93">
        <ele>1390.2</ele>
        <time>2016-08-04T06:56:39Z</time>
      </trkpt>
      <trkpt lat="44.69643" lon="5.92989">
        <ele>1393.09</ele>
        <time>2016-08-04T06:56:58Z</time>
      </trkpt>
      <trkpt lat="44.69634" lon="5.92972">
        <ele>1395.49</ele>
        <time>2016-08-04T06:57:19Z</time>
      </trkpt>
      <trkpt lat="44.69628" lon="5.92955">
        <ele>1396.45</ele>
        <time>2016-08-04T06:57:38Z</time>
      </trkpt>
      <trkpt lat="44.69621" lon="5.92936">
        <ele>1397.89</ele>
        <time>2016-08-04T06:57:59Z</time>
      </trkpt>
      <trkpt lat="44.69609" lon="5.92915">
        <ele>1399.34</ele>
        <time>2016-08-04T06:58:19Z</time>
      </trkpt>
      <trkpt lat="44.69598" lon="5.92891">
        <ele>1401.26</ele>
        <time>2016-08-04T06:58:40Z</time>
      </trkpt>
      <trkpt lat="44.69595" lon="5.92867">
        <ele>1404.62</ele>
        <time>2016-08-04T06:59:01Z</time>
      </trkpt>
      <trkpt lat="44.69596" lon="5.92851">
        <ele>1407.03</ele>
        <time>2016-08-04T06:59:20Z</time>
      </trkpt>
      <trkpt lat="44.69594" lon="5.9283">
        <ele>1408.95</ele>
        <time>2016-08-04T06:59:43Z</time>
      </trkpt>
      <trkpt lat="44.69582" lon="5.92817">
        <ele>1410.39</ele>
        <time>2016-08-04T07:00:01Z</time>
      </trkpt>
      <trkpt lat="44.69573" lon="5.92806">
        <ele>1413.76</ele>
        <time>2016-08-04T07:00:19Z</time>
      </trkpt>
      <trkpt lat="44.69563" lon="5.92795">
        <ele>1414.72</ele>
        <time>2016-08-04T07:00:38Z</time>
      </trkpt>
      <trkpt lat="44.69553" lon="5.92785">
        <ele>1418.08</ele>
        <time>2016-08-04T07:01:00Z</time>
      </trkpt>
      <trkpt lat="44.69549" lon="5.92783">
        <ele>1419.52</ele>
        <time>2016-08-04T07:01:18Z</time>
      </trkpt>
      <trkpt lat="44.69547" lon="5.92784">
        <ele>1421.45</ele>
        <time>2016-08-04T07:01:37Z</time>
      </trkpt>
      <trkpt lat="44.69536" lon="5.92779">
        <ele>1424.33</ele>
        <time>2016-08-04T07:01:57Z</time>
      </trkpt>
      <trkpt lat="44.69526" lon="5.92775">
        <ele>1427.7</ele>
        <time>2016-08-04T07:02:15Z</time>
      </trkpt>
      <trkpt lat="44.69518" lon="5.92768">
        <ele>1430.1</ele>
        <time>2016-08-04T07:02:31Z</time>
      </trkpt>
      <trkpt lat="44.69508" lon="5.92763">
        <ele>1432.5</ele>
        <time>2016-08-04T07:02:49Z</time>
      </trkpt>
      <trkpt lat="44.69496" lon="5.92765">
        <ele>1434.91</ele>
        <time>2016-08-04T07:03:06Z</time>
      </trkpt>
      <trkpt lat="44.69486" lon="5.92762">
        <ele>1437.31</ele>
        <time>2016-08-04T07:03:27Z</time>
      </trkpt>
      <trkpt lat="44.69475" lon="5.92758">
        <ele>1439.71</ele>
        <time>2016-08-04T07:03:43Z</time>
      </trkpt>
      <trkpt lat="44.69466" lon="5.92761">
        <ele>1441.63</ele>
        <time>2016-08-04T07:04:01Z</time>
      </trkpt>
      <trkpt lat="44.69457" lon="5.92761">
        <ele>1443.08</ele>
        <time>2016-08-04T07:04:18Z</time>
      </trkpt>
      <trkpt lat="44.69446" lon="5.92759">
        <ele>1445.96</ele>
        <time>2016-08-04T07:04:35Z</time>
      </trkpt>
      <trkpt lat="44.69434" lon="5.92754">
        <ele>1448.36</ele>
        <time>2016-08-04T07:04:55Z</time>
      </trkpt>
      <trkpt lat="44.69425" lon="5.92757">
        <ele>1450.77</ele>
        <time>2016-08-04T07:05:17Z</time>
      </trkpt>
      <trkpt lat="44.69416" lon="5.92754">
        <ele>1451.73</ele>
        <time>2016-08-04T07:05:39Z</time>
      </trkpt>
      <trkpt lat="44.6941" lon="5.92754">
        <ele>1455.09</ele>
        <time>2016-08-04T07:05:49Z</time>
      </trkpt>
      <trkpt lat="44.69409" lon="5.92753">
        <ele>1455.57</ele>
        <time>2016-08-04T07:06:07Z</time>
      </trkpt>
      <trkpt lat="44.69406" lon="5.92748">
        <ele>1455.09</ele>
        <time>2016-08-04T07:06:24Z</time>
      </trkpt>
      <trkpt lat="44.69406" lon="5.92746">
        <ele>1455.57</ele>
        <time>2016-08-04T07:06:42Z</time>
      </trkpt>
      <trkpt lat="44.69412" lon="5.92745">
        <ele>1456.05</ele>
        <time>2016-08-04T07:07:02Z</time>
      </trkpt>
      <trkpt lat="44.69414" lon="5.92752">
        <ele>1455.09</ele>
        <time>2016-08-04T07:07:37Z</time>
      </trkpt>
      <trkpt lat="44.69407" lon="5.92751">
        <ele>1456.05</ele>
        <time>2016-08-04T07:08:09Z</time>
      </trkpt>
      <trkpt lat="44.6941" lon="5.9275">
        <ele>1455.57</ele>
        <time>2016-08-04T07:08:44Z</time>
      </trkpt>
      <trkpt lat="44.69408" lon="5.92749">
        <ele>1456.05</ele>
        <time>2016-08-04T07:09:13Z</time>
      </trkpt>
      <trkpt lat="44.69407" lon="5.92749">
        <ele>1456.53</ele>
        <time>2016-08-04T07:09:36Z</time>
      </trkpt>
      <trkpt lat="44.69404" lon="5.9275">
        <ele>1456.53</ele>
        <time>2016-08-04T07:10:04Z</time>
      </trkpt>
      <trkpt lat="44.69395" lon="5.92752">
        <ele>1460.38</ele>
        <time>2016-08-04T07:10:18Z</time>
      </trkpt>
      <trkpt lat="44.69383" lon="5.92752">
        <ele>1462.78</ele>
        <time>2016-08-04T07:10:36Z</time>
      </trkpt>
      <trkpt lat="44.69374" lon="5.92751">
        <ele>1465.67</ele>
        <time>2016-08-04T07:10:53Z</time>
      </trkpt>
      <trkpt lat="44.69363" lon="5.9275">
        <ele>1468.55</ele>
        <time>2016-08-04T07:11:14Z</time>
      </trkpt>
      <trkpt lat="44.69353" lon="5.92751">
        <ele>1471.44</ele>
        <time>2016-08-04T07:11:34Z</time>
      </trkpt>
      <trkpt lat="44.69338" lon="5.92747">
        <ele>1476.24</ele>
        <time>2016-08-04T07:11:54Z</time>
      </trkpt>
      <trkpt lat="44.69325" lon="5.92753">
        <ele>1478.16</ele>
        <time>2016-08-04T07:12:12Z</time>
      </trkpt>
      <trkpt lat="44.69313" lon="5.92755">
        <ele>1480.57</ele>
        <time>2016-08-04T07:12:30Z</time>
      </trkpt>
      <trkpt lat="44.69301" lon="5.92759">
        <ele>1483.93</ele>
        <time>2016-08-04T07:12:51Z</time>
      </trkpt>
      <trkpt lat="44.69292" lon="5.92758">
        <ele>1485.85</ele>
        <time>2016-08-04T07:13:11Z</time>
      </trkpt>
      <trkpt lat="44.69282" lon="5.9276">
        <ele>1488.74</ele>
        <time>2016-08-04T07:13:24Z</time>
      </trkpt>
      <trkpt lat="44.6927" lon="5.92759">
        <ele>1489.7</ele>
        <time>2016-08-04T07:13:41Z</time>
      </trkpt>
      <trkpt lat="44.69264" lon="5.92761">
        <ele>1492.58</ele>
        <time>2016-08-04T07:13:51Z</time>
      </trkpt>
      <trkpt lat="44.69253" lon="5.92763">
        <ele>1494.99</ele>
        <time>2016-08-04T07:14:10Z</time>
      </trkpt>
      <trkpt lat="44.69242" lon="5.92768">
        <ele>1497.87</ele>
        <time>2016-08-04T07:14:30Z</time>
      </trkpt>
      <trkpt lat="44.69231" lon="5.92772">
        <ele>1499.31</ele>
        <time>2016-08-04T07:14:47Z</time>
      </trkpt>
      <trkpt lat="44.69228" lon="5.92774">
        <ele>1500.76</ele>
        <time>2016-08-04T07:15:04Z</time>
      </trkpt>
      <trkpt lat="44.69226" lon="5.92774">
        <ele>1501.24</ele>
        <time>2016-08-04T07:15:21Z</time>
      </trkpt>
      <trkpt lat="44.6923" lon="5.9277">
        <ele>1501.72</ele>
        <time>2016-08-04T07:15:39Z</time>
      </trkpt>
      <trkpt lat="44.69233" lon="5.9277">
        <ele>1503.16</ele>
        <time>2016-08-04T07:15:56Z</time>
      </trkpt>
      <trkpt lat="44.69232" lon="5.92769">
        <ele>1501.24</ele>
        <time>2016-08-04T07:16:23Z</time>
      </trkpt>
      <trkpt lat="44.69231" lon="5.92771">
        <ele>1501.72</ele>
        <time>2016-08-04T07:16:40Z</time>
      </trkpt>
      <trkpt lat="44.6923" lon="5.92768">
        <ele>1502.2</ele>
        <time>2016-08-04T07:16:58Z</time>
      </trkpt>
      <trkpt lat="44.69225" lon="5.92769">
        <ele>1501.24</ele>
        <time>2016-08-04T07:17:18Z</time>
      </trkpt>
      <trkpt lat="44.69228" lon="5.92771">
        <ele>1501.72</ele>
        <time>2016-08-04T07:17:34Z</time>
      </trkpt>
      <trkpt lat="44.6923" lon="5.92773">
        <ele>1502.2</ele>
        <time>2016-08-04T07:17:58Z</time>
      </trkpt>
      <trkpt lat="44.69233" lon="5.92772">
        <ele>1502.2</ele>
        <time>2016-08-04T07:18:21Z</time>
      </trkpt>
      <trkpt lat="44.69236" lon="5.92768">
        <ele>1502.2</ele>
        <time>2016-08-04T07:18:59Z</time>
      </trkpt>
      <trkpt lat="44.69224" lon="5.9278">
        <ele>1503.16</ele>
        <time>2016-08-04T07:19:19Z</time>
      </trkpt>
      <trkpt lat="44.69219" lon="5.9277">
        <ele>1503.64</ele>
        <time>2016-08-04T07:19:40Z</time>
      </trkpt>
      <trkpt lat="44.69215" lon="5.92766">
        <ele>1504.12</ele>
        <time>2016-08-04T07:20:04Z</time>
      </trkpt>
      <trkpt lat="44.6921" lon="5.92769">
        <ele>1504.12</ele>
        <time>2016-08-04T07:20:20Z</time>
      </trkpt>
      <trkpt lat="44.69204" lon="5.92767">
        <ele>1505.56</ele>
        <time>2016-08-04T07:20:34Z</time>
      </trkpt>
      <trkpt lat="44.69186" lon="5.92767">
        <ele>1507.48</ele>
        <time>2016-08-04T07:20:54Z</time>
      </trkpt>
      <trkpt lat="44.6917" lon="5.92762">
        <ele>1509.41</ele>
        <time>2016-08-04T07:21:12Z</time>
      </trkpt>
      <trkpt lat="44.69161" lon="5.9276">
        <ele>1509.89</ele>
        <time>2016-08-04T07:21:23Z</time>
      </trkpt>
      <trkpt lat="44.69148" lon="5.92756">
        <ele>1511.33</ele>
        <time>2016-08-04T07:21:39Z</time>
      </trkpt>
      <trkpt lat="44.69135" lon="5.92754">
        <ele>1512.77</ele>
        <time>2016-08-04T07:21:55Z</time>
      </trkpt>
      <trkpt lat="44.69121" lon="5.92749">
        <ele>1513.73</ele>
        <time>2016-08-04T07:22:11Z</time>
      </trkpt>
      <trkpt lat="44.69108" lon="5.92744">
        <ele>1515.18</ele>
        <time>2016-08-04T07:22:26Z</time>
      </trkpt>
      <trkpt lat="44.69095" lon="5.92739">
        <ele>1515.66</ele>
        <time>2016-08-04T07:22:41Z</time>
      </trkpt>
      <trkpt lat="44.6908" lon="5.92736">
        <ele>1517.1</ele>
        <time>2016-08-04T07:22:59Z</time>
      </trkpt>
      <trkpt lat="44.69066" lon="5.92732">
        <ele>1518.06</ele>
        <time>2016-08-04T07:23:16Z</time>
      </trkpt>
      <trkpt lat="44.69054" lon="5.92729">
        <ele>1519.5</ele>
        <time>2016-08-04T07:23:33Z</time>
      </trkpt>
      <trkpt lat="44.69037" lon="5.92723">
        <ele>1519.98</ele>
        <time>2016-08-04T07:23:52Z</time>
      </trkpt>
      <trkpt lat="44.69023" lon="5.92719">
        <ele>1520.94</ele>
        <time>2016-08-04T07:24:08Z</time>
      </trkpt>
      <trkpt lat="44.69009" lon="5.92712">
        <ele>1520.46</ele>
        <time>2016-08-04T07:24:23Z</time>
      </trkpt>
      <trkpt lat="44.68994" lon="5.92705">
        <ele>1521.42</ele>
        <time>2016-08-04T07:24:41Z</time>
      </trkpt>
      <trkpt lat="44.68979" lon="5.92698">
        <ele>1522.39</ele>
        <time>2016-08-04T07:24:59Z</time>
      </trkpt>
      <trkpt lat="44.68963" lon="5.92692">
        <ele>1523.83</ele>
        <time>2016-08-04T07:25:19Z</time>
      </trkpt>
      <trkpt lat="44.68946" lon="5.92685">
        <ele>1525.27</ele>
        <time>2016-08-04T07:25:39Z</time>
      </trkpt>
      <trkpt lat="44.6893" lon="5.92682">
        <ele>1526.71</ele>
        <time>2016-08-04T07:25:59Z</time>
      </trkpt>
      <trkpt lat="44.68914" lon="5.92682">
        <ele>1527.19</ele>
        <time>2016-08-04T07:26:17Z</time>
      </trkpt>
      <trkpt lat="44.68907" lon="5.92682">
        <ele>1527.67</ele>
        <time>2016-08-04T07:26:33Z</time>
      </trkpt>
      <trkpt lat="44.68894" lon="5.92681">
        <ele>1529.59</ele>
        <time>2016-08-04T07:26:48Z</time>
      </trkpt>
      <trkpt lat="44.68873" lon="5.92675">
        <ele>1531.52</ele>
        <time>2016-08-04T07:27:07Z</time>
      </trkpt>
      <trkpt lat="44.6887" lon="5.92675">
        <ele>1530.56</ele>
        <time>2016-08-04T07:27:10Z</time>
      </trkpt>
      <trkpt lat="44.68857" lon="5.92675">
        <ele>1531.52</ele>
        <time>2016-08-04T07:27:23Z</time>
      </trkpt>
      <trkpt lat="44.6884" lon="5.92673">
        <ele>1532.48</ele>
        <time>2016-08-04T07:27:41Z</time>
      </trkpt>
      <trkpt lat="44.68822" lon="5.92675">
        <ele>1533.44</ele>
        <time>2016-08-04T07:28:01Z</time>
      </trkpt>
      <trkpt lat="44.68804" lon="5.92677">
        <ele>1534.88</ele>
        <time>2016-08-04T07:28:19Z</time>
      </trkpt>
      <trkpt lat="44.68789" lon="5.9268">
        <ele>1536.32</ele>
        <time>2016-08-04T07:28:38Z</time>
      </trkpt>
      <trkpt lat="44.68772" lon="5.9268">
        <ele>1537.77</ele>
        <time>2016-08-04T07:28:55Z</time>
      </trkpt>
      <trkpt lat="44.68757" lon="5.9268">
        <ele>1539.21</ele>
        <time>2016-08-04T07:29:15Z</time>
      </trkpt>
      <trkpt lat="44.6874" lon="5.9268">
        <ele>1540.65</ele>
        <time>2016-08-04T07:29:33Z</time>
      </trkpt>
      <trkpt lat="44.68727" lon="5.92678">
        <ele>1542.09</ele>
        <time>2016-08-04T07:29:49Z</time>
      </trkpt>
      <trkpt lat="44.68712" lon="5.92678">
        <ele>1542.57</ele>
        <time>2016-08-04T07:30:06Z</time>
      </trkpt>
      <trkpt lat="44.68695" lon="5.92675">
        <ele>1541.13</ele>
        <time>2016-08-04T07:30:25Z</time>
      </trkpt>
      <trkpt lat="44.68685" lon="5.92674">
        <ele>1541.13</ele>
        <time>2016-08-04T07:30:41Z</time>
      </trkpt>
      <trkpt lat="44.68679" lon="5.92666">
        <ele>1541.13</ele>
        <time>2016-08-04T07:30:59Z</time>
      </trkpt>
      <trkpt lat="44.68677" lon="5.92658">
        <ele>1541.13</ele>
        <time>2016-08-04T07:31:26Z</time>
      </trkpt>
      <trkpt lat="44.68675" lon="5.92662">
        <ele>1541.61</ele>
        <time>2016-08-04T07:31:44Z</time>
      </trkpt>
      <trkpt lat="44.68676" lon="5.92663">
        <ele>1541.13</ele>
        <time>2016-08-04T07:32:03Z</time>
      </trkpt>
      <trkpt lat="44.68676" lon="5.92661">
        <ele>1542.57</ele>
        <time>2016-08-04T07:32:06Z</time>
      </trkpt>
      <trkpt lat="44.6868" lon="5.92655">
        <ele>1541.61</ele>
        <time>2016-08-04T07:32:24Z</time>
      </trkpt>
      <trkpt lat="44.68683" lon="5.92657">
        <ele>1540.65</ele>
        <time>2016-08-04T07:32:49Z</time>
      </trkpt>
      <trkpt lat="44.68685" lon="5.92657">
        <ele>1541.13</ele>
        <time>2016-08-04T07:33:26Z</time>
      </trkpt>
      <trkpt lat="44.68679" lon="5.92655">
        <ele>1541.13</ele>
        <time>2016-08-04T07:34:02Z</time>
      </trkpt>
      <trkpt lat="44.68684" lon="5.92657">
        <ele>1541.61</ele>
        <time>2016-08-04T07:34:36Z</time>
      </trkpt>
      <trkpt lat="44.68681" lon="5.92656">
        <ele>1542.09</ele>
        <time>2016-08-04T07:35:08Z</time>
      </trkpt>
      <trkpt lat="44.6868" lon="5.92659">
        <ele>1542.09</ele>
        <time>2016-08-04T07:35:40Z</time>
      </trkpt>
      <trkpt lat="44.68681" lon="5.9266">
        <ele>1542.09</ele>
        <time>2016-08-04T07:36:10Z</time>
      </trkpt>
      <trkpt lat="44.68678" lon="5.92659">
        <ele>1543.05</ele>
        <time>2016-08-04T07:36:52Z</time>
      </trkpt>
      <trkpt lat="44.68682" lon="5.92665">
        <ele>1543.05</ele>
        <time>2016-08-04T07:37:28Z</time>
      </trkpt>
      <trkpt lat="44.68682" lon="5.92665">
        <ele>1543.05</ele>
        <time>2016-08-04T07:38:04Z</time>
      </trkpt>
      <trkpt lat="44.68685" lon="5.92661">
        <ele>1543.53</ele>
        <time>2016-08-04T07:38:49Z</time>
      </trkpt>
      <trkpt lat="44.68684" lon="5.92661">
        <ele>1544.98</ele>
        <time>2016-08-04T07:39:19Z</time>
      </trkpt>
      <trkpt lat="44.68684" lon="5.92656">
        <ele>1544.98</ele>
        <time>2016-08-04T07:39:45Z</time>
      </trkpt>
      <trkpt lat="44.68682" lon="5.92666">
        <ele>1544.98</ele>
        <time>2016-08-04T07:40:03Z</time>
      </trkpt>
      <trkpt lat="44.68683" lon="5.92667">
        <ele>1545.46</ele>
        <time>2016-08-04T07:40:29Z</time>
      </trkpt>
      <trkpt lat="44.68683" lon="5.92662">
        <ele>1545.46</ele>
        <time>2016-08-04T07:40:48Z</time>
      </trkpt>
      <trkpt lat="44.6868" lon="5.92658">
        <ele>1545.46</ele>
        <time>2016-08-04T07:41:05Z</time>
      </trkpt>
      <trkpt lat="44.68682" lon="5.92657">
        <ele>1545.46</ele>
        <time>2016-08-04T07:41:35Z</time>
      </trkpt>
      <trkpt lat="44.68683" lon="5.92669">
        <ele>1545.46</ele>
        <time>2016-08-04T07:42:07Z</time>
      </trkpt>
      <trkpt lat="44.68672" lon="5.92661">
        <ele>1545.46</ele>
        <time>2016-08-04T07:42:22Z</time>
      </trkpt>
      <trkpt lat="44.68665" lon="5.92649">
        <ele>1545.46</ele>
        <time>2016-08-04T07:42:36Z</time>
      </trkpt>
      <trkpt lat="44.68661" lon="5.92632">
        <ele>1545.46</ele>
        <time>2016-08-04T07:42:51Z</time>
      </trkpt>
      <trkpt lat="44.6866" lon="5.92621">
        <ele>1546.9</ele>
        <time>2016-08-04T07:43:07Z</time>
      </trkpt>
      <trkpt lat="44.68659" lon="5.92619">
        <ele>1546.9</ele>
        <time>2016-08-04T07:43:29Z</time>
      </trkpt>
      <trkpt lat="44.68663" lon="5.92613">
        <ele>1546.9</ele>
        <time>2016-08-04T07:43:39Z</time>
      </trkpt>
      <trkpt lat="44.68679" lon="5.92607">
        <ele>1548.34</ele>
        <time>2016-08-04T07:43:58Z</time>
      </trkpt>
      <trkpt lat="44.68688" lon="5.92596">
        <ele>1550.74</ele>
        <time>2016-08-04T07:44:17Z</time>
      </trkpt>
      <trkpt lat="44.68698" lon="5.92581">
        <ele>1552.19</ele>
        <time>2016-08-04T07:44:33Z</time>
      </trkpt>
      <trkpt lat="44.68713" lon="5.9257">
        <ele>1553.63</ele>
        <time>2016-08-04T07:44:50Z</time>
      </trkpt>
      <trkpt lat="44.68728" lon="5.92559">
        <ele>1555.07</ele>
        <time>2016-08-04T07:45:07Z</time>
      </trkpt>
      <trkpt lat="44.68742" lon="5.92551">
        <ele>1555.55</ele>
        <time>2016-08-04T07:45:24Z</time>
      </trkpt>
      <trkpt lat="44.68754" lon="5.92538">
        <ele>1556.51</ele>
        <time>2016-08-04T07:45:41Z</time>
      </trkpt>
      <trkpt lat="44.68763" lon="5.92518">
        <ele>1556.03</ele>
        <time>2016-08-04T07:46:00Z</time>
      </trkpt>
      <trkpt lat="44.68766" lon="5.92505">
        <ele>1556.51</ele>
        <time>2016-08-04T07:46:10Z</time>
      </trkpt>
      <trkpt lat="44.68774" lon="5.92481">
        <ele>1556.03</ele>
        <time>2016-08-04T07:46:27Z</time>
      </trkpt>
      <trkpt lat="44.68785" lon="5.92464">
        <ele>1556.03</ele>
        <time>2016-08-04T07:46:43Z</time>
      </trkpt>
      <trkpt lat="44.68801" lon="5.92456">
        <ele>1555.55</ele>
        <time>2016-08-04T07:47:00Z</time>
      </trkpt>
      <trkpt lat="44.68816" lon="5.92455">
        <ele>1556.51</ele>
        <time>2016-08-04T07:47:15Z</time>
      </trkpt>
      <trkpt lat="44.68833" lon="5.92453">
        <ele>1556.99</ele>
        <time>2016-08-04T07:47:34Z</time>
      </trkpt>
      <trkpt lat="44.68833" lon="5.92453">
        <ele>1557.95</ele>
        <time>2016-08-04T07:47:35Z</time>
      </trkpt>
      <trkpt lat="44.68847" lon="5.92453">
        <ele>1559.4</ele>
        <time>2016-08-04T07:47:50Z</time>
      </trkpt>
      <trkpt lat="44.68858" lon="5.92449">
        <ele>1560.84</ele>
        <time>2016-08-04T07:48:06Z</time>
      </trkpt>
      <trkpt lat="44.6886" lon="5.92448">
        <ele>1561.32</ele>
        <time>2016-08-04T07:48:09Z</time>
      </trkpt>
      <trkpt lat="44.68875" lon="5.92443">
        <ele>1562.28</ele>
        <time>2016-08-04T07:48:27Z</time>
      </trkpt>
      <trkpt lat="44.68887" lon="5.92438">
        <ele>1564.2</ele>
        <time>2016-08-04T07:48:43Z</time>
      </trkpt>
      <trkpt lat="44.68902" lon="5.92434">
        <ele>1566.12</ele>
        <time>2016-08-04T07:49:02Z</time>
      </trkpt>
      <trkpt lat="44.68905" lon="5.92432">
        <ele>1565.64</ele>
        <time>2016-08-04T07:49:07Z</time>
      </trkpt>
      <trkpt lat="44.68915" lon="5.92417">
        <ele>1565.64</ele>
        <time>2016-08-04T07:49:24Z</time>
      </trkpt>
      <trkpt lat="44.68926" lon="5.924">
        <ele>1567.09</ele>
        <time>2016-08-04T07:49:42Z</time>
      </trkpt>
      <trkpt lat="44.6894" lon="5.92382">
        <ele>1568.05</ele>
        <time>2016-08-04T07:50:03Z</time>
      </trkpt>
      <trkpt lat="44.68953" lon="5.92371">
        <ele>1568.53</ele>
        <time>2016-08-04T07:50:19Z</time>
      </trkpt>
      <trkpt lat="44.68965" lon="5.92358">
        <ele>1569.49</ele>
        <time>2016-08-04T07:50:35Z</time>
      </trkpt>
      <trkpt lat="44.68972" lon="5.92346">
        <ele>1570.93</ele>
        <time>2016-08-04T07:50:49Z</time>
      </trkpt>
      <trkpt lat="44.6897" lon="5.92346">
        <ele>1570.93</ele>
        <time>2016-08-04T07:51:03Z</time>
      </trkpt>
      <trkpt lat="44.68972" lon="5.9235">
        <ele>1571.41</ele>
        <time>2016-08-04T07:51:21Z</time>
      </trkpt>
      <trkpt lat="44.68971" lon="5.9235">
        <ele>1570.93</ele>
        <time>2016-08-04T07:51:42Z</time>
      </trkpt>
      <trkpt lat="44.6897" lon="5.9235">
        <ele>1571.89</ele>
        <time>2016-08-04T07:52:06Z</time>
      </trkpt>
      <trkpt lat="44.68972" lon="5.92347">
        <ele>1571.89</ele>
        <time>2016-08-04T07:52:35Z</time>
      </trkpt>
      <trkpt lat="44.68989" lon="5.92335">
        <ele>1570.93</ele>
        <time>2016-08-04T07:52:53Z</time>
      </trkpt>
      <trkpt lat="44.69002" lon="5.92331">
        <ele>1571.41</ele>
        <time>2016-08-04T07:53:09Z</time>
      </trkpt>
      <trkpt lat="44.69005" lon="5.92331">
        <ele>1571.41</ele>
        <time>2016-08-04T07:53:11Z</time>
      </trkpt>
      <trkpt lat="44.6902" lon="5.92325">
        <ele>1571.89</ele>
        <time>2016-08-04T07:53:29Z</time>
      </trkpt>
      <trkpt lat="44.69037" lon="5.92322">
        <ele>1572.85</ele>
        <time>2016-08-04T07:53:46Z</time>
      </trkpt>
      <trkpt lat="44.69052" lon="5.92319">
        <ele>1573.82</ele>
        <time>2016-08-04T07:54:04Z</time>
      </trkpt>
      <trkpt lat="44.69069" lon="5.92317">
        <ele>1575.74</ele>
        <time>2016-08-04T07:54:22Z</time>
      </trkpt>
      <trkpt lat="44.69086" lon="5.92312">
        <ele>1576.7</ele>
        <time>2016-08-04T07:54:43Z</time>
      </trkpt>
      <trkpt lat="44.69101" lon="5.92308">
        <ele>1577.18</ele>
        <time>2016-08-04T07:55:03Z</time>
      </trkpt>
      <trkpt lat="44.6912" lon="5.92308">
        <ele>1578.14</ele>
        <time>2016-08-04T07:55:25Z</time>
      </trkpt>
      <trkpt lat="44.69137" lon="5.92306">
        <ele>1579.58</ele>
        <time>2016-08-04T07:55:46Z</time>
      </trkpt>
      <trkpt lat="44.69152" lon="5.92304">
        <ele>1580.54</ele>
        <time>2016-08-04T07:56:03Z</time>
      </trkpt>
      <trkpt lat="44.69168" lon="5.92304">
        <ele>1581.51</ele>
        <time>2016-08-04T07:56:21Z</time>
      </trkpt>
      <trkpt lat="44.69182" lon="5.92303">
        <ele>1582.95</ele>
        <time>2016-08-04T07:56:39Z</time>
      </trkpt>
      <trkpt lat="44.69197" lon="5.92309">
        <ele>1583.43</ele>
        <time>2016-08-04T07:56:56Z</time>
      </trkpt>
      <trkpt lat="44.69215" lon="5.92307">
        <ele>1585.35</ele>
        <time>2016-08-04T07:57:19Z</time>
      </trkpt>
      <trkpt lat="44.69228" lon="5.92305">
        <ele>1587.27</ele>
        <time>2016-08-04T07:57:36Z</time>
      </trkpt>
      <trkpt lat="44.69242" lon="5.92306">
        <ele>1587.27</ele>
        <time>2016-08-04T07:57:51Z</time>
      </trkpt>
      <trkpt lat="44.69263" lon="5.92309">
        <ele>1586.79</ele>
        <time>2016-08-04T07:58:12Z</time>
      </trkpt>
      <trkpt lat="44.69276" lon="5.92309">
        <ele>1587.75</ele>
        <time>2016-08-04T07:58:32Z</time>
      </trkpt>
      <trkpt lat="44.69286" lon="5.92306">
        <ele>1588.72</ele>
        <time>2016-08-04T07:58:47Z</time>
      </trkpt>
      <trkpt lat="44.69305" lon="5.92307">
        <ele>1589.68</ele>
        <time>2016-08-04T07:59:04Z</time>
      </trkpt>
      <trkpt lat="44.69319" lon="5.92304">
        <ele>1592.08</ele>
        <time>2016-08-04T07:59:23Z</time>
      </trkpt>
      <trkpt lat="44.69332" lon="5.92296">
        <ele>1594.48</ele>
        <time>2016-08-04T07:59:44Z</time>
      </trkpt>
      <trkpt lat="44.69344" lon="5.92294">
        <ele>1597.37</ele>
        <time>2016-08-04T08:00:03Z</time>
      </trkpt>
      <trkpt lat="44.69351" lon="5.92288">
        <ele>1600.25</ele>
        <time>2016-08-04T08:00:19Z</time>
      </trkpt>
      <trkpt lat="44.69362" lon="5.92284">
        <ele>1601.69</ele>
        <time>2016-08-04T08:00:37Z</time>
      </trkpt>
      <trkpt lat="44.69376" lon="5.92284">
        <ele>1603.62</ele>
        <time>2016-08-04T08:00:56Z</time>
      </trkpt>
      <trkpt lat="44.6939" lon="5.92278">
        <ele>1606.5</ele>
        <time>2016-08-04T08:01:20Z</time>
      </trkpt>
      <trkpt lat="44.69399" lon="5.92271">
        <ele>1608.9</ele>
        <time>2016-08-04T08:01:37Z</time>
      </trkpt>
      <trkpt lat="44.6941" lon="5.92268">
        <ele>1610.35</ele>
        <time>2016-08-04T08:01:57Z</time>
      </trkpt>
      <trkpt lat="44.69421" lon="5.92265">
        <ele>1611.79</ele>
        <time>2016-08-04T08:02:12Z</time>
      </trkpt>
      <trkpt lat="44.69437" lon="5.92265">
        <ele>1613.71</ele>
        <time>2016-08-04T08:02:33Z</time>
      </trkpt>
      <trkpt lat="44.69455" lon="5.92262">
        <ele>1614.67</ele>
        <time>2016-08-04T08:02:55Z</time>
      </trkpt>
      <trkpt lat="44.69469" lon="5.92258">
        <ele>1616.59</ele>
        <time>2016-08-04T08:03:14Z</time>
      </trkpt>
      <trkpt lat="44.69485" lon="5.92259">
        <ele>1617.56</ele>
        <time>2016-08-04T08:03:34Z</time>
      </trkpt>
      <trkpt lat="44.69502" lon="5.92258">
        <ele>1617.07</ele>
        <time>2016-08-04T08:03:53Z</time>
      </trkpt>
      <trkpt lat="44.6952" lon="5.9226">
        <ele>1616.59</ele>
        <time>2016-08-04T08:04:13Z</time>
      </trkpt>
      <trkpt lat="44.69534" lon="5.92261">
        <ele>1617.56</ele>
        <time>2016-08-04T08:04:31Z</time>
      </trkpt>
      <trkpt lat="44.69548" lon="5.92258">
        <ele>1619.48</ele>
        <time>2016-08-04T08:04:49Z</time>
      </trkpt>
      <trkpt lat="44.69566" lon="5.92257">
        <ele>1618.04</ele>
        <time>2016-08-04T08:05:09Z</time>
      </trkpt>
      <trkpt lat="44.6958" lon="5.92256">
        <ele>1618.52</ele>
        <time>2016-08-04T08:05:27Z</time>
      </trkpt>
      <trkpt lat="44.69594" lon="5.92249">
        <ele>1619</ele>
        <time>2016-08-04T08:05:47Z</time>
      </trkpt>
      <trkpt lat="44.69601" lon="5.92239">
        <ele>1621.88</ele>
        <time>2016-08-04T08:06:05Z</time>
      </trkpt>
      <trkpt lat="44.69601" lon="5.92224">
        <ele>1623.8</ele>
        <time>2016-08-04T08:06:24Z</time>
      </trkpt>
      <trkpt lat="44.696" lon="5.92221">
        <ele>1623.8</ele>
        <time>2016-08-04T08:06:51Z</time>
      </trkpt>
      <trkpt lat="44.69602" lon="5.92223">
        <ele>1623.32</ele>
        <time>2016-08-04T08:07:17Z</time>
      </trkpt>
      <trkpt lat="44.696" lon="5.92221">
        <ele>1624.77</ele>
        <time>2016-08-04T08:07:36Z</time>
      </trkpt>
      <trkpt lat="44.69595" lon="5.92223">
        <ele>1626.21</ele>
        <time>2016-08-04T08:07:56Z</time>
      </trkpt>
      <trkpt lat="44.69595" lon="5.92217">
        <ele>1628.13</ele>
        <time>2016-08-04T08:08:19Z</time>
      </trkpt>
      <trkpt lat="44.69588" lon="5.92213">
        <ele>1631.01</ele>
        <time>2016-08-04T08:08:34Z</time>
      </trkpt>
      <trkpt lat="44.69582" lon="5.92203">
        <ele>1633.9</ele>
        <time>2016-08-04T08:08:49Z</time>
      </trkpt>
      <trkpt lat="44.69583" lon="5.92187">
        <ele>1636.78</ele>
        <time>2016-08-04T08:09:04Z</time>
      </trkpt>
      <trkpt lat="44.69578" lon="5.92176">
        <ele>1638.7</ele>
        <time>2016-08-04T08:09:23Z</time>
      </trkpt>
      <trkpt lat="44.69579" lon="5.92173">
        <ele>1639.19</ele>
        <time>2016-08-04T08:09:44Z</time>
      </trkpt>
      <trkpt lat="44.6958" lon="5.92173">
        <ele>1639.19</ele>
        <time>2016-08-04T08:10:06Z</time>
      </trkpt>
      <trkpt lat="44.6958" lon="5.92174">
        <ele>1638.7</ele>
        <time>2016-08-04T08:10:30Z</time>
      </trkpt>
      <trkpt lat="44.69581" lon="5.92173">
        <ele>1639.19</ele>
        <time>2016-08-04T08:11:01Z</time>
      </trkpt>
      <trkpt lat="44.6958" lon="5.92175">
        <ele>1639.19</ele>
        <time>2016-08-04T08:11:24Z</time>
      </trkpt>
      <trkpt lat="44.69581" lon="5.92173">
        <ele>1639.67</ele>
        <time>2016-08-04T08:11:48Z</time>
      </trkpt>
      <trkpt lat="44.69583" lon="5.92172">
        <ele>1639.19</ele>
        <time>2016-08-04T08:12:10Z</time>
      </trkpt>
      <trkpt lat="44.6958" lon="5.92173">
        <ele>1639.19</ele>
        <time>2016-08-04T08:12:31Z</time>
      </trkpt>
      <trkpt lat="44.69581" lon="5.92173">
        <ele>1639.19</ele>
        <time>2016-08-04T08:12:59Z</time>
      </trkpt>
      <trkpt lat="44.69581" lon="5.9217">
        <ele>1639.19</ele>
        <time>2016-08-04T08:13:19Z</time>
      </trkpt>
      <trkpt lat="44.69581" lon="5.9217">
        <ele>1639.67</ele>
        <time>2016-08-04T08:13:46Z</time>
      </trkpt>
      <trkpt lat="44.69574" lon="5.92173">
        <ele>1640.63</ele>
        <time>2016-08-04T08:14:02Z</time>
      </trkpt>
      <trkpt lat="44.69575" lon="5.92168">
        <ele>1641.11</ele>
        <time>2016-08-04T08:14:24Z</time>
      </trkpt>
      <trkpt lat="44.69573" lon="5.92169">
        <ele>1641.59</ele>
        <time>2016-08-04T08:14:46Z</time>
      </trkpt>
      <trkpt lat="44.69573" lon="5.92175">
        <ele>1641.59</ele>
        <time>2016-08-04T08:15:08Z</time>
      </trkpt>
      <trkpt lat="44.69569" lon="5.9216">
        <ele>1643.03</ele>
        <time>2016-08-04T08:15:23Z</time>
      </trkpt>
      <trkpt lat="44.69564" lon="5.92148">
        <ele>1645.43</ele>
        <time>2016-08-04T08:15:39Z</time>
      </trkpt>
      <trkpt lat="44.69561" lon="5.92138">
        <ele>1647.36</ele>
        <time>2016-08-04T08:15:55Z</time>
      </trkpt>
      <trkpt lat="44.69561" lon="5.92127">
        <ele>1649.28</ele>
        <time>2016-08-04T08:16:11Z</time>
      </trkpt>
      <trkpt lat="44.69555" lon="5.92122">
        <ele>1652.64</ele>
        <time>2016-08-04T08:16:29Z</time>
      </trkpt>
      <trkpt lat="44.69552" lon="5.92108">
        <ele>1655.05</ele>
        <time>2016-08-04T08:16:46Z</time>
      </trkpt>
      <trkpt lat="44.69547" lon="5.92099">
        <ele>1656.49</ele>
        <time>2016-08-04T08:17:01Z</time>
      </trkpt>
      <trkpt lat="44.69541" lon="5.921">
        <ele>1658.41</ele>
        <time>2016-08-04T08:17:16Z</time>
      </trkpt>
      <trkpt lat="44.69532" lon="5.92095">
        <ele>1659.85</ele>
        <time>2016-08-04T08:17:31Z</time>
      </trkpt>
      <trkpt lat="44.6953" lon="5.92081">
        <ele>1662.26</ele>
        <time>2016-08-04T08:17:52Z</time>
      </trkpt>
      <trkpt lat="44.69531" lon="5.92065">
        <ele>1664.18</ele>
        <time>2016-08-04T08:18:08Z</time>
      </trkpt>
      <trkpt lat="44.69532" lon="5.92061">
        <ele>1664.66</ele>
        <time>2016-08-04T08:18:29Z</time>
      </trkpt>
      <trkpt lat="44.6953" lon="5.92057">
        <ele>1665.14</ele>
        <time>2016-08-04T08:18:50Z</time>
      </trkpt>
      <trkpt lat="44.69529" lon="5.92056">
        <ele>1665.62</ele>
        <time>2016-08-04T08:19:14Z</time>
      </trkpt>
      <trkpt lat="44.69524" lon="5.92054">
        <ele>1666.1</ele>
        <time>2016-08-04T08:19:32Z</time>
      </trkpt>
      <trkpt lat="44.69521" lon="5.9205">
        <ele>1666.1</ele>
        <time>2016-08-04T08:19:50Z</time>
      </trkpt>
      <trkpt lat="44.69513" lon="5.92049">
        <ele>1666.58</ele>
        <time>2016-08-04T08:20:06Z</time>
      </trkpt>
      <trkpt lat="44.69508" lon="5.92041">
        <ele>1668.02</ele>
        <time>2016-08-04T08:20:20Z</time>
      </trkpt>
      <trkpt lat="44.69506" lon="5.92033">
        <ele>1668.02</ele>
        <time>2016-08-04T08:20:37Z</time>
      </trkpt>
      <trkpt lat="44.69507" lon="5.92033">
        <ele>1667.54</ele>
        <time>2016-08-04T08:20:56Z</time>
      </trkpt>
      <trkpt lat="44.69506" lon="5.92033">
        <ele>1667.06</ele>
        <time>2016-08-04T08:21:20Z</time>
      </trkpt>
      <trkpt lat="44.69505" lon="5.92033">
        <ele>1667.54</ele>
        <time>2016-08-04T08:21:46Z</time>
      </trkpt>
      <trkpt lat="44.69506" lon="5.92032">
        <ele>1667.54</ele>
        <time>2016-08-04T08:22:09Z</time>
      </trkpt>
      <trkpt lat="44.69505" lon="5.92033">
        <ele>1667.54</ele>
        <time>2016-08-04T08:22:30Z</time>
      </trkpt>
      <trkpt lat="44.69494" lon="5.9203">
        <ele>1668.99</ele>
        <time>2016-08-04T08:22:45Z</time>
      </trkpt>
      <trkpt lat="44.69485" lon="5.92025">
        <ele>1668.51</ele>
        <time>2016-08-04T08:23:01Z</time>
      </trkpt>
      <trkpt lat="44.69476" lon="5.9202">
        <ele>1668.02</ele>
        <time>2016-08-04T08:23:16Z</time>
      </trkpt>
      <trkpt lat="44.69468" lon="5.92007">
        <ele>1669.47</ele>
        <time>2016-08-04T08:23:32Z</time>
      </trkpt>
      <trkpt lat="44.69456" lon="5.91998">
        <ele>1669.47</ele>
        <time>2016-08-04T08:23:49Z</time>
      </trkpt>
      <trkpt lat="44.69446" lon="5.91988">
        <ele>1668.99</ele>
        <time>2016-08-04T08:24:05Z</time>
      </trkpt>
      <trkpt lat="44.69435" lon="5.91986">
        <ele>1669.47</ele>
        <time>2016-08-04T08:24:22Z</time>
      </trkpt>
      <trkpt lat="44.69427" lon="5.91982">
        <ele>1668.51</ele>
        <time>2016-08-04T08:24:35Z</time>
      </trkpt>
      <trkpt lat="44.69412" lon="5.91976">
        <ele>1669.47</ele>
        <time>2016-08-04T08:24:53Z</time>
      </trkpt>
      <trkpt lat="44.69401" lon="5.91971">
        <ele>1670.43</ele>
        <time>2016-08-04T08:25:09Z</time>
      </trkpt>
      <trkpt lat="44.69393" lon="5.91965">
        <ele>1669.95</ele>
        <time>2016-08-04T08:25:23Z</time>
      </trkpt>
      <trkpt lat="44.69387" lon="5.91957">
        <ele>1670.91</ele>
        <time>2016-08-04T08:25:39Z</time>
      </trkpt>
      <trkpt lat="44.69377" lon="5.91947">
        <ele>1672.35</ele>
        <time>2016-08-04T08:25:57Z</time>
      </trkpt>
      <trkpt lat="44.69369" lon="5.91937">
        <ele>1673.31</ele>
        <time>2016-08-04T08:26:13Z</time>
      </trkpt>
      <trkpt lat="44.69362" lon="5.91934">
        <ele>1673.31</ele>
        <time>2016-08-04T08:26:24Z</time>
      </trkpt>
      <trkpt lat="44.69348" lon="5.91923">
        <ele>1674.27</ele>
        <time>2016-08-04T08:26:44Z</time>
      </trkpt>
      <trkpt lat="44.69339" lon="5.91912">
        <ele>1675.72</ele>
        <time>2016-08-04T08:27:01Z</time>
      </trkpt>
      <trkpt lat="44.69332" lon="5.91896">
        <ele>1677.64</ele>
        <time>2016-08-04T08:27:17Z</time>
      </trkpt>
      <trkpt lat="44.69327" lon="5.91886">
        <ele>1678.6</ele>
        <time>2016-08-04T08:27:34Z</time>
      </trkpt>
      <trkpt lat="44.69323" lon="5.91883">
        <ele>1679.56</ele>
        <time>2016-08-04T08:27:41Z</time>
      </trkpt>
      <trkpt lat="44.6931" lon="5.91874">
        <ele>1680.04</ele>
        <time>2016-08-04T08:27:58Z</time>
      </trkpt>
      <trkpt lat="44.69299" lon="5.91867">
        <ele>1680.52</ele>
        <time>2016-08-04T08:28:12Z</time>
      </trkpt>
      <trkpt lat="44.6929" lon="5.91855">
        <ele>1681.48</ele>
        <time>2016-08-04T08:28:29Z</time>
      </trkpt>
      <trkpt lat="44.69284" lon="5.91842">
        <ele>1681.96</ele>
        <time>2016-08-04T08:28:43Z</time>
      </trkpt>
      <trkpt lat="44.69276" lon="5.91829">
        <ele>1682.44</ele>
        <time>2016-08-04T08:29:00Z</time>
      </trkpt>
      <trkpt lat="44.69262" lon="5.91825">
        <ele>1684.37</ele>
        <time>2016-08-04T08:29:19Z</time>
      </trkpt>
      <trkpt lat="44.69253" lon="5.91815">
        <ele>1684.85</ele>
        <time>2016-08-04T08:29:34Z</time>
      </trkpt>
      <trkpt lat="44.69241" lon="5.91809">
        <ele>1686.29</ele>
        <time>2016-08-04T08:29:51Z</time>
      </trkpt>
      <trkpt lat="44.69229" lon="5.91799">
        <ele>1687.25</ele>
        <time>2016-08-04T08:30:08Z</time>
      </trkpt>
      <trkpt lat="44.69221" lon="5.91785">
        <ele>1688.21</ele>
        <time>2016-08-04T08:30:25Z</time>
      </trkpt>
      <trkpt lat="44.69213" lon="5.91781">
        <ele>1690.14</ele>
        <time>2016-08-04T08:30:41Z</time>
      </trkpt>
      <trkpt lat="44.69208" lon="5.91781">
        <ele>1691.1</ele>
        <time>2016-08-04T08:30:55Z</time>
      </trkpt>
      <trkpt lat="44.69199" lon="5.91766">
        <ele>1692.06</ele>
        <time>2016-08-04T08:31:12Z</time>
      </trkpt>
      <trkpt lat="44.69197" lon="5.91766">
        <ele>1693.02</ele>
        <time>2016-08-04T08:31:31Z</time>
      </trkpt>
      <trkpt lat="44.69186" lon="5.91755">
        <ele>1694.94</ele>
        <time>2016-08-04T08:31:48Z</time>
      </trkpt>
      <trkpt lat="44.69176" lon="5.91743">
        <ele>1695.9</ele>
        <time>2016-08-04T08:32:05Z</time>
      </trkpt>
      <trkpt lat="44.69176" lon="5.91741">
        <ele>1696.86</ele>
        <time>2016-08-04T08:32:06Z</time>
      </trkpt>
      <trkpt lat="44.6917" lon="5.91723">
        <ele>1697.83</ele>
        <time>2016-08-04T08:32:22Z</time>
      </trkpt>
      <trkpt lat="44.69169" lon="5.91721">
        <ele>1698.79</ele>
        <time>2016-08-04T08:32:41Z</time>
      </trkpt>
      <trkpt lat="44.69169" lon="5.91717">
        <ele>1698.31</ele>
        <time>2016-08-04T08:33:11Z</time>
      </trkpt>
      <trkpt lat="44.69166" lon="5.91717">
        <ele>1698.31</ele>
        <time>2016-08-04T08:33:37Z</time>
      </trkpt>
      <trkpt lat="44.69156" lon="5.91706">
        <ele>1699.75</ele>
        <time>2016-08-04T08:33:55Z</time>
      </trkpt>
      <trkpt lat="44.69148" lon="5.91698">
        <ele>1700.23</ele>
        <time>2016-08-04T08:34:12Z</time>
      </trkpt>
      <trkpt lat="44.69143" lon="5.91692">
        <ele>1700.23</ele>
        <time>2016-08-04T08:34:26Z</time>
      </trkpt>
      <trkpt lat="44.69141" lon="5.9169">
        <ele>1700.71</ele>
        <time>2016-08-04T08:34:44Z</time>
      </trkpt>
      <trkpt lat="44.69138" lon="5.91689">
        <ele>1700.71</ele>
        <time>2016-08-04T08:35:10Z</time>
      </trkpt>
      <trkpt lat="44.69137" lon="5.91688">
        <ele>1699.75</ele>
        <time>2016-08-04T08:35:36Z</time>
      </trkpt>
      <trkpt lat="44.69137" lon="5.91686">
        <ele>1700.71</ele>
        <time>2016-08-04T08:35:52Z</time>
      </trkpt>
      <trkpt lat="44.6913" lon="5.91683">
        <ele>1700.23</ele>
        <time>2016-08-04T08:36:05Z</time>
      </trkpt>
      <trkpt lat="44.6913" lon="5.91679">
        <ele>1700.23</ele>
        <time>2016-08-04T08:36:31Z</time>
      </trkpt>
      <trkpt lat="44.6913" lon="5.91683">
        <ele>1700.71</ele>
        <time>2016-08-04T08:36:55Z</time>
      </trkpt>
      <trkpt lat="44.69129" lon="5.9168">
        <ele>1700.71</ele>
        <time>2016-08-04T08:37:13Z</time>
      </trkpt>
      <trkpt lat="44.69127" lon="5.91679">
        <ele>1700.71</ele>
        <time>2016-08-04T08:37:38Z</time>
      </trkpt>
      <trkpt lat="44.69127" lon="5.91684">
        <ele>1700.71</ele>
        <time>2016-08-04T08:38:00Z</time>
      </trkpt>
      <trkpt lat="44.69124" lon="5.91683">
        <ele>1700.71</ele>
        <time>2016-08-04T08:38:16Z</time>
      </trkpt>
      <trkpt lat="44.69117" lon="5.91682">
        <ele>1701.67</ele>
        <time>2016-08-04T08:38:38Z</time>
      </trkpt>
      <trkpt lat="44.6911" lon="5.91677">
        <ele>1702.15</ele>
        <time>2016-08-04T08:38:47Z</time>
      </trkpt>
      <trkpt lat="44.69094" lon="5.91673">
        <ele>1702.63</ele>
        <time>2016-08-04T08:39:06Z</time>
      </trkpt>
      <trkpt lat="44.6909" lon="5.91671">
        <ele>1702.15</ele>
        <time>2016-08-04T08:39:21Z</time>
      </trkpt>
      <trkpt lat="44.69077" lon="5.91666">
        <ele>1702.15</ele>
        <time>2016-08-04T08:39:37Z</time>
      </trkpt>
      <trkpt lat="44.69065" lon="5.91658">
        <ele>1703.59</ele>
        <time>2016-08-04T08:39:53Z</time>
      </trkpt>
      <trkpt lat="44.69056" lon="5.91654">
        <ele>1704.55</ele>
        <time>2016-08-04T08:40:06Z</time>
      </trkpt>
      <trkpt lat="44.69042" lon="5.91652">
        <ele>1705.04</ele>
        <time>2016-08-04T08:40:24Z</time>
      </trkpt>
      <trkpt lat="44.69027" lon="5.91652">
        <ele>1706.48</ele>
        <time>2016-08-04T08:40:41Z</time>
      </trkpt>
      <trkpt lat="44.69019" lon="5.91653">
        <ele>1707.44</ele>
        <time>2016-08-04T08:40:56Z</time>
      </trkpt>
      <trkpt lat="44.69009" lon="5.91651">
        <ele>1709.36</ele>
        <time>2016-08-04T08:41:14Z</time>
      </trkpt>
      <trkpt lat="44.68997" lon="5.91648">
        <ele>1710.8</ele>
        <time>2016-08-04T08:41:28Z</time>
      </trkpt>
      <trkpt lat="44.68987" lon="5.91636">
        <ele>1711.76</ele>
        <time>2016-08-04T08:41:45Z</time>
      </trkpt>
      <trkpt lat="44.68983" lon="5.91628">
        <ele>1713.69</ele>
        <time>2016-08-04T08:42:00Z</time>
      </trkpt>
      <trkpt lat="44.68976" lon="5.91621">
        <ele>1715.61</ele>
        <time>2016-08-04T08:42:17Z</time>
      </trkpt>
      <trkpt lat="44.68967" lon="5.91618">
        <ele>1717.05</ele>
        <time>2016-08-04T08:42:32Z</time>
      </trkpt>
      <trkpt lat="44.68955" lon="5.91607">
        <ele>1719.94</ele>
        <time>2016-08-04T08:42:49Z</time>
      </trkpt>
      <trkpt lat="44.68944" lon="5.91602">
        <ele>1720.9</ele>
        <time>2016-08-04T08:43:05Z</time>
      </trkpt>
      <trkpt lat="44.68941" lon="5.91601">
        <ele>1720.42</ele>
        <time>2016-08-04T08:43:09Z</time>
      </trkpt>
      <trkpt lat="44.68928" lon="5.91594">
        <ele>1722.34</ele>
        <time>2016-08-04T08:43:26Z</time>
      </trkpt>
      <trkpt lat="44.68915" lon="5.91584">
        <ele>1722.34</ele>
        <time>2016-08-04T08:43:44Z</time>
      </trkpt>
      <trkpt lat="44.68908" lon="5.91579">
        <ele>1723.3</ele>
        <time>2016-08-04T08:43:57Z</time>
      </trkpt>
      <trkpt lat="44.68895" lon="5.91581">
        <ele>1723.78</ele>
        <time>2016-08-04T08:44:13Z</time>
      </trkpt>
      <trkpt lat="44.6889" lon="5.91579">
        <ele>1723.78</ele>
        <time>2016-08-04T08:44:28Z</time>
      </trkpt>
      <trkpt lat="44.68887" lon="5.9158">
        <ele>1723.3</ele>
        <time>2016-08-04T08:44:43Z</time>
      </trkpt>
      <trkpt lat="44.68875" lon="5.91589">
        <ele>1722.34</ele>
        <time>2016-08-04T08:44:59Z</time>
      </trkpt>
      <trkpt lat="44.68866" lon="5.91594">
        <ele>1722.34</ele>
        <time>2016-08-04T08:45:14Z</time>
      </trkpt>
      <trkpt lat="44.68865" lon="5.91595">
        <ele>1722.34</ele>
        <time>2016-08-04T08:45:37Z</time>
      </trkpt>
      <trkpt lat="44.68869" lon="5.91598">
        <ele>1721.86</ele>
        <time>2016-08-04T08:45:59Z</time>
      </trkpt>
      <trkpt lat="44.68871" lon="5.91602">
        <ele>1721.86</ele>
        <time>2016-08-04T08:46:13Z</time>
      </trkpt>
      <trkpt lat="44.68873" lon="5.91607">
        <ele>1721.38</ele>
        <time>2016-08-04T08:46:29Z</time>
      </trkpt>
      <trkpt lat="44.68869" lon="5.91605">
        <ele>1721.38</ele>
        <time>2016-08-04T08:46:50Z</time>
      </trkpt>
      <trkpt lat="44.6887" lon="5.91605">
        <ele>1721.38</ele>
        <time>2016-08-04T08:47:08Z</time>
      </trkpt>
      <trkpt lat="44.68868" lon="5.91605">
        <ele>1722.82</ele>
        <time>2016-08-04T08:47:35Z</time>
      </trkpt>
      <trkpt lat="44.68867" lon="5.91608">
        <ele>1721.86</ele>
        <time>2016-08-04T08:48:01Z</time>
      </trkpt>
      <trkpt lat="44.68869" lon="5.91604">
        <ele>1721.38</ele>
        <time>2016-08-04T08:48:24Z</time>
      </trkpt>
      <trkpt lat="44.68872" lon="5.91603">
        <ele>1721.86</ele>
        <time>2016-08-04T08:48:34Z</time>
      </trkpt>
      <trkpt lat="44.68871" lon="5.91605">
        <ele>1721.86</ele>
        <time>2016-08-04T08:48:45Z</time>
      </trkpt>
      <trkpt lat="44.68873" lon="5.91604">
        <ele>1721.86</ele>
        <time>2016-08-04T08:48:49Z</time>
      </trkpt>
      <trkpt lat="44.68875" lon="5.91607">
        <ele>1721.38</ele>
        <time>2016-08-04T08:48:52Z</time>
      </trkpt>
      <trkpt lat="44.68876" lon="5.91612">
        <ele>1720.9</ele>
        <time>2016-08-04T08:48:55Z</time>
      </trkpt>
      <trkpt lat="44.68877" lon="5.9162">
        <ele>1719.46</ele>
        <time>2016-08-04T08:49:02Z</time>
      </trkpt>
      <trkpt lat="44.68876" lon="5.91623">
        <ele>1718.97</ele>
        <time>2016-08-04T08:49:05Z</time>
      </trkpt>
      <trkpt lat="44.6888" lon="5.91646">
        <ele>1718.97</ele>
        <time>2016-08-04T08:49:20Z</time>
      </trkpt>
      <trkpt lat="44.68889" lon="5.91667">
        <ele>1719.94</ele>
        <time>2016-08-04T08:49:37Z</time>
      </trkpt>
      <trkpt lat="44.68896" lon="5.91681">
        <ele>1720.42</ele>
        <time>2016-08-04T08:49:49Z</time>
      </trkpt>
      <trkpt lat="44.68901" lon="5.91696">
        <ele>1722.34</ele>
        <time>2016-08-04T08:50:05Z</time>
      </trkpt>
      <trkpt lat="44.68908" lon="5.91702">
        <ele>1723.78</ele>
        <time>2016-08-04T08:50:21Z</time>
      </trkpt>
      <trkpt lat="44.68909" lon="5.91702">
        <ele>1723.78</ele>
        <time>2016-08-04T08:50:41Z</time>
      </trkpt>
      <trkpt lat="44.68909" lon="5.91704">
        <ele>1724.26</ele>
        <time>2016-08-04T08:51:14Z</time>
      </trkpt>
      <trkpt lat="44.68907" lon="5.91701">
        <ele>1723.78</ele>
        <time>2016-08-04T08:51:41Z</time>
      </trkpt>
      <trkpt lat="44.6891" lon="5.91702">
        <ele>1723.78</ele>
        <time>2016-08-04T08:52:10Z</time>
      </trkpt>
      <trkpt lat="44.68906" lon="5.91702">
        <ele>1724.26</ele>
        <time>2016-08-04T08:52:31Z</time>
      </trkpt>
      <trkpt lat="44.68904" lon="5.91701">
        <ele>1724.26</ele>
        <time>2016-08-04T08:53:02Z</time>
      </trkpt>
      <trkpt lat="44.68904" lon="5.91705">
        <ele>1723.3</ele>
        <time>2016-08-04T08:53:32Z</time>
      </trkpt>
      <trkpt lat="44.68906" lon="5.91703">
        <ele>1724.26</ele>
        <time>2016-08-04T08:53:53Z</time>
      </trkpt>
      <trkpt lat="44.68902" lon="5.91697">
        <ele>1723.3</ele>
        <time>2016-08-04T08:54:05Z</time>
      </trkpt>
      <trkpt lat="44.68901" lon="5.91695">
        <ele>1722.82</ele>
        <time>2016-08-04T08:54:08Z</time>
      </trkpt>
      <trkpt lat="44.68894" lon="5.91683">
        <ele>1721.38</ele>
        <time>2016-08-04T08:54:21Z</time>
      </trkpt>
      <trkpt lat="44.6889" lon="5.91678">
        <ele>1720.9</ele>
        <time>2016-08-04T08:54:26Z</time>
      </trkpt>
      <trkpt lat="44.68886" lon="5.91671">
        <ele>1720.42</ele>
        <time>2016-08-04T08:54:32Z</time>
      </trkpt>
      <trkpt lat="44.6888" lon="5.91649">
        <ele>1720.42</ele>
        <time>2016-08-04T08:54:49Z</time>
      </trkpt>
      <trkpt lat="44.68876" lon="5.91635">
        <ele>1719.94</ele>
        <time>2016-08-04T08:54:59Z</time>
      </trkpt>
      <trkpt lat="44.68872" lon="5.91629">
        <ele>1720.42</ele>
        <time>2016-08-04T08:55:05Z</time>
      </trkpt>
      <trkpt lat="44.68866" lon="5.91629">
        <ele>1719.94</ele>
        <time>2016-08-04T08:55:12Z</time>
      </trkpt>
      <trkpt lat="44.68864" lon="5.91629">
        <ele>1719.94</ele>
        <time>2016-08-04T08:55:14Z</time>
      </trkpt>
      <trkpt lat="44.68851" lon="5.91627">
        <ele>1717.05</ele>
        <time>2016-08-04T08:55:30Z</time>
      </trkpt>
      <trkpt lat="44.68842" lon="5.91624">
        <ele>1714.65</ele>
        <time>2016-08-04T08:55:45Z</time>
      </trkpt>
      <trkpt lat="44.68837" lon="5.91621">
        <ele>1711.76</ele>
        <time>2016-08-04T08:55:59Z</time>
      </trkpt>
      <trkpt lat="44.68833" lon="5.91612">
        <ele>1709.36</ele>
        <time>2016-08-04T08:56:14Z</time>
      </trkpt>
      <trkpt lat="44.68832" lon="5.91602">
        <ele>1707.44</ele>
        <time>2016-08-04T08:56:27Z</time>
      </trkpt>
      <trkpt lat="44.6883" lon="5.9159">
        <ele>1706</ele>
        <time>2016-08-04T08:56:41Z</time>
      </trkpt>
      <trkpt lat="44.68823" lon="5.91588">
        <ele>1703.59</ele>
        <time>2016-08-04T08:56:56Z</time>
      </trkpt>
      <trkpt lat="44.68814" lon="5.91587">
        <ele>1700.23</ele>
        <time>2016-08-04T08:57:09Z</time>
      </trkpt>
      <trkpt lat="44.68815" lon="5.91574">
        <ele>1697.83</ele>
        <time>2016-08-04T08:57:24Z</time>
      </trkpt>
      <trkpt lat="44.68815" lon="5.91566">
        <ele>1697.34</ele>
        <time>2016-08-04T08:57:38Z</time>
      </trkpt>
      <trkpt lat="44.68814" lon="5.91559">
        <ele>1695.42</ele>
        <time>2016-08-04T08:57:53Z</time>
      </trkpt>
      <trkpt lat="44.68809" lon="5.91558">
        <ele>1693.5</ele>
        <time>2016-08-04T08:58:06Z</time>
      </trkpt>
      <trkpt lat="44.68803" lon="5.91556">
        <ele>1691.1</ele>
        <time>2016-08-04T08:58:21Z</time>
      </trkpt>
      <trkpt lat="44.68804" lon="5.91553">
        <ele>1689.65</ele>
        <time>2016-08-04T08:58:36Z</time>
      </trkpt>
      <trkpt lat="44.68801" lon="5.91554">
        <ele>1687.73</ele>
        <time>2016-08-04T08:58:51Z</time>
      </trkpt>
      <trkpt lat="44.68801" lon="5.91545">
        <ele>1686.29</ele>
        <time>2016-08-04T08:59:06Z</time>
      </trkpt>
      <trkpt lat="44.68795" lon="5.91549">
        <ele>1683.41</ele>
        <time>2016-08-04T08:59:21Z</time>
      </trkpt>
      <trkpt lat="44.68794" lon="5.91545">
        <ele>1681.48</ele>
        <time>2016-08-04T08:59:34Z</time>
      </trkpt>
      <trkpt lat="44.6879" lon="5.91545">
        <ele>1679.56</ele>
        <time>2016-08-04T08:59:50Z</time>
      </trkpt>
      <trkpt lat="44.68786" lon="5.9154">
        <ele>1677.16</ele>
        <time>2016-08-04T09:00:08Z</time>
      </trkpt>
      <trkpt lat="44.68783" lon="5.91536">
        <ele>1674.27</ele>
        <time>2016-08-04T09:00:25Z</time>
      </trkpt>
      <trkpt lat="44.68778" lon="5.91536">
        <ele>1672.83</ele>
        <time>2016-08-04T09:00:43Z</time>
      </trkpt>
      <trkpt lat="44.68776" lon="5.91539">
        <ele>1670.91</ele>
        <time>2016-08-04T09:00:54Z</time>
      </trkpt>
      <trkpt lat="44.68774" lon="5.91537">
        <ele>1668.99</ele>
        <time>2016-08-04T09:01:12Z</time>
      </trkpt>
      <trkpt lat="44.68769" lon="5.91541">
        <ele>1665.62</ele>
        <time>2016-08-04T09:01:29Z</time>
      </trkpt>
      <trkpt lat="44.6876" lon="5.91541">
        <ele>1663.22</ele>
        <time>2016-08-04T09:01:46Z</time>
      </trkpt>
      <trkpt lat="44.68756" lon="5.91546">
        <ele>1660.33</ele>
        <time>2016-08-04T09:02:01Z</time>
      </trkpt>
      <trkpt lat="44.68749" lon="5.91552">
        <ele>1657.93</ele>
        <time>2016-08-04T09:02:17Z</time>
      </trkpt>
      <trkpt lat="44.68744" lon="5.91553">
        <ele>1656.49</ele>
        <time>2016-08-04T09:02:33Z</time>
      </trkpt>
      <trkpt lat="44.68747" lon="5.91546">
        <ele>1656.01</ele>
        <time>2016-08-04T09:02:49Z</time>
      </trkpt>
      <trkpt lat="44.68742" lon="5.91549">
        <ele>1653.12</ele>
        <time>2016-08-04T09:03:05Z</time>
      </trkpt>
      <trkpt lat="44.68738" lon="5.91546">
        <ele>1651.2</ele>
        <time>2016-08-04T09:03:25Z</time>
      </trkpt>
      <trkpt lat="44.68736" lon="5.91537">
        <ele>1648.32</ele>
        <time>2016-08-04T09:03:40Z</time>
      </trkpt>
      <trkpt lat="44.68735" lon="5.91522">
        <ele>1645.43</ele>
        <time>2016-08-04T09:03:59Z</time>
      </trkpt>
      <trkpt lat="44.68729" lon="5.9152">
        <ele>1643.51</ele>
        <time>2016-08-04T09:04:21Z</time>
      </trkpt>
      <trkpt lat="44.68727" lon="5.91517">
        <ele>1640.63</ele>
        <time>2016-08-04T09:04:39Z</time>
      </trkpt>
      <trkpt lat="44.68726" lon="5.91509">
        <ele>1637.74</ele>
        <time>2016-08-04T09:04:55Z</time>
      </trkpt>
      <trkpt lat="44.68727" lon="5.91497">
        <ele>1635.34</ele>
        <time>2016-08-04T09:05:14Z</time>
      </trkpt>
      <trkpt lat="44.68726" lon="5.91491">
        <ele>1633.42</ele>
        <time>2016-08-04T09:05:29Z</time>
      </trkpt>
      <trkpt lat="44.68721" lon="5.91482">
        <ele>1631.01</ele>
        <time>2016-08-04T09:05:44Z</time>
      </trkpt>
      <trkpt lat="44.68718" lon="5.9148">
        <ele>1629.57</ele>
        <time>2016-08-04T09:06:02Z</time>
      </trkpt>
      <trkpt lat="44.68716" lon="5.91467">
        <ele>1626.69</ele>
        <time>2016-08-04T09:06:17Z</time>
      </trkpt>
      <trkpt lat="44.68711" lon="5.91451">
        <ele>1625.25</ele>
        <time>2016-08-04T09:06:31Z</time>
      </trkpt>
      <trkpt lat="44.68704" lon="5.91428">
        <ele>1624.28</ele>
        <time>2016-08-04T09:06:49Z</time>
      </trkpt>
      <trkpt lat="44.68698" lon="5.91404">
        <ele>1623.32</ele>
        <time>2016-08-04T09:07:09Z</time>
      </trkpt>
      <trkpt lat="44.68693" lon="5.91403">
        <ele>1623.32</ele>
        <time>2016-08-04T09:07:24Z</time>
      </trkpt>
      <trkpt lat="44.68692" lon="5.91402">
        <ele>1623.32</ele>
        <time>2016-08-04T09:07:44Z</time>
      </trkpt>
      <trkpt lat="44.68691" lon="5.91393">
        <ele>1622.36</ele>
        <time>2016-08-04T09:07:59Z</time>
      </trkpt>
      <trkpt lat="44.68689" lon="5.91387">
        <ele>1623.32</ele>
        <time>2016-08-04T09:08:11Z</time>
      </trkpt>
      <trkpt lat="44.68689" lon="5.91384">
        <ele>1622.84</ele>
        <time>2016-08-04T09:08:26Z</time>
      </trkpt>
      <trkpt lat="44.68688" lon="5.9138">
        <ele>1623.32</ele>
        <time>2016-08-04T09:08:44Z</time>
      </trkpt>
      <trkpt lat="44.68687" lon="5.9138">
        <ele>1623.32</ele>
        <time>2016-08-04T09:09:03Z</time>
      </trkpt>
      <trkpt lat="44.68686" lon="5.9138">
        <ele>1623.8</ele>
        <time>2016-08-04T09:09:20Z</time>
      </trkpt>
      <trkpt lat="44.68686" lon="5.9137">
        <ele>1623.8</ele>
        <time>2016-08-04T09:09:33Z</time>
      </trkpt>
      <trkpt lat="44.68685" lon="5.91364">
        <ele>1625.73</ele>
        <time>2016-08-04T09:09:47Z</time>
      </trkpt>
      <trkpt lat="44.68689" lon="5.9137">
        <ele>1624.28</ele>
        <time>2016-08-04T09:10:05Z</time>
      </trkpt>
      <trkpt lat="44.68691" lon="5.9137">
        <ele>1623.8</ele>
        <time>2016-08-04T09:10:23Z</time>
      </trkpt>
      <trkpt lat="44.6869" lon="5.91373">
        <ele>1623.32</ele>
        <time>2016-08-04T09:10:30Z</time>
      </trkpt>
      <trkpt lat="44.68684" lon="5.91377">
        <ele>1623.32</ele>
        <time>2016-08-04T09:10:37Z</time>
      </trkpt>
      <trkpt lat="44.6868" lon="5.91377">
        <ele>1623.8</ele>
        <time>2016-08-04T09:10:51Z</time>
      </trkpt>
      <trkpt lat="44.6868" lon="5.91375">
        <ele>1623.8</ele>
        <time>2016-08-04T09:11:12Z</time>
      </trkpt>
      <trkpt lat="44.68681" lon="5.91376">
        <ele>1623.8</ele>
        <time>2016-08-04T09:11:32Z</time>
      </trkpt>
      <trkpt lat="44.68679" lon="5.91377">
        <ele>1623.8</ele>
        <time>2016-08-04T09:11:54Z</time>
      </trkpt>
      <trkpt lat="44.68681" lon="5.91377">
        <ele>1623.8</ele>
        <time>2016-08-04T09:12:09Z</time>
      </trkpt>
      <trkpt lat="44.6868" lon="5.91381">
        <ele>1624.28</ele>
        <time>2016-08-04T09:12:14Z</time>
      </trkpt>
      <trkpt lat="44.68683" lon="5.9139">
        <ele>1622.84</ele>
        <time>2016-08-04T09:12:31Z</time>
      </trkpt>
      <trkpt lat="44.68688" lon="5.91382">
        <ele>1622.84</ele>
        <time>2016-08-04T09:12:46Z</time>
      </trkpt>
      <trkpt lat="44.68689" lon="5.91382">
        <ele>1622.84</ele>
        <time>2016-08-04T09:13:04Z</time>
      </trkpt>
      <trkpt lat="44.6869" lon="5.91385">
        <ele>1622.36</ele>
        <time>2016-08-04T09:13:24Z</time>
      </trkpt>
      <trkpt lat="44.68688" lon="5.91387">
        <ele>1622.84</ele>
        <time>2016-08-04T09:13:48Z</time>
      </trkpt>
      <trkpt lat="44.6869" lon="5.91383">
        <ele>1622.84</ele>
        <time>2016-08-04T09:14:13Z</time>
      </trkpt>
      <trkpt lat="44.68688" lon="5.91385">
        <ele>1622.36</ele>
        <time>2016-08-04T09:14:34Z</time>
      </trkpt>
      <trkpt lat="44.6869" lon="5.91381">
        <ele>1622.36</ele>
        <time>2016-08-04T09:14:54Z</time>
      </trkpt>
      <trkpt lat="44.68689" lon="5.91379">
        <ele>1622.36</ele>
        <time>2016-08-04T09:15:17Z</time>
      </trkpt>
      <trkpt lat="44.68689" lon="5.91381">
        <ele>1622.36</ele>
        <time>2016-08-04T09:15:40Z</time>
      </trkpt>
      <trkpt lat="44.68688" lon="5.91381">
        <ele>1622.36</ele>
        <time>2016-08-04T09:15:57Z</time>
      </trkpt>
      <trkpt lat="44.68689" lon="5.91383">
        <ele>1622.36</ele>
        <time>2016-08-04T09:16:16Z</time>
      </trkpt>
      <trkpt lat="44.68689" lon="5.91383">
        <ele>1622.36</ele>
        <time>2016-08-04T09:16:29Z</time>
      </trkpt>
      <trkpt lat="44.68689" lon="5.91383">
        <ele>1622.36</ele>
        <time>2016-08-04T09:16:58Z</time>
      </trkpt>
      <trkpt lat="44.6869" lon="5.91385">
        <ele>1622.36</ele>
        <time>2016-08-04T09:17:14Z</time>
      </trkpt>
      <trkpt lat="44.68689" lon="5.91386">
        <ele>1622.36</ele>
        <time>2016-08-04T09:17:28Z</time>
      </trkpt>
      <trkpt lat="44.68689" lon="5.91386">
        <ele>1622.36</ele>
        <time>2016-08-04T09:17:47Z</time>
      </trkpt>
      <trkpt lat="44.68688" lon="5.91387">
        <ele>1622.36</ele>
        <time>2016-08-04T09:18:06Z</time>
      </trkpt>
      <trkpt lat="44.68687" lon="5.91388">
        <ele>1622.36</ele>
        <time>2016-08-04T09:18:23Z</time>
      </trkpt>
      <trkpt lat="44.68687" lon="5.91386">
        <ele>1622.36</ele>
        <time>2016-08-04T09:18:36Z</time>
      </trkpt>
      <trkpt lat="44.68685" lon="5.91389">
        <ele>1622.36</ele>
        <time>2016-08-04T09:18:49Z</time>
      </trkpt>
      <trkpt lat="44.68685" lon="5.91389">
        <ele>1622.36</ele>
        <time>2016-08-04T09:19:06Z</time>
      </trkpt>
      <trkpt lat="44.68686" lon="5.91389">
        <ele>1622.36</ele>
        <time>2016-08-04T09:19:32Z</time>
      </trkpt>
      <trkpt lat="44.68685" lon="5.91384">
        <ele>1622.84</ele>
        <time>2016-08-04T09:19:40Z</time>
      </trkpt>
      <trkpt lat="44.68681" lon="5.91376">
        <ele>1623.32</ele>
        <time>2016-08-04T09:19:57Z</time>
      </trkpt>
      <trkpt lat="44.68681" lon="5.91378">
        <ele>1623.32</ele>
        <time>2016-08-04T09:20:08Z</time>
      </trkpt>
      <trkpt lat="44.68677" lon="5.91387">
        <ele>1622.84</ele>
        <time>2016-08-04T09:20:17Z</time>
      </trkpt>
      <trkpt lat="44.68674" lon="5.91404">
        <ele>1621.88</ele>
        <time>2016-08-04T09:20:32Z</time>
      </trkpt>
      <trkpt lat="44.68672" lon="5.91409">
        <ele>1621.88</ele>
        <time>2016-08-04T09:20:36Z</time>
      </trkpt>
      <trkpt lat="44.68668" lon="5.91419">
        <ele>1621.4</ele>
        <time>2016-08-04T09:20:44Z</time>
      </trkpt>
      <trkpt lat="44.68659" lon="5.91438">
        <ele>1619.48</ele>
        <time>2016-08-04T09:21:01Z</time>
      </trkpt>
      <trkpt lat="44.6866" lon="5.9144">
        <ele>1619.48</ele>
        <time>2016-08-04T09:21:03Z</time>
      </trkpt>
      <trkpt lat="44.68652" lon="5.9146">
        <ele>1617.07</ele>
        <time>2016-08-04T09:21:21Z</time>
      </trkpt>
      <trkpt lat="44.68645" lon="5.91474">
        <ele>1616.11</ele>
        <time>2016-08-04T09:21:35Z</time>
      </trkpt>
      <trkpt lat="44.68643" lon="5.9148">
        <ele>1615.63</ele>
        <time>2016-08-04T09:21:40Z</time>
      </trkpt>
      <trkpt lat="44.68637" lon="5.91493">
        <ele>1615.15</ele>
        <time>2016-08-04T09:21:55Z</time>
      </trkpt>
      <trkpt lat="44.68629" lon="5.91509">
        <ele>1613.71</ele>
        <time>2016-08-04T09:22:11Z</time>
      </trkpt>
      <trkpt lat="44.68621" lon="5.91523">
        <ele>1613.23</ele>
        <time>2016-08-04T09:22:26Z</time>
      </trkpt>
      <trkpt lat="44.68615" lon="5.91538">
        <ele>1612.75</ele>
        <time>2016-08-04T09:22:40Z</time>
      </trkpt>
      <trkpt lat="44.68609" lon="5.91556">
        <ele>1612.27</ele>
        <time>2016-08-04T09:22:55Z</time>
      </trkpt>
      <trkpt lat="44.686" lon="5.91572">
        <ele>1611.31</ele>
        <time>2016-08-04T09:23:12Z</time>
      </trkpt>
      <trkpt lat="44.68595" lon="5.91587">
        <ele>1610.83</ele>
        <time>2016-08-04T09:23:26Z</time>
      </trkpt>
      <trkpt lat="44.68592" lon="5.91596">
        <ele>1611.31</ele>
        <time>2016-08-04T09:23:39Z</time>
      </trkpt>
      <trkpt lat="44.6859" lon="5.91602">
        <ele>1610.35</ele>
        <time>2016-08-04T09:23:55Z</time>
      </trkpt>
      <trkpt lat="44.68587" lon="5.9161">
        <ele>1609.86</ele>
        <time>2016-08-04T09:24:09Z</time>
      </trkpt>
      <trkpt lat="44.68586" lon="5.91616">
        <ele>1609.38</ele>
        <time>2016-08-04T09:24:23Z</time>
      </trkpt>
      <trkpt lat="44.68592" lon="5.91621">
        <ele>1609.38</ele>
        <time>2016-08-04T09:24:31Z</time>
      </trkpt>
      <trkpt lat="44.68593" lon="5.91623">
        <ele>1610.35</ele>
        <time>2016-08-04T09:24:47Z</time>
      </trkpt>
      <trkpt lat="44.68597" lon="5.91631">
        <ele>1610.35</ele>
        <time>2016-08-04T09:25:03Z</time>
      </trkpt>
      <trkpt lat="44.68597" lon="5.91638">
        <ele>1610.35</ele>
        <time>2016-08-04T09:25:21Z</time>
      </trkpt>
      <trkpt lat="44.68596" lon="5.91638">
        <ele>1610.35</ele>
        <time>2016-08-04T09:25:47Z</time>
      </trkpt>
      <trkpt lat="44.68599" lon="5.91664">
        <ele>1609.38</ele>
        <time>2016-08-04T09:26:04Z</time>
      </trkpt>
      <trkpt lat="44.68594" lon="5.91694">
        <ele>1609.38</ele>
        <time>2016-08-04T09:26:23Z</time>
      </trkpt>
      <trkpt lat="44.68593" lon="5.91701">
        <ele>1609.38</ele>
        <time>2016-08-04T09:26:28Z</time>
      </trkpt>
      <trkpt lat="44.68596" lon="5.91723">
        <ele>1607.46</ele>
        <time>2016-08-04T09:26:44Z</time>
      </trkpt>
      <trkpt lat="44.68598" lon="5.91746">
        <ele>1605.06</ele>
        <time>2016-08-04T09:27:01Z</time>
      </trkpt>
      <trkpt lat="44.68591" lon="5.91762">
        <ele>1602.66</ele>
        <time>2016-08-04T09:27:18Z</time>
      </trkpt>
      <trkpt lat="44.68586" lon="5.91781">
        <ele>1600.73</ele>
        <time>2016-08-04T09:27:33Z</time>
      </trkpt>
      <trkpt lat="44.68579" lon="5.918">
        <ele>1598.81</ele>
        <time>2016-08-04T09:27:49Z</time>
      </trkpt>
      <trkpt lat="44.68575" lon="5.91826">
        <ele>1598.81</ele>
        <time>2016-08-04T09:28:05Z</time>
      </trkpt>
      <trkpt lat="44.68584" lon="5.91836">
        <ele>1600.73</ele>
        <time>2016-08-04T09:28:19Z</time>
      </trkpt>
      <trkpt lat="44.68594" lon="5.91844">
        <ele>1602.66</ele>
        <time>2016-08-04T09:28:35Z</time>
      </trkpt>
      <trkpt lat="44.68606" lon="5.91846">
        <ele>1604.1</ele>
        <time>2016-08-04T09:28:51Z</time>
      </trkpt>
      <trkpt lat="44.68612" lon="5.91848">
        <ele>1603.14</ele>
        <time>2016-08-04T09:29:06Z</time>
      </trkpt>
      <trkpt lat="44.68615" lon="5.91849">
        <ele>1603.14</ele>
        <time>2016-08-04T09:29:25Z</time>
      </trkpt>
      <trkpt lat="44.68623" lon="5.91848">
        <ele>1603.62</ele>
        <time>2016-08-04T09:29:40Z</time>
      </trkpt>
      <trkpt lat="44.68633" lon="5.91856">
        <ele>1605.06</ele>
        <time>2016-08-04T09:29:52Z</time>
      </trkpt>
      <trkpt lat="44.68641" lon="5.91865">
        <ele>1606.98</ele>
        <time>2016-08-04T09:30:06Z</time>
      </trkpt>
      <trkpt lat="44.68649" lon="5.9188">
        <ele>1606.98</ele>
        <time>2016-08-04T09:30:20Z</time>
      </trkpt>
      <trkpt lat="44.6865" lon="5.91894">
        <ele>1605.06</ele>
        <time>2016-08-04T09:30:34Z</time>
      </trkpt>
      <trkpt lat="44.68654" lon="5.91907">
        <ele>1603.62</ele>
        <time>2016-08-04T09:30:50Z</time>
      </trkpt>
      <trkpt lat="44.68653" lon="5.9192">
        <ele>1601.69</ele>
        <time>2016-08-04T09:31:07Z</time>
      </trkpt>
      <trkpt lat="44.68657" lon="5.91932">
        <ele>1602.17</ele>
        <time>2016-08-04T09:31:24Z</time>
      </trkpt>
      <trkpt lat="44.68659" lon="5.91941">
        <ele>1602.17</ele>
        <time>2016-08-04T09:31:37Z</time>
      </trkpt>
      <trkpt lat="44.68661" lon="5.91957">
        <ele>1602.17</ele>
        <time>2016-08-04T09:31:51Z</time>
      </trkpt>
      <trkpt lat="44.68666" lon="5.91948">
        <ele>1604.1</ele>
        <time>2016-08-04T09:32:07Z</time>
      </trkpt>
      <trkpt lat="44.68675" lon="5.91946">
        <ele>1606.5</ele>
        <time>2016-08-04T09:32:25Z</time>
      </trkpt>
      <trkpt lat="44.68683" lon="5.91954">
        <ele>1607.46</ele>
        <time>2016-08-04T09:32:38Z</time>
      </trkpt>
      <trkpt lat="44.6869" lon="5.91969">
        <ele>1608.42</ele>
        <time>2016-08-04T09:32:53Z</time>
      </trkpt>
      <trkpt lat="44.68697" lon="5.91983">
        <ele>1608.9</ele>
        <time>2016-08-04T09:33:10Z</time>
      </trkpt>
      <trkpt lat="44.687" lon="5.92003">
        <ele>1608.9</ele>
        <time>2016-08-04T09:33:26Z</time>
      </trkpt>
      <trkpt lat="44.68703" lon="5.92013">
        <ele>1609.38</ele>
        <time>2016-08-04T09:33:41Z</time>
      </trkpt>
      <trkpt lat="44.68706" lon="5.92025">
        <ele>1610.35</ele>
        <time>2016-08-04T09:33:58Z</time>
      </trkpt>
      <trkpt lat="44.68708" lon="5.92029">
        <ele>1610.35</ele>
        <time>2016-08-04T09:34:15Z</time>
      </trkpt>
      <trkpt lat="44.68712" lon="5.92041">
        <ele>1609.86</ele>
        <time>2016-08-04T09:34:24Z</time>
      </trkpt>
      <trkpt lat="44.68716" lon="5.9206">
        <ele>1610.35</ele>
        <time>2016-08-04T09:34:42Z</time>
      </trkpt>
      <trkpt lat="44.68725" lon="5.92068">
        <ele>1612.27</ele>
        <time>2016-08-04T09:34:58Z</time>
      </trkpt>
      <trkpt lat="44.68722" lon="5.92066">
        <ele>1612.27</ele>
        <time>2016-08-04T09:35:22Z</time>
      </trkpt>
      <trkpt lat="44.68734" lon="5.92083">
        <ele>1611.31</ele>
        <time>2016-08-04T09:35:41Z</time>
      </trkpt>
      <trkpt lat="44.68744" lon="5.9209">
        <ele>1611.31</ele>
        <time>2016-08-04T09:35:58Z</time>
      </trkpt>
      <trkpt lat="44.68753" lon="5.92097">
        <ele>1610.83</ele>
        <time>2016-08-04T09:36:14Z</time>
      </trkpt>
      <trkpt lat="44.68768" lon="5.92098">
        <ele>1611.79</ele>
        <time>2016-08-04T09:36:32Z</time>
      </trkpt>
      <trkpt lat="44.68777" lon="5.92095">
        <ele>1613.23</ele>
        <time>2016-08-04T09:36:58Z</time>
      </trkpt>
      <trkpt lat="44.68786" lon="5.92095">
        <ele>1614.67</ele>
        <time>2016-08-04T09:37:15Z</time>
      </trkpt>
      <trkpt lat="44.68798" lon="5.92097">
        <ele>1615.15</ele>
        <time>2016-08-04T09:37:33Z</time>
      </trkpt>
      <trkpt lat="44.68807" lon="5.92102">
        <ele>1614.67</ele>
        <time>2016-08-04T09:37:52Z</time>
      </trkpt>
      <trkpt lat="44.68821" lon="5.92106">
        <ele>1614.67</ele>
        <time>2016-08-04T09:38:07Z</time>
      </trkpt>
      <trkpt lat="44.68835" lon="5.92106">
        <ele>1616.11</ele>
        <time>2016-08-04T09:38:23Z</time>
      </trkpt>
      <trkpt lat="44.68848" lon="5.92107">
        <ele>1616.59</ele>
        <time>2016-08-04T09:38:39Z</time>
      </trkpt>
      <trkpt lat="44.68861" lon="5.92114">
        <ele>1616.11</ele>
        <time>2016-08-04T09:38:55Z</time>
      </trkpt>
      <trkpt lat="44.68873" lon="5.92109">
        <ele>1618.04</ele>
        <time>2016-08-04T09:39:12Z</time>
      </trkpt>
      <trkpt lat="44.68878" lon="5.92112">
        <ele>1618.04</ele>
        <time>2016-08-04T09:39:28Z</time>
      </trkpt>
      <trkpt lat="44.68876" lon="5.92122">
        <ele>1615.63</ele>
        <time>2016-08-04T09:39:42Z</time>
      </trkpt>
      <trkpt lat="44.68872" lon="5.92129">
        <ele>1613.23</ele>
        <time>2016-08-04T09:39:56Z</time>
      </trkpt>
      <trkpt lat="44.68876" lon="5.92134">
        <ele>1612.75</ele>
        <time>2016-08-04T09:40:12Z</time>
      </trkpt>
      <trkpt lat="44.68879" lon="5.92145">
        <ele>1609.86</ele>
        <time>2016-08-04T09:40:27Z</time>
      </trkpt>
      <trkpt lat="44.6888" lon="5.92153">
        <ele>1607.46</ele>
        <time>2016-08-04T09:40:43Z</time>
      </trkpt>
      <trkpt lat="44.68883" lon="5.92169">
        <ele>1604.58</ele>
        <time>2016-08-04T09:41:00Z</time>
      </trkpt>
      <trkpt lat="44.68881" lon="5.92181">
        <ele>1602.17</ele>
        <time>2016-08-04T09:41:14Z</time>
      </trkpt>
      <trkpt lat="44.68874" lon="5.9219">
        <ele>1600.73</ele>
        <time>2016-08-04T09:41:27Z</time>
      </trkpt>
      <trkpt lat="44.68866" lon="5.922">
        <ele>1598.81</ele>
        <time>2016-08-04T09:41:43Z</time>
      </trkpt>
      <trkpt lat="44.6886" lon="5.92206">
        <ele>1597.85</ele>
        <time>2016-08-04T09:42:02Z</time>
      </trkpt>
      <trkpt lat="44.68853" lon="5.92213">
        <ele>1595.93</ele>
        <time>2016-08-04T09:42:15Z</time>
      </trkpt>
      <trkpt lat="44.68846" lon="5.92219">
        <ele>1594.48</ele>
        <time>2016-08-04T09:42:27Z</time>
      </trkpt>
      <trkpt lat="44.68845" lon="5.9222">
        <ele>1594</ele>
        <time>2016-08-04T09:42:29Z</time>
      </trkpt>
      <trkpt lat="44.68835" lon="5.92224">
        <ele>1592.56</ele>
        <time>2016-08-04T09:42:44Z</time>
      </trkpt>
      <trkpt lat="44.68829" lon="5.9223">
        <ele>1592.08</ele>
        <time>2016-08-04T09:42:55Z</time>
      </trkpt>
      <trkpt lat="44.68828" lon="5.92234">
        <ele>1592.08</ele>
        <time>2016-08-04T09:43:08Z</time>
      </trkpt>
      <trkpt lat="44.68822" lon="5.9224">
        <ele>1590.16</ele>
        <time>2016-08-04T09:43:30Z</time>
      </trkpt>
      <trkpt lat="44.68811" lon="5.92238">
        <ele>1589.68</ele>
        <time>2016-08-04T09:43:44Z</time>
      </trkpt>
      <trkpt lat="44.6881" lon="5.92242">
        <ele>1588.72</ele>
        <time>2016-08-04T09:44:00Z</time>
      </trkpt>
      <trkpt lat="44.68809" lon="5.92257">
        <ele>1588.72</ele>
        <time>2016-08-04T09:44:17Z</time>
      </trkpt>
      <trkpt lat="44.6881" lon="5.92262">
        <ele>1588.72</ele>
        <time>2016-08-04T09:44:20Z</time>
      </trkpt>
      <trkpt lat="44.68813" lon="5.92271">
        <ele>1588.24</ele>
        <time>2016-08-04T09:44:28Z</time>
      </trkpt>
      <trkpt lat="44.68812" lon="5.92276">
        <ele>1588.24</ele>
        <time>2016-08-04T09:44:31Z</time>
      </trkpt>
      <trkpt lat="44.68809" lon="5.92293">
        <ele>1588.24</ele>
        <time>2016-08-04T09:44:47Z</time>
      </trkpt>
      <trkpt lat="44.6881" lon="5.92306">
        <ele>1589.2</ele>
        <time>2016-08-04T09:45:02Z</time>
      </trkpt>
      <trkpt lat="44.68812" lon="5.92305">
        <ele>1588.72</ele>
        <time>2016-08-04T09:45:15Z</time>
      </trkpt>
      <trkpt lat="44.68817" lon="5.92313">
        <ele>1587.75</ele>
        <time>2016-08-04T09:45:30Z</time>
      </trkpt>
      <trkpt lat="44.68816" lon="5.92317">
        <ele>1588.24</ele>
        <time>2016-08-04T09:45:46Z</time>
      </trkpt>
      <trkpt lat="44.68817" lon="5.92313">
        <ele>1588.24</ele>
        <time>2016-08-04T09:46:05Z</time>
      </trkpt>
      <trkpt lat="44.68815" lon="5.92317">
        <ele>1588.24</ele>
        <time>2016-08-04T09:46:23Z</time>
      </trkpt>
      <trkpt lat="44.68816" lon="5.92318">
        <ele>1588.24</ele>
        <time>2016-08-04T09:46:45Z</time>
      </trkpt>
      <trkpt lat="44.68816" lon="5.92317">
        <ele>1587.75</ele>
        <time>2016-08-04T09:47:14Z</time>
      </trkpt>
      <trkpt lat="44.68818" lon="5.92318">
        <ele>1587.75</ele>
        <time>2016-08-04T09:47:42Z</time>
      </trkpt>
      <trkpt lat="44.68817" lon="5.92316">
        <ele>1588.72</ele>
        <time>2016-08-04T09:48:07Z</time>
      </trkpt>
      <trkpt lat="44.68816" lon="5.92329">
        <ele>1585.83</ele>
        <time>2016-08-04T09:48:22Z</time>
      </trkpt>
      <trkpt lat="44.68817" lon="5.9233">
        <ele>1585.35</ele>
        <time>2016-08-04T09:48:38Z</time>
      </trkpt>
      <trkpt lat="44.68814" lon="5.92338">
        <ele>1583.91</ele>
        <time>2016-08-04T09:48:52Z</time>
      </trkpt>
      <trkpt lat="44.68813" lon="5.92348">
        <ele>1581.51</ele>
        <time>2016-08-04T09:49:06Z</time>
      </trkpt>
      <trkpt lat="44.68809" lon="5.92354">
        <ele>1580.06</ele>
        <time>2016-08-04T09:49:18Z</time>
      </trkpt>
      <trkpt lat="44.68801" lon="5.92358">
        <ele>1578.14</ele>
        <time>2016-08-04T09:49:34Z</time>
      </trkpt>
      <trkpt lat="44.68797" lon="5.92362">
        <ele>1576.7</ele>
        <time>2016-08-04T09:49:47Z</time>
      </trkpt>
      <trkpt lat="44.68795" lon="5.92371">
        <ele>1574.3</ele>
        <time>2016-08-04T09:50:01Z</time>
      </trkpt>
      <trkpt lat="44.68797" lon="5.9238">
        <ele>1571.89</ele>
        <time>2016-08-04T09:50:16Z</time>
      </trkpt>
      <trkpt lat="44.68799" lon="5.92388">
        <ele>1570.93</ele>
        <time>2016-08-04T09:50:25Z</time>
      </trkpt>
      <trkpt lat="44.68799" lon="5.92399">
        <ele>1568.53</ele>
        <time>2016-08-04T09:50:39Z</time>
      </trkpt>
      <trkpt lat="44.68802" lon="5.92413">
        <ele>1566.12</ele>
        <time>2016-08-04T09:50:55Z</time>
      </trkpt>
      <trkpt lat="44.688" lon="5.92425">
        <ele>1564.2</ele>
        <time>2016-08-04T09:51:05Z</time>
      </trkpt>
      <trkpt lat="44.68796" lon="5.92436">
        <ele>1562.28</ele>
        <time>2016-08-04T09:51:16Z</time>
      </trkpt>
      <trkpt lat="44.6879" lon="5.92445">
        <ele>1561.32</ele>
        <time>2016-08-04T09:51:26Z</time>
      </trkpt>
      <trkpt lat="44.68784" lon="5.92461">
        <ele>1560.36</ele>
        <time>2016-08-04T09:51:40Z</time>
      </trkpt>
      <trkpt lat="44.68783" lon="5.92472">
        <ele>1560.84</ele>
        <time>2016-08-04T09:51:52Z</time>
      </trkpt>
      <trkpt lat="44.68778" lon="5.92492">
        <ele>1561.32</ele>
        <time>2016-08-04T09:52:06Z</time>
      </trkpt>
      <trkpt lat="44.68773" lon="5.92511">
        <ele>1560.84</ele>
        <time>2016-08-04T09:52:21Z</time>
      </trkpt>
      <trkpt lat="44.68767" lon="5.92526">
        <ele>1561.32</ele>
        <time>2016-08-04T09:52:33Z</time>
      </trkpt>
      <trkpt lat="44.68759" lon="5.92541">
        <ele>1561.8</ele>
        <time>2016-08-04T09:52:48Z</time>
      </trkpt>
      <trkpt lat="44.68748" lon="5.92558">
        <ele>1561.32</ele>
        <time>2016-08-04T09:53:03Z</time>
      </trkpt>
      <trkpt lat="44.68736" lon="5.92566">
        <ele>1560.36</ele>
        <time>2016-08-04T09:53:17Z</time>
      </trkpt>
      <trkpt lat="44.68727" lon="5.92576">
        <ele>1559.4</ele>
        <time>2016-08-04T09:53:30Z</time>
      </trkpt>
      <trkpt lat="44.68713" lon="5.92582">
        <ele>1559.4</ele>
        <time>2016-08-04T09:53:45Z</time>
      </trkpt>
      <trkpt lat="44.68707" lon="5.92589">
        <ele>1558.92</ele>
        <time>2016-08-04T09:53:52Z</time>
      </trkpt>
      <trkpt lat="44.687" lon="5.92601">
        <ele>1556.99</ele>
        <time>2016-08-04T09:54:07Z</time>
      </trkpt>
      <trkpt lat="44.68693" lon="5.92613">
        <ele>1555.07</ele>
        <time>2016-08-04T09:54:23Z</time>
      </trkpt>
      <trkpt lat="44.68683" lon="5.92624">
        <ele>1553.63</ele>
        <time>2016-08-04T09:54:38Z</time>
      </trkpt>
      <trkpt lat="44.68674" lon="5.92631">
        <ele>1552.67</ele>
        <time>2016-08-04T09:54:54Z</time>
      </trkpt>
      <trkpt lat="44.68673" lon="5.9263">
        <ele>1551.71</ele>
        <time>2016-08-04T09:55:09Z</time>
      </trkpt>
      <trkpt lat="44.68665" lon="5.92645">
        <ele>1551.71</ele>
        <time>2016-08-04T09:55:21Z</time>
      </trkpt>
      <trkpt lat="44.68659" lon="5.92645">
        <ele>1551.22</ele>
        <time>2016-08-04T09:55:38Z</time>
      </trkpt>
      <trkpt lat="44.68655" lon="5.92641">
        <ele>1551.71</ele>
        <time>2016-08-04T09:55:49Z</time>
      </trkpt>
      <trkpt lat="44.68653" lon="5.92639">
        <ele>1552.19</ele>
        <time>2016-08-04T09:56:05Z</time>
      </trkpt>
      <trkpt lat="44.68646" lon="5.92653">
        <ele>1552.19</ele>
        <time>2016-08-04T09:56:19Z</time>
      </trkpt>
      <trkpt lat="44.68645" lon="5.92655">
        <ele>1552.19</ele>
        <time>2016-08-04T09:56:21Z</time>
      </trkpt>
      <trkpt lat="44.68641" lon="5.92664">
        <ele>1552.67</ele>
        <time>2016-08-04T09:56:36Z</time>
      </trkpt>
      <trkpt lat="44.68639" lon="5.92662">
        <ele>1553.15</ele>
        <time>2016-08-04T09:56:55Z</time>
      </trkpt>
      <trkpt lat="44.68632" lon="5.92662">
        <ele>1553.15</ele>
        <time>2016-08-04T09:57:07Z</time>
      </trkpt>
      <trkpt lat="44.6863" lon="5.92662">
        <ele>1553.15</ele>
        <time>2016-08-04T09:57:10Z</time>
      </trkpt>
      <trkpt lat="44.68626" lon="5.92661">
        <ele>1553.63</ele>
        <time>2016-08-04T09:57:13Z</time>
      </trkpt>
      <trkpt lat="44.68624" lon="5.92662">
        <ele>1553.63</ele>
        <time>2016-08-04T09:57:15Z</time>
      </trkpt>
      <trkpt lat="44.68619" lon="5.92661">
        <ele>1553.63</ele>
        <time>2016-08-04T09:57:20Z</time>
      </trkpt>
      <trkpt lat="44.68611" lon="5.9266">
        <ele>1553.63</ele>
        <time>2016-08-04T09:57:32Z</time>
      </trkpt>
      <trkpt lat="44.68604" lon="5.9266">
        <ele>1553.15</ele>
        <time>2016-08-04T09:57:38Z</time>
      </trkpt>
      <trkpt lat="44.68593" lon="5.9266">
        <ele>1553.63</ele>
        <time>2016-08-04T09:57:48Z</time>
      </trkpt>
      <trkpt lat="44.68588" lon="5.92661">
        <ele>1553.63</ele>
        <time>2016-08-04T09:57:54Z</time>
      </trkpt>
      <trkpt lat="44.68581" lon="5.92659">
        <ele>1554.11</ele>
        <time>2016-08-04T09:58:08Z</time>
      </trkpt>
      <trkpt lat="44.6858" lon="5.92651">
        <ele>1554.11</ele>
        <time>2016-08-04T09:58:21Z</time>
      </trkpt>
      <trkpt lat="44.68579" lon="5.92649">
        <ele>1552.67</ele>
        <time>2016-08-04T09:58:40Z</time>
      </trkpt>
      <trkpt lat="44.68579" lon="5.92651">
        <ele>1552.19</ele>
        <time>2016-08-04T09:59:27Z</time>
      </trkpt>
      <trkpt lat="44.68579" lon="5.9265">
        <ele>1551.71</ele>
        <time>2016-08-04T10:00:08Z</time>
      </trkpt>
      <trkpt lat="44.68579" lon="5.92649">
        <ele>1552.19</ele>
        <time>2016-08-04T10:00:39Z</time>
      </trkpt>
      <trkpt lat="44.68577" lon="5.92651">
        <ele>1552.19</ele>
        <time>2016-08-04T10:01:20Z</time>
      </trkpt>
      <trkpt lat="44.68575" lon="5.92654">
        <ele>1552.19</ele>
        <time>2016-08-04T10:01:56Z</time>
      </trkpt>
      <trkpt lat="44.68578" lon="5.92659">
        <ele>1552.19</ele>
        <time>2016-08-04T10:02:36Z</time>
      </trkpt>
      <trkpt lat="44.68577" lon="5.92649">
        <ele>1552.19</ele>
        <time>2016-08-04T10:03:15Z</time>
      </trkpt>
      <trkpt lat="44.68575" lon="5.92645">
        <ele>1552.19</ele>
        <time>2016-08-04T10:03:54Z</time>
      </trkpt>
      <trkpt lat="44.68579" lon="5.92646">
        <ele>1552.19</ele>
        <time>2016-08-04T10:04:33Z</time>
      </trkpt>
      <trkpt lat="44.68578" lon="5.92646">
        <ele>1552.19</ele>
        <time>2016-08-04T10:05:04Z</time>
      </trkpt>
      <trkpt lat="44.68576" lon="5.92645">
        <ele>1552.19</ele>
        <time>2016-08-04T10:05:41Z</time>
      </trkpt>
      <trkpt lat="44.68577" lon="5.92646">
        <ele>1552.19</ele>
        <time>2016-08-04T10:06:18Z</time>
      </trkpt>
      <trkpt lat="44.68576" lon="5.92643">
        <ele>1552.67</ele>
        <time>2016-08-04T10:06:54Z</time>
      </trkpt>
      <trkpt lat="44.68577" lon="5.92641">
        <ele>1552.67</ele>
        <time>2016-08-04T10:07:33Z</time>
      </trkpt>
      <trkpt lat="44.68577" lon="5.92644">
        <ele>1553.15</ele>
        <time>2016-08-04T10:08:09Z</time>
      </trkpt>
      <trkpt lat="44.68573" lon="5.92647">
        <ele>1553.63</ele>
        <time>2016-08-04T10:08:45Z</time>
      </trkpt>
      <trkpt lat="44.68575" lon="5.92641">
        <ele>1554.11</ele>
        <time>2016-08-04T10:09:18Z</time>
      </trkpt>
      <trkpt lat="44.68577" lon="5.92648">
        <ele>1554.11</ele>
        <time>2016-08-04T10:09:52Z</time>
      </trkpt>
      <trkpt lat="44.68581" lon="5.92645">
        <ele>1554.11</ele>
        <time>2016-08-04T10:10:30Z</time>
      </trkpt>
      <trkpt lat="44.68581" lon="5.92649">
        <ele>1554.11</ele>
        <time>2016-08-04T10:11:14Z</time>
      </trkpt>
      <trkpt lat="44.68575" lon="5.92645">
        <ele>1554.11</ele>
        <time>2016-08-04T10:11:53Z</time>
      </trkpt>
      <trkpt lat="44.68576" lon="5.92644">
        <ele>1554.59</ele>
        <time>2016-08-04T10:12:26Z</time>
      </trkpt>
      <trkpt lat="44.68579" lon="5.92643">
        <ele>1554.59</ele>
        <time>2016-08-04T10:12:55Z</time>
      </trkpt>
      <trkpt lat="44.68579" lon="5.92644">
        <ele>1554.59</ele>
        <time>2016-08-04T10:13:34Z</time>
      </trkpt>
      <trkpt lat="44.68574" lon="5.92649">
        <ele>1554.59</ele>
        <time>2016-08-04T10:14:16Z</time>
      </trkpt>
      <trkpt lat="44.68575" lon="5.9265">
        <ele>1554.59</ele>
        <time>2016-08-04T10:14:45Z</time>
      </trkpt>
      <trkpt lat="44.68576" lon="5.92645">
        <ele>1555.07</ele>
        <time>2016-08-04T10:15:16Z</time>
      </trkpt>
      <trkpt lat="44.68579" lon="5.92649">
        <ele>1555.07</ele>
        <time>2016-08-04T10:15:52Z</time>
      </trkpt>
      <trkpt lat="44.68578" lon="5.92651">
        <ele>1555.07</ele>
        <time>2016-08-04T10:16:26Z</time>
      </trkpt>
      <trkpt lat="44.68576" lon="5.9265">
        <ele>1555.55</ele>
        <time>2016-08-04T10:17:02Z</time>
      </trkpt>
      <trkpt lat="44.68578" lon="5.92649">
        <ele>1555.55</ele>
        <time>2016-08-04T10:17:42Z</time>
      </trkpt>
      <trkpt lat="44.68584" lon="5.92646">
        <ele>1555.55</ele>
        <time>2016-08-04T10:18:17Z</time>
      </trkpt>
      <trkpt lat="44.68584" lon="5.92643">
        <ele>1556.03</ele>
        <time>2016-08-04T10:18:57Z</time>
      </trkpt>
      <trkpt lat="44.6858" lon="5.92645">
        <ele>1555.55</ele>
        <time>2016-08-04T10:19:28Z</time>
      </trkpt>
      <trkpt lat="44.68585" lon="5.92642">
        <ele>1555.55</ele>
        <time>2016-08-04T10:20:11Z</time>
      </trkpt>
      <trkpt lat="44.68583" lon="5.92641">
        <ele>1555.55</ele>
        <time>2016-08-04T10:20:48Z</time>
      </trkpt>
      <trkpt lat="44.68583" lon="5.92643">
        <ele>1555.55</ele>
        <time>2016-08-04T10:21:25Z</time>
      </trkpt>
      <trkpt lat="44.68584" lon="5.92644">
        <ele>1556.03</ele>
        <time>2016-08-04T10:21:59Z</time>
      </trkpt>
      <trkpt lat="44.68584" lon="5.92642">
        <ele>1556.03</ele>
        <time>2016-08-04T10:22:35Z</time>
      </trkpt>
      <trkpt lat="44.68581" lon="5.92641">
        <ele>1556.51</ele>
        <time>2016-08-04T10:23:11Z</time>
      </trkpt>
      <trkpt lat="44.68584" lon="5.9264">
        <ele>1556.99</ele>
        <time>2016-08-04T10:23:47Z</time>
      </trkpt>
      <trkpt lat="44.68584" lon="5.92641">
        <ele>1557.47</ele>
        <time>2016-08-04T10:24:25Z</time>
      </trkpt>
      <trkpt lat="44.68588" lon="5.92637">
        <ele>1557.47</ele>
        <time>2016-08-04T10:24:57Z</time>
      </trkpt>
      <trkpt lat="44.68585" lon="5.92639">
        <ele>1557.95</ele>
        <time>2016-08-04T10:25:32Z</time>
      </trkpt>
      <trkpt lat="44.68582" lon="5.92641">
        <ele>1558.43</ele>
        <time>2016-08-04T10:26:14Z</time>
      </trkpt>
      <trkpt lat="44.68578" lon="5.92639">
        <ele>1558.43</ele>
        <time>2016-08-04T10:26:44Z</time>
      </trkpt>
      <trkpt lat="44.68581" lon="5.92646">
        <ele>1558.92</ele>
        <time>2016-08-04T10:27:23Z</time>
      </trkpt>
      <trkpt lat="44.68583" lon="5.92645">
        <ele>1558.92</ele>
        <time>2016-08-04T10:28:04Z</time>
      </trkpt>
      <trkpt lat="44.68584" lon="5.92645">
        <ele>1558.92</ele>
        <time>2016-08-04T10:28:36Z</time>
      </trkpt>
      <trkpt lat="44.68584" lon="5.92645">
        <ele>1558.92</ele>
        <time>2016-08-04T10:29:15Z</time>
      </trkpt>
      <trkpt lat="44.68583" lon="5.92641">
        <ele>1558.92</ele>
        <time>2016-08-04T10:29:53Z</time>
      </trkpt>
      <trkpt lat="44.68582" lon="5.92641">
        <ele>1559.4</ele>
        <time>2016-08-04T10:30:33Z</time>
      </trkpt>
      <trkpt lat="44.68583" lon="5.92645">
        <ele>1559.88</ele>
        <time>2016-08-04T10:31:08Z</time>
      </trkpt>
      <trkpt lat="44.68579" lon="5.92643">
        <ele>1559.88</ele>
        <time>2016-08-04T10:31:40Z</time>
      </trkpt>
      <trkpt lat="44.6858" lon="5.92644">
        <ele>1559.88</ele>
        <time>2016-08-04T10:32:15Z</time>
      </trkpt>
      <trkpt lat="44.68581" lon="5.92645">
        <ele>1560.36</ele>
        <time>2016-08-04T10:32:49Z</time>
      </trkpt>
      <trkpt lat="44.68581" lon="5.92643">
        <ele>1560.36</ele>
        <time>2016-08-04T10:33:27Z</time>
      </trkpt>
      <trkpt lat="44.68583" lon="5.92642">
        <ele>1560.84</ele>
        <time>2016-08-04T10:34:07Z</time>
      </trkpt>
      <trkpt lat="44.6858" lon="5.92644">
        <ele>1560.84</ele>
        <time>2016-08-04T10:34:38Z</time>
      </trkpt>
      <trkpt lat="44.6858" lon="5.92644">
        <ele>1560.84</ele>
        <time>2016-08-04T10:35:18Z</time>
      </trkpt>
      <trkpt lat="44.68583" lon="5.92643">
        <ele>1560.84</ele>
        <time>2016-08-04T10:35:54Z</time>
      </trkpt>
      <trkpt lat="44.68584" lon="5.92643">
        <ele>1561.32</ele>
        <time>2016-08-04T10:36:24Z</time>
      </trkpt>
      <trkpt lat="44.68584" lon="5.92642">
        <ele>1561.32</ele>
        <time>2016-08-04T10:36:58Z</time>
      </trkpt>
      <trkpt lat="44.68582" lon="5.92645">
        <ele>1561.32</ele>
        <time>2016-08-04T10:37:35Z</time>
      </trkpt>
      <trkpt lat="44.68579" lon="5.92645">
        <ele>1561.8</ele>
        <time>2016-08-04T10:38:11Z</time>
      </trkpt>
      <trkpt lat="44.68579" lon="5.92644">
        <ele>1561.32</ele>
        <time>2016-08-04T10:38:46Z</time>
      </trkpt>
      <trkpt lat="44.6858" lon="5.92643">
        <ele>1561.8</ele>
        <time>2016-08-04T10:39:23Z</time>
      </trkpt>
      <trkpt lat="44.6858" lon="5.92646">
        <ele>1561.8</ele>
        <time>2016-08-04T10:39:54Z</time>
      </trkpt>
      <trkpt lat="44.68583" lon="5.92644">
        <ele>1562.28</ele>
        <time>2016-08-04T10:40:33Z</time>
      </trkpt>
      <trkpt lat="44.6858" lon="5.92647">
        <ele>1562.76</ele>
        <time>2016-08-04T10:41:13Z</time>
      </trkpt>
      <trkpt lat="44.68582" lon="5.92644">
        <ele>1562.28</ele>
        <time>2016-08-04T10:41:49Z</time>
      </trkpt>
      <trkpt lat="44.68582" lon="5.92652">
        <ele>1562.28</ele>
        <time>2016-08-04T10:42:23Z</time>
      </trkpt>
      <trkpt lat="44.68595" lon="5.92663">
        <ele>1562.28</ele>
        <time>2016-08-04T10:43:07Z</time>
      </trkpt>
      <trkpt lat="44.6859" lon="5.92661">
        <ele>1561.8</ele>
        <time>2016-08-04T10:43:42Z</time>
      </trkpt>
      <trkpt lat="44.68581" lon="5.92653">
        <ele>1562.28</ele>
        <time>2016-08-04T10:44:16Z</time>
      </trkpt>
      <trkpt lat="44.68583" lon="5.92653">
        <ele>1561.8</ele>
        <time>2016-08-04T10:44:53Z</time>
      </trkpt>
      <trkpt lat="44.6858" lon="5.9265">
        <ele>1561.32</ele>
        <time>2016-08-04T10:45:24Z</time>
      </trkpt>
      <trkpt lat="44.68588" lon="5.92654">
        <ele>1561.32</ele>
        <time>2016-08-04T10:45:55Z</time>
      </trkpt>
      <trkpt lat="44.6859" lon="5.92654">
        <ele>1561.32</ele>
        <time>2016-08-04T10:46:34Z</time>
      </trkpt>
      <trkpt lat="44.68581" lon="5.92651">
        <ele>1561.32</ele>
        <time>2016-08-04T10:47:07Z</time>
      </trkpt>
      <trkpt lat="44.68579" lon="5.92643">
        <ele>1560.84</ele>
        <time>2016-08-04T10:47:42Z</time>
      </trkpt>
      <trkpt lat="44.68577" lon="5.92647">
        <ele>1561.32</ele>
        <time>2016-08-04T10:48:16Z</time>
      </trkpt>
      <trkpt lat="44.68579" lon="5.92646">
        <ele>1560.36</ele>
        <time>2016-08-04T10:48:52Z</time>
      </trkpt>
      <trkpt lat="44.68579" lon="5.92648">
        <ele>1559.88</ele>
        <time>2016-08-04T10:49:39Z</time>
      </trkpt>
      <trkpt lat="44.68578" lon="5.92649">
        <ele>1559.88</ele>
        <time>2016-08-04T10:50:20Z</time>
      </trkpt>
      <trkpt lat="44.68581" lon="5.92649">
        <ele>1559.88</ele>
        <time>2016-08-04T10:50:57Z</time>
      </trkpt>
      <trkpt lat="44.68591" lon="5.92661">
        <ele>1559.88</ele>
        <time>2016-08-04T10:51:34Z</time>
      </trkpt>
      <trkpt lat="44.68589" lon="5.92658">
        <ele>1559.88</ele>
        <time>2016-08-04T10:52:14Z</time>
      </trkpt>
      <trkpt lat="44.6858" lon="5.92651">
        <ele>1559.88</ele>
        <time>2016-08-04T10:52:52Z</time>
      </trkpt>
      <trkpt lat="44.68583" lon="5.92653">
        <ele>1559.88</ele>
        <time>2016-08-04T10:53:37Z</time>
      </trkpt>
      <trkpt lat="44.68579" lon="5.92647">
        <ele>1559.88</ele>
        <time>2016-08-04T10:54:19Z</time>
      </trkpt>
      <trkpt lat="44.68579" lon="5.92645">
        <ele>1559.4</ele>
        <time>2016-08-04T10:54:55Z</time>
      </trkpt>
      <trkpt lat="44.68575" lon="5.92644">
        <ele>1558.92</ele>
        <time>2016-08-04T10:55:37Z</time>
      </trkpt>
      <trkpt lat="44.68582" lon="5.92651">
        <ele>1558.92</ele>
        <time>2016-08-04T10:56:14Z</time>
      </trkpt>
      <trkpt lat="44.6858" lon="5.9265">
        <ele>1558.43</ele>
        <time>2016-08-04T10:56:51Z</time>
      </trkpt>
      <trkpt lat="44.68578" lon="5.92645">
        <ele>1558.43</ele>
        <time>2016-08-04T10:57:40Z</time>
      </trkpt>
      <trkpt lat="44.68579" lon="5.92648">
        <ele>1558.92</ele>
        <time>2016-08-04T10:58:16Z</time>
      </trkpt>
      <trkpt lat="44.68579" lon="5.92648">
        <ele>1558.92</ele>
        <time>2016-08-04T10:59:00Z</time>
      </trkpt>
      <trkpt lat="44.68576" lon="5.92649">
        <ele>1558.92</ele>
        <time>2016-08-04T10:59:42Z</time>
      </trkpt>
      <trkpt lat="44.68578" lon="5.92647">
        <ele>1558.92</ele>
        <time>2016-08-04T11:00:25Z</time>
      </trkpt>
      <trkpt lat="44.6858" lon="5.92647">
        <ele>1558.92</ele>
        <time>2016-08-04T11:01:09Z</time>
      </trkpt>
      <trkpt lat="44.68578" lon="5.92646">
        <ele>1558.43</ele>
        <time>2016-08-04T11:01:58Z</time>
      </trkpt>
      <trkpt lat="44.68576" lon="5.92644">
        <ele>1557.95</ele>
        <time>2016-08-04T11:02:43Z</time>
      </trkpt>
      <trkpt lat="44.68577" lon="5.92643">
        <ele>1557.95</ele>
        <time>2016-08-04T11:03:28Z</time>
      </trkpt>
      <trkpt lat="44.68582" lon="5.92649">
        <ele>1557.95</ele>
        <time>2016-08-04T11:04:14Z</time>
      </trkpt>
      <trkpt lat="44.68581" lon="5.92648">
        <ele>1557.95</ele>
        <time>2016-08-04T11:04:56Z</time>
      </trkpt>
      <trkpt lat="44.6858" lon="5.92644">
        <ele>1556.99</ele>
        <time>2016-08-04T11:05:41Z</time>
      </trkpt>
      <trkpt lat="44.68582" lon="5.92652">
        <ele>1556.99</ele>
        <time>2016-08-04T11:06:29Z</time>
      </trkpt>
      <trkpt lat="44.68576" lon="5.92645">
        <ele>1556.51</ele>
        <time>2016-08-04T11:07:09Z</time>
      </trkpt>
      <trkpt lat="44.68583" lon="5.92646">
        <ele>1556.51</ele>
        <time>2016-08-04T11:07:57Z</time>
      </trkpt>
      <trkpt lat="44.68583" lon="5.92647">
        <ele>1556.03</ele>
        <time>2016-08-04T11:08:36Z</time>
      </trkpt>
      <trkpt lat="44.68583" lon="5.92647">
        <ele>1556.03</ele>
        <time>2016-08-04T11:09:13Z</time>
      </trkpt>
      <trkpt lat="44.6858" lon="5.92648">
        <ele>1555.55</ele>
        <time>2016-08-04T11:09:49Z</time>
      </trkpt>
      <trkpt lat="44.68581" lon="5.92649">
        <ele>1555.55</ele>
        <time>2016-08-04T11:10:16Z</time>
      </trkpt>
      <trkpt lat="44.68581" lon="5.92649">
        <ele>1556.03</ele>
        <time>2016-08-04T11:11:00Z</time>
      </trkpt>
      <trkpt lat="44.68582" lon="5.92649">
        <ele>1555.55</ele>
        <time>2016-08-04T11:11:38Z</time>
      </trkpt>
      <trkpt lat="44.68581" lon="5.92646">
        <ele>1555.55</ele>
        <time>2016-08-04T11:12:18Z</time>
      </trkpt>
      <trkpt lat="44.68578" lon="5.92648">
        <ele>1555.07</ele>
        <time>2016-08-04T11:12:57Z</time>
      </trkpt>
      <trkpt lat="44.68579" lon="5.92647">
        <ele>1555.07</ele>
        <time>2016-08-04T11:13:35Z</time>
      </trkpt>
      <trkpt lat="44.68578" lon="5.92644">
        <ele>1555.07</ele>
        <time>2016-08-04T11:14:15Z</time>
      </trkpt>
      <trkpt lat="44.68579" lon="5.92647">
        <ele>1554.59</ele>
        <time>2016-08-04T11:14:49Z</time>
      </trkpt>
      <trkpt lat="44.68579" lon="5.92646">
        <ele>1555.07</ele>
        <time>2016-08-04T11:15:26Z</time>
      </trkpt>
      <trkpt lat="44.68578" lon="5.92646">
        <ele>1554.59</ele>
        <time>2016-08-04T11:16:05Z</time>
      </trkpt>
      <trkpt lat="44.68582" lon="5.92647">
        <ele>1554.59</ele>
        <time>2016-08-04T11:16:38Z</time>
      </trkpt>
      <trkpt lat="44.68582" lon="5.92648">
        <ele>1554.59</ele>
        <time>2016-08-04T11:17:08Z</time>
      </trkpt>
      <trkpt lat="44.68578" lon="5.92646">
        <ele>1554.59</ele>
        <time>2016-08-04T11:17:46Z</time>
      </trkpt>
      <trkpt lat="44.68579" lon="5.92646">
        <ele>1553.63</ele>
        <time>2016-08-04T11:18:18Z</time>
      </trkpt>
      <trkpt lat="44.68582" lon="5.92648">
        <ele>1554.11</ele>
        <time>2016-08-04T11:19:05Z</time>
      </trkpt>
      <trkpt lat="44.68582" lon="5.92649">
        <ele>1554.11</ele>
        <time>2016-08-04T11:19:47Z</time>
      </trkpt>
      <trkpt lat="44.68582" lon="5.9265">
        <ele>1554.11</ele>
        <time>2016-08-04T11:20:25Z</time>
      </trkpt>
      <trkpt lat="44.68582" lon="5.92651">
        <ele>1554.11</ele>
        <time>2016-08-04T11:21:07Z</time>
      </trkpt>
      <trkpt lat="44.68581" lon="5.9265">
        <ele>1554.11</ele>
        <time>2016-08-04T11:21:42Z</time>
      </trkpt>
      <trkpt lat="44.6858" lon="5.92649">
        <ele>1554.11</ele>
        <time>2016-08-04T11:22:19Z</time>
      </trkpt>
      <trkpt lat="44.68579" lon="5.92651">
        <ele>1553.63</ele>
        <time>2016-08-04T11:22:53Z</time>
      </trkpt>
      <trkpt lat="44.6858" lon="5.92652">
        <ele>1553.63</ele>
        <time>2016-08-04T11:23:24Z</time>
      </trkpt>
      <trkpt lat="44.68579" lon="5.92652">
        <ele>1553.63</ele>
        <time>2016-08-04T11:23:57Z</time>
      </trkpt>
      <trkpt lat="44.68578" lon="5.92652">
        <ele>1553.15</ele>
        <time>2016-08-04T11:24:29Z</time>
      </trkpt>
      <trkpt lat="44.68581" lon="5.92648">
        <ele>1553.15</ele>
        <time>2016-08-04T11:25:04Z</time>
      </trkpt>
      <trkpt lat="44.68579" lon="5.9265">
        <ele>1552.67</ele>
        <time>2016-08-04T11:25:40Z</time>
      </trkpt>
      <trkpt lat="44.68581" lon="5.92648">
        <ele>1552.67</ele>
        <time>2016-08-04T11:26:14Z</time>
      </trkpt>
      <trkpt lat="44.68581" lon="5.92651">
        <ele>1552.67</ele>
        <time>2016-08-04T11:26:45Z</time>
      </trkpt>
      <trkpt lat="44.68578" lon="5.92651">
        <ele>1552.67</ele>
        <time>2016-08-04T11:27:19Z</time>
      </trkpt>
      <trkpt lat="44.68582" lon="5.92647">
        <ele>1552.67</ele>
        <time>2016-08-04T11:28:02Z</time>
      </trkpt>
      <trkpt lat="44.68582" lon="5.92649">
        <ele>1553.15</ele>
        <time>2016-08-04T11:28:37Z</time>
      </trkpt>
      <trkpt lat="44.68582" lon="5.9265">
        <ele>1553.15</ele>
        <time>2016-08-04T11:29:09Z</time>
      </trkpt>
      <trkpt lat="44.68577" lon="5.9265">
        <ele>1553.15</ele>
        <time>2016-08-04T11:29:45Z</time>
      </trkpt>
      <trkpt lat="44.6858" lon="5.92649">
        <ele>1553.15</ele>
        <time>2016-08-04T11:30:22Z</time>
      </trkpt>
      <trkpt lat="44.6858" lon="5.92649">
        <ele>1552.67</ele>
        <time>2016-08-04T11:30:55Z</time>
      </trkpt>
      <trkpt lat="44.68579" lon="5.92649">
        <ele>1553.15</ele>
        <time>2016-08-04T11:31:28Z</time>
      </trkpt>
      <trkpt lat="44.68578" lon="5.92651">
        <ele>1552.67</ele>
        <time>2016-08-04T11:32:10Z</time>
      </trkpt>
      <trkpt lat="44.68577" lon="5.92649">
        <ele>1552.67</ele>
        <time>2016-08-04T11:32:50Z</time>
      </trkpt>
      <trkpt lat="44.68577" lon="5.92646">
        <ele>1553.15</ele>
        <time>2016-08-04T11:33:15Z</time>
      </trkpt>
      <trkpt lat="44.68577" lon="5.92644">
        <ele>1552.67</ele>
        <time>2016-08-04T11:33:54Z</time>
      </trkpt>
      <trkpt lat="44.68578" lon="5.92649">
        <ele>1553.15</ele>
        <time>2016-08-04T11:34:19Z</time>
      </trkpt>
      <trkpt lat="44.68579" lon="5.92647">
        <ele>1552.67</ele>
        <time>2016-08-04T11:34:56Z</time>
      </trkpt>
      <trkpt lat="44.68579" lon="5.92651">
        <ele>1552.67</ele>
        <time>2016-08-04T11:35:35Z</time>
      </trkpt>
      <trkpt lat="44.68578" lon="5.92649">
        <ele>1552.67</ele>
        <time>2016-08-04T11:36:02Z</time>
      </trkpt>
      <trkpt lat="44.68578" lon="5.92649">
        <ele>1552.67</ele>
        <time>2016-08-04T11:36:03Z</time>
      </trkpt>
      <trkpt lat="44.68577" lon="5.92652">
        <ele>1553.15</ele>
        <time>2016-08-04T11:36:13Z</time>
      </trkpt>
      <trkpt lat="44.68577" lon="5.92652">
        <ele>1553.15</ele>
        <time>2016-08-04T11:36:27Z</time>
      </trkpt>
      <trkpt lat="44.68579" lon="5.92649">
        <ele>1553.63</ele>
        <time>2016-08-04T11:36:44Z</time>
      </trkpt>
      <trkpt lat="44.68581" lon="5.92649">
        <ele>1554.11</ele>
        <time>2016-08-04T11:37:05Z</time>
      </trkpt>
      <trkpt lat="44.68579" lon="5.92652">
        <ele>1553.63</ele>
        <time>2016-08-04T11:37:22Z</time>
      </trkpt>
      <trkpt lat="44.68581" lon="5.92651">
        <ele>1553.63</ele>
        <time>2016-08-04T11:37:41Z</time>
      </trkpt>
      <trkpt lat="44.68581" lon="5.92648">
        <ele>1554.11</ele>
        <time>2016-08-04T11:37:51Z</time>
      </trkpt>
      <trkpt lat="44.68582" lon="5.9265">
        <ele>1553.63</ele>
        <time>2016-08-04T11:38:06Z</time>
      </trkpt>
      <trkpt lat="44.68579" lon="5.92652">
        <ele>1553.15</ele>
        <time>2016-08-04T11:38:23Z</time>
      </trkpt>
      <trkpt lat="44.6858" lon="5.92653">
        <ele>1552.67</ele>
        <time>2016-08-04T11:38:45Z</time>
      </trkpt>
      <trkpt lat="44.68578" lon="5.92653">
        <ele>1553.15</ele>
        <time>2016-08-04T11:39:07Z</time>
      </trkpt>
      <trkpt lat="44.68578" lon="5.92652">
        <ele>1553.15</ele>
        <time>2016-08-04T11:39:28Z</time>
      </trkpt>
      <trkpt lat="44.68582" lon="5.92648">
        <ele>1553.63</ele>
        <time>2016-08-04T11:39:40Z</time>
      </trkpt>
      <trkpt lat="44.68585" lon="5.92648">
        <ele>1553.63</ele>
        <time>2016-08-04T11:39:53Z</time>
      </trkpt>
      <trkpt lat="44.68586" lon="5.9265">
        <ele>1553.15</ele>
        <time>2016-08-04T11:40:06Z</time>
      </trkpt>
      <trkpt lat="44.6859" lon="5.92652">
        <ele>1553.15</ele>
        <time>2016-08-04T11:40:28Z</time>
      </trkpt>
      <trkpt lat="44.68592" lon="5.92652">
        <ele>1553.15</ele>
        <time>2016-08-04T11:40:44Z</time>
      </trkpt>
      <trkpt lat="44.68591" lon="5.92653">
        <ele>1553.15</ele>
        <time>2016-08-04T11:41:02Z</time>
      </trkpt>
      <trkpt lat="44.6859" lon="5.92654">
        <ele>1553.63</ele>
        <time>2016-08-04T11:41:27Z</time>
      </trkpt>
      <trkpt lat="44.68591" lon="5.92654">
        <ele>1553.63</ele>
        <time>2016-08-04T11:41:44Z</time>
      </trkpt>
      <trkpt lat="44.6859" lon="5.92653">
        <ele>1553.63</ele>
        <time>2016-08-04T11:42:07Z</time>
      </trkpt>
      <trkpt lat="44.6859" lon="5.92652">
        <ele>1553.15</ele>
        <time>2016-08-04T11:42:35Z</time>
      </trkpt>
      <trkpt lat="44.68589" lon="5.92653">
        <ele>1552.67</ele>
        <time>2016-08-04T11:42:51Z</time>
      </trkpt>
      <trkpt lat="44.68586" lon="5.92655">
        <ele>1553.15</ele>
        <time>2016-08-04T11:43:25Z</time>
      </trkpt>
      <trkpt lat="44.68589" lon="5.92652">
        <ele>1552.67</ele>
        <time>2016-08-04T11:43:45Z</time>
      </trkpt>
      <trkpt lat="44.68588" lon="5.92655">
        <ele>1552.67</ele>
        <time>2016-08-04T11:44:03Z</time>
      </trkpt>
      <trkpt lat="44.68587" lon="5.92654">
        <ele>1552.67</ele>
        <time>2016-08-04T11:44:32Z</time>
      </trkpt>
      <trkpt lat="44.68589" lon="5.92653">
        <ele>1552.19</ele>
        <time>2016-08-04T11:44:51Z</time>
      </trkpt>
      <trkpt lat="44.68587" lon="5.92655">
        <ele>1552.67</ele>
        <time>2016-08-04T11:45:02Z</time>
      </trkpt>
      <trkpt lat="44.68586" lon="5.92656">
        <ele>1553.15</ele>
        <time>2016-08-04T11:45:33Z</time>
      </trkpt>
      <trkpt lat="44.68586" lon="5.92655">
        <ele>1553.15</ele>
        <time>2016-08-04T11:45:54Z</time>
      </trkpt>
      <trkpt lat="44.68586" lon="5.92657">
        <ele>1552.67</ele>
        <time>2016-08-04T11:46:24Z</time>
      </trkpt>
      <trkpt lat="44.68586" lon="5.92655">
        <ele>1552.67</ele>
        <time>2016-08-04T11:46:51Z</time>
      </trkpt>
      <trkpt lat="44.68588" lon="5.92651">
        <ele>1553.15</ele>
        <time>2016-08-04T11:47:09Z</time>
      </trkpt>
      <trkpt lat="44.68593" lon="5.92652">
        <ele>1552.67</ele>
        <time>2016-08-04T11:47:19Z</time>
      </trkpt>
      <trkpt lat="44.6859" lon="5.92657">
        <ele>1552.67</ele>
        <time>2016-08-04T11:47:30Z</time>
      </trkpt>
      <trkpt lat="44.68588" lon="5.92656">
        <ele>1552.67</ele>
        <time>2016-08-04T11:47:50Z</time>
      </trkpt>
      <trkpt lat="44.68587" lon="5.92646">
        <ele>1552.19</ele>
        <time>2016-08-04T11:48:21Z</time>
      </trkpt>
      <trkpt lat="44.68581" lon="5.92638">
        <ele>1553.15</ele>
        <time>2016-08-04T11:48:30Z</time>
      </trkpt>
      <trkpt lat="44.68579" lon="5.92638">
        <ele>1552.67</ele>
        <time>2016-08-04T11:48:32Z</time>
      </trkpt>
      <trkpt lat="44.68572" lon="5.92637">
        <ele>1553.15</ele>
        <time>2016-08-04T11:48:39Z</time>
      </trkpt>
      <trkpt lat="44.6857" lon="5.92638">
        <ele>1553.15</ele>
        <time>2016-08-04T11:48:41Z</time>
      </trkpt>
      <trkpt lat="44.68559" lon="5.92645">
        <ele>1552.19</ele>
        <time>2016-08-04T11:48:55Z</time>
      </trkpt>
      <trkpt lat="44.68546" lon="5.92653">
        <ele>1551.22</ele>
        <time>2016-08-04T11:49:11Z</time>
      </trkpt>
      <trkpt lat="44.68534" lon="5.92658">
        <ele>1548.34</ele>
        <time>2016-08-04T11:49:26Z</time>
      </trkpt>
      <trkpt lat="44.68533" lon="5.92658">
        <ele>1548.34</ele>
        <time>2016-08-04T11:49:27Z</time>
      </trkpt>
      <trkpt lat="44.68527" lon="5.92659">
        <ele>1547.38</ele>
        <time>2016-08-04T11:49:34Z</time>
      </trkpt>
      <trkpt lat="44.68513" lon="5.92657">
        <ele>1545.94</ele>
        <time>2016-08-04T11:49:50Z</time>
      </trkpt>
      <trkpt lat="44.68506" lon="5.92656">
        <ele>1544.5</ele>
        <time>2016-08-04T11:49:58Z</time>
      </trkpt>
      <trkpt lat="44.68496" lon="5.92655">
        <ele>1543.53</ele>
        <time>2016-08-04T11:50:09Z</time>
      </trkpt>
      <trkpt lat="44.68483" lon="5.9266">
        <ele>1542.57</ele>
        <time>2016-08-04T11:50:24Z</time>
      </trkpt>
      <trkpt lat="44.68473" lon="5.92664">
        <ele>1541.61</ele>
        <time>2016-08-04T11:50:35Z</time>
      </trkpt>
      <trkpt lat="44.68461" lon="5.9267">
        <ele>1540.65</ele>
        <time>2016-08-04T11:50:49Z</time>
      </trkpt>
      <trkpt lat="44.68458" lon="5.92671">
        <ele>1540.65</ele>
        <time>2016-08-04T11:50:53Z</time>
      </trkpt>
      <trkpt lat="44.68447" lon="5.92676">
        <ele>1539.69</ele>
        <time>2016-08-04T11:51:06Z</time>
      </trkpt>
      <trkpt lat="44.68432" lon="5.92683">
        <ele>1539.21</ele>
        <time>2016-08-04T11:51:22Z</time>
      </trkpt>
      <trkpt lat="44.68425" lon="5.92687">
        <ele>1538.73</ele>
        <time>2016-08-04T11:51:30Z</time>
      </trkpt>
      <trkpt lat="44.68416" lon="5.92694">
        <ele>1539.21</ele>
        <time>2016-08-04T11:51:44Z</time>
      </trkpt>
      <trkpt lat="44.68416" lon="5.927">
        <ele>1538.73</ele>
        <time>2016-08-04T11:51:54Z</time>
      </trkpt>
      <trkpt lat="44.68418" lon="5.92708">
        <ele>1538.25</ele>
        <time>2016-08-04T11:52:00Z</time>
      </trkpt>
      <trkpt lat="44.68419" lon="5.92725">
        <ele>1538.25</ele>
        <time>2016-08-04T11:52:13Z</time>
      </trkpt>
      <trkpt lat="44.68419" lon="5.92742">
        <ele>1538.25</ele>
        <time>2016-08-04T11:52:28Z</time>
      </trkpt>
      <trkpt lat="44.68415" lon="5.92754">
        <ele>1537.77</ele>
        <time>2016-08-04T11:52:38Z</time>
      </trkpt>
      <trkpt lat="44.6841" lon="5.92776">
        <ele>1537.29</ele>
        <time>2016-08-04T11:52:55Z</time>
      </trkpt>
      <trkpt lat="44.68403" lon="5.92791">
        <ele>1536.32</ele>
        <time>2016-08-04T11:53:10Z</time>
      </trkpt>
      <trkpt lat="44.68397" lon="5.92806">
        <ele>1535.36</ele>
        <time>2016-08-04T11:53:24Z</time>
      </trkpt>
      <trkpt lat="44.68392" lon="5.92821">
        <ele>1533.92</ele>
        <time>2016-08-04T11:53:37Z</time>
      </trkpt>
      <trkpt lat="44.68386" lon="5.92836">
        <ele>1532.96</ele>
        <time>2016-08-04T11:53:51Z</time>
      </trkpt>
      <trkpt lat="44.68376" lon="5.92849">
        <ele>1531.52</ele>
        <time>2016-08-04T11:54:06Z</time>
      </trkpt>
      <trkpt lat="44.68371" lon="5.92864">
        <ele>1530.08</ele>
        <time>2016-08-04T11:54:22Z</time>
      </trkpt>
      <trkpt lat="44.68367" lon="5.92882">
        <ele>1529.11</ele>
        <time>2016-08-04T11:54:36Z</time>
      </trkpt>
      <trkpt lat="44.68362" lon="5.92897">
        <ele>1527.67</ele>
        <time>2016-08-04T11:54:50Z</time>
      </trkpt>
      <trkpt lat="44.68357" lon="5.92916">
        <ele>1526.71</ele>
        <time>2016-08-04T11:55:05Z</time>
      </trkpt>
      <trkpt lat="44.68357" lon="5.92918">
        <ele>1526.23</ele>
        <time>2016-08-04T11:55:07Z</time>
      </trkpt>
      <trkpt lat="44.68358" lon="5.92921">
        <ele>1526.23</ele>
        <time>2016-08-04T11:55:10Z</time>
      </trkpt>
      <trkpt lat="44.68358" lon="5.92924">
        <ele>1526.23</ele>
        <time>2016-08-04T11:55:12Z</time>
      </trkpt>
      <trkpt lat="44.68358" lon="5.92926">
        <ele>1525.75</ele>
        <time>2016-08-04T11:55:14Z</time>
      </trkpt>
      <trkpt lat="44.68358" lon="5.92929">
        <ele>1525.75</ele>
        <time>2016-08-04T11:55:16Z</time>
      </trkpt>
      <trkpt lat="44.6836" lon="5.92948">
        <ele>1525.75</ele>
        <time>2016-08-04T11:55:32Z</time>
      </trkpt>
      <trkpt lat="44.6836" lon="5.92957">
        <ele>1524.79</ele>
        <time>2016-08-04T11:55:40Z</time>
      </trkpt>
      <trkpt lat="44.6836" lon="5.92974">
        <ele>1523.83</ele>
        <time>2016-08-04T11:55:54Z</time>
      </trkpt>
      <trkpt lat="44.68357" lon="5.92977">
        <ele>1523.83</ele>
        <time>2016-08-04T11:56:07Z</time>
      </trkpt>
      <trkpt lat="44.68356" lon="5.92976">
        <ele>1523.83</ele>
        <time>2016-08-04T11:56:32Z</time>
      </trkpt>
      <trkpt lat="44.68359" lon="5.9299">
        <ele>1523.35</ele>
        <time>2016-08-04T11:56:49Z</time>
      </trkpt>
      <trkpt lat="44.68362" lon="5.93009">
        <ele>1521.42</ele>
        <time>2016-08-04T11:57:05Z</time>
      </trkpt>
      <trkpt lat="44.68364" lon="5.93026">
        <ele>1520.46</ele>
        <time>2016-08-04T11:57:19Z</time>
      </trkpt>
      <trkpt lat="44.68365" lon="5.93046">
        <ele>1518.54</ele>
        <time>2016-08-04T11:57:35Z</time>
      </trkpt>
      <trkpt lat="44.68363" lon="5.93058">
        <ele>1518.54</ele>
        <time>2016-08-04T11:57:50Z</time>
      </trkpt>
      <trkpt lat="44.68363" lon="5.93057">
        <ele>1518.54</ele>
        <time>2016-08-04T11:58:22Z</time>
      </trkpt>
      <trkpt lat="44.68362" lon="5.93058">
        <ele>1518.54</ele>
        <time>2016-08-04T11:58:42Z</time>
      </trkpt>
      <trkpt lat="44.68361" lon="5.93052">
        <ele>1518.54</ele>
        <time>2016-08-04T11:58:52Z</time>
      </trkpt>
      <trkpt lat="44.6836" lon="5.93049">
        <ele>1519.5</ele>
        <time>2016-08-04T11:59:04Z</time>
      </trkpt>
      <trkpt lat="44.68358" lon="5.93051">
        <ele>1518.06</ele>
        <time>2016-08-04T11:59:09Z</time>
      </trkpt>
      <trkpt lat="44.68346" lon="5.93042">
        <ele>1518.06</ele>
        <time>2016-08-04T11:59:23Z</time>
      </trkpt>
      <trkpt lat="44.68337" lon="5.93028">
        <ele>1519.5</ele>
        <time>2016-08-04T11:59:37Z</time>
      </trkpt>
      <trkpt lat="44.6833" lon="5.93022">
        <ele>1521.42</ele>
        <time>2016-08-04T11:59:50Z</time>
      </trkpt>
      <trkpt lat="44.68328" lon="5.93023">
        <ele>1521.42</ele>
        <time>2016-08-04T11:59:52Z</time>
      </trkpt>
      <trkpt lat="44.68321" lon="5.9303">
        <ele>1522.39</ele>
        <time>2016-08-04T12:00:03Z</time>
      </trkpt>
      <trkpt lat="44.68316" lon="5.93037">
        <ele>1521.9</ele>
        <time>2016-08-04T12:00:11Z</time>
      </trkpt>
      <trkpt lat="44.68309" lon="5.93047">
        <ele>1520.94</ele>
        <time>2016-08-04T12:00:23Z</time>
      </trkpt>
      <trkpt lat="44.683" lon="5.93052">
        <ele>1519.02</ele>
        <time>2016-08-04T12:00:35Z</time>
      </trkpt>
      <trkpt lat="44.68295" lon="5.93052">
        <ele>1518.06</ele>
        <time>2016-08-04T12:00:47Z</time>
      </trkpt>
      <trkpt lat="44.68288" lon="5.93058">
        <ele>1517.58</ele>
        <time>2016-08-04T12:00:56Z</time>
      </trkpt>
      <trkpt lat="44.68277" lon="5.93068">
        <ele>1516.14</ele>
        <time>2016-08-04T12:01:09Z</time>
      </trkpt>
      <trkpt lat="44.68274" lon="5.9307">
        <ele>1516.14</ele>
        <time>2016-08-04T12:01:12Z</time>
      </trkpt>
      <trkpt lat="44.68272" lon="5.9307">
        <ele>1515.66</ele>
        <time>2016-08-04T12:01:14Z</time>
      </trkpt>
      <trkpt lat="44.68269" lon="5.93077">
        <ele>1514.69</ele>
        <time>2016-08-04T12:01:25Z</time>
      </trkpt>
      <trkpt lat="44.68269" lon="5.93092">
        <ele>1512.77</ele>
        <time>2016-08-04T12:01:39Z</time>
      </trkpt>
      <trkpt lat="44.68267" lon="5.93091">
        <ele>1513.25</ele>
        <time>2016-08-04T12:02:03Z</time>
      </trkpt>
      <trkpt lat="44.68265" lon="5.9309">
        <ele>1513.25</ele>
        <time>2016-08-04T12:02:22Z</time>
      </trkpt>
      <trkpt lat="44.68267" lon="5.93097">
        <ele>1512.77</ele>
        <time>2016-08-04T12:02:43Z</time>
      </trkpt>
      <trkpt lat="44.68267" lon="5.931">
        <ele>1512.29</ele>
        <time>2016-08-04T12:02:55Z</time>
      </trkpt>
      <trkpt lat="44.68268" lon="5.93099">
        <ele>1512.29</ele>
        <time>2016-08-04T12:03:17Z</time>
      </trkpt>
      <trkpt lat="44.68273" lon="5.93102">
        <ele>1512.29</ele>
        <time>2016-08-04T12:03:48Z</time>
      </trkpt>
      <trkpt lat="44.68273" lon="5.9312">
        <ele>1510.85</ele>
        <time>2016-08-04T12:04:03Z</time>
      </trkpt>
      <trkpt lat="44.68274" lon="5.9313">
        <ele>1509.89</ele>
        <time>2016-08-04T12:04:13Z</time>
      </trkpt>
      <trkpt lat="44.68277" lon="5.93147">
        <ele>1508.93</ele>
        <time>2016-08-04T12:04:28Z</time>
      </trkpt>
      <trkpt lat="44.68279" lon="5.93165">
        <ele>1507.48</ele>
        <time>2016-08-04T12:04:43Z</time>
      </trkpt>
      <trkpt lat="44.68279" lon="5.93182">
        <ele>1506.52</ele>
        <time>2016-08-04T12:04:57Z</time>
      </trkpt>
      <trkpt lat="44.6828" lon="5.93198">
        <ele>1505.08</ele>
        <time>2016-08-04T12:05:10Z</time>
      </trkpt>
      <trkpt lat="44.68281" lon="5.93215">
        <ele>1503.64</ele>
        <time>2016-08-04T12:05:24Z</time>
      </trkpt>
      <trkpt lat="44.68282" lon="5.93232">
        <ele>1502.68</ele>
        <time>2016-08-04T12:05:37Z</time>
      </trkpt>
      <trkpt lat="44.6828" lon="5.93249">
        <ele>1500.76</ele>
        <time>2016-08-04T12:05:51Z</time>
      </trkpt>
      <trkpt lat="44.68279" lon="5.93264">
        <ele>1499.31</ele>
        <time>2016-08-04T12:06:04Z</time>
      </trkpt>
      <trkpt lat="44.6828" lon="5.93278">
        <ele>1497.87</ele>
        <time>2016-08-04T12:06:16Z</time>
      </trkpt>
      <trkpt lat="44.68281" lon="5.93294">
        <ele>1497.39</ele>
        <time>2016-08-04T12:06:30Z</time>
      </trkpt>
      <trkpt lat="44.68282" lon="5.93295">
        <ele>1498.35</ele>
        <time>2016-08-04T12:06:31Z</time>
      </trkpt>
      <trkpt lat="44.68283" lon="5.93308">
        <ele>1496.43</ele>
        <time>2016-08-04T12:06:41Z</time>
      </trkpt>
      <trkpt lat="44.68285" lon="5.93314">
        <ele>1495.95</ele>
        <time>2016-08-04T12:06:46Z</time>
      </trkpt>
      <trkpt lat="44.68285" lon="5.93318">
        <ele>1495.47</ele>
        <time>2016-08-04T12:06:49Z</time>
      </trkpt>
      <trkpt lat="44.68285" lon="5.93321">
        <ele>1494.99</ele>
        <time>2016-08-04T12:06:53Z</time>
      </trkpt>
      <trkpt lat="44.68286" lon="5.93336">
        <ele>1493.55</ele>
        <time>2016-08-04T12:07:06Z</time>
      </trkpt>
      <trkpt lat="44.68288" lon="5.93349">
        <ele>1493.06</ele>
        <time>2016-08-04T12:07:18Z</time>
      </trkpt>
      <trkpt lat="44.68291" lon="5.93365">
        <ele>1490.66</ele>
        <time>2016-08-04T12:07:32Z</time>
      </trkpt>
      <trkpt lat="44.68291" lon="5.93381">
        <ele>1488.74</ele>
        <time>2016-08-04T12:07:45Z</time>
      </trkpt>
      <trkpt lat="44.68293" lon="5.93396">
        <ele>1486.82</ele>
        <time>2016-08-04T12:07:59Z</time>
      </trkpt>
      <trkpt lat="44.68296" lon="5.9341">
        <ele>1485.37</ele>
        <time>2016-08-04T12:08:12Z</time>
      </trkpt>
      <trkpt lat="44.68298" lon="5.93426">
        <ele>1483.93</ele>
        <time>2016-08-04T12:08:25Z</time>
      </trkpt>
      <trkpt lat="44.683" lon="5.9344">
        <ele>1481.53</ele>
        <time>2016-08-04T12:08:38Z</time>
      </trkpt>
      <trkpt lat="44.68304" lon="5.93453">
        <ele>1479.13</ele>
        <time>2016-08-04T12:08:52Z</time>
      </trkpt>
      <trkpt lat="44.68311" lon="5.93462">
        <ele>1476.72</ele>
        <time>2016-08-04T12:09:05Z</time>
      </trkpt>
      <trkpt lat="44.68315" lon="5.9347">
        <ele>1474.8</ele>
        <time>2016-08-04T12:09:18Z</time>
      </trkpt>
      <trkpt lat="44.68322" lon="5.93481">
        <ele>1471.92</ele>
        <time>2016-08-04T12:09:33Z</time>
      </trkpt>
      <trkpt lat="44.68327" lon="5.93494">
        <ele>1469.03</ele>
        <time>2016-08-04T12:09:47Z</time>
      </trkpt>
      <trkpt lat="44.68328" lon="5.93506">
        <ele>1465.67</ele>
        <time>2016-08-04T12:09:59Z</time>
      </trkpt>
      <trkpt lat="44.6833" lon="5.93519">
        <ele>1463.26</ele>
        <time>2016-08-04T12:10:13Z</time>
      </trkpt>
      <trkpt lat="44.6833" lon="5.9353">
        <ele>1461.82</ele>
        <time>2016-08-04T12:10:23Z</time>
      </trkpt>
      <trkpt lat="44.6833" lon="5.93535">
        <ele>1461.34</ele>
        <time>2016-08-04T12:10:27Z</time>
      </trkpt>
      <trkpt lat="44.68331" lon="5.93554">
        <ele>1459.9</ele>
        <time>2016-08-04T12:10:42Z</time>
      </trkpt>
      <trkpt lat="44.68334" lon="5.93569">
        <ele>1459.42</ele>
        <time>2016-08-04T12:10:55Z</time>
      </trkpt>
      <trkpt lat="44.68343" lon="5.93579">
        <ele>1457.98</ele>
        <time>2016-08-04T12:11:11Z</time>
      </trkpt>
      <trkpt lat="44.68346" lon="5.93583">
        <ele>1457.02</ele>
        <time>2016-08-04T12:11:17Z</time>
      </trkpt>
      <trkpt lat="44.68351" lon="5.93589">
        <ele>1454.61</ele>
        <time>2016-08-04T12:11:30Z</time>
      </trkpt>
      <trkpt lat="44.68359" lon="5.93598">
        <ele>1452.69</ele>
        <time>2016-08-04T12:11:45Z</time>
      </trkpt>
      <trkpt lat="44.68367" lon="5.93607">
        <ele>1449.81</ele>
        <time>2016-08-04T12:12:02Z</time>
      </trkpt>
      <trkpt lat="44.68375" lon="5.93617">
        <ele>1447.4</ele>
        <time>2016-08-04T12:12:16Z</time>
      </trkpt>
      <trkpt lat="44.68376" lon="5.93618">
        <ele>1446.92</ele>
        <time>2016-08-04T12:12:18Z</time>
      </trkpt>
      <trkpt lat="44.68384" lon="5.93626">
        <ele>1444.04</ele>
        <time>2016-08-04T12:12:32Z</time>
      </trkpt>
      <trkpt lat="44.68393" lon="5.9363">
        <ele>1441.63</ele>
        <time>2016-08-04T12:12:45Z</time>
      </trkpt>
      <trkpt lat="44.68401" lon="5.93637">
        <ele>1439.71</ele>
        <time>2016-08-04T12:12:57Z</time>
      </trkpt>
      <trkpt lat="44.68408" lon="5.93643">
        <ele>1437.79</ele>
        <time>2016-08-04T12:13:10Z</time>
      </trkpt>
      <trkpt lat="44.68415" lon="5.93649">
        <ele>1435.87</ele>
        <time>2016-08-04T12:13:23Z</time>
      </trkpt>
      <trkpt lat="44.68424" lon="5.93657">
        <ele>1433.46</ele>
        <time>2016-08-04T12:13:38Z</time>
      </trkpt>
      <trkpt lat="44.68433" lon="5.93667">
        <ele>1431.06</ele>
        <time>2016-08-04T12:13:53Z</time>
      </trkpt>
      <trkpt lat="44.68441" lon="5.93676">
        <ele>1429.14</ele>
        <time>2016-08-04T12:14:05Z</time>
      </trkpt>
      <trkpt lat="44.68442" lon="5.93677">
        <ele>1428.66</ele>
        <time>2016-08-04T12:14:07Z</time>
      </trkpt>
      <trkpt lat="44.68448" lon="5.93689">
        <ele>1427.21</ele>
        <time>2016-08-04T12:14:18Z</time>
      </trkpt>
      <trkpt lat="44.68451" lon="5.93699">
        <ele>1426.73</ele>
        <time>2016-08-04T12:14:30Z</time>
      </trkpt>
      <trkpt lat="44.68455" lon="5.93701">
        <ele>1425.77</ele>
        <time>2016-08-04T12:14:43Z</time>
      </trkpt>
      <trkpt lat="44.68458" lon="5.93705">
        <ele>1424.81</ele>
        <time>2016-08-04T12:14:56Z</time>
      </trkpt>
      <trkpt lat="44.68461" lon="5.93707">
        <ele>1424.81</ele>
        <time>2016-08-04T12:15:16Z</time>
      </trkpt>
      <trkpt lat="44.68463" lon="5.93709">
        <ele>1424.81</ele>
        <time>2016-08-04T12:15:38Z</time>
      </trkpt>
      <trkpt lat="44.68456" lon="5.93721">
        <ele>1424.81</ele>
        <time>2016-08-04T12:16:11Z</time>
      </trkpt>
      <trkpt lat="44.68457" lon="5.93722">
        <ele>1424.33</ele>
        <time>2016-08-04T12:16:34Z</time>
      </trkpt>
      <trkpt lat="44.68457" lon="5.93718">
        <ele>1424.33</ele>
        <time>2016-08-04T12:16:57Z</time>
      </trkpt>
      <trkpt lat="44.68465" lon="5.93713">
        <ele>1423.37</ele>
        <time>2016-08-04T12:17:09Z</time>
      </trkpt>
      <trkpt lat="44.6847" lon="5.93709">
        <ele>1421.93</ele>
        <time>2016-08-04T12:17:17Z</time>
      </trkpt>
      <trkpt lat="44.6848" lon="5.93713">
        <ele>1420.49</ele>
        <time>2016-08-04T12:17:29Z</time>
      </trkpt>
      <trkpt lat="44.68485" lon="5.93715">
        <ele>1419.52</ele>
        <time>2016-08-04T12:17:35Z</time>
      </trkpt>
      <trkpt lat="44.68492" lon="5.93721">
        <ele>1417.6</ele>
        <time>2016-08-04T12:17:47Z</time>
      </trkpt>
      <trkpt lat="44.68502" lon="5.93727">
        <ele>1414.72</ele>
        <time>2016-08-04T12:18:02Z</time>
      </trkpt>
      <trkpt lat="44.68512" lon="5.93732">
        <ele>1412.31</ele>
        <time>2016-08-04T12:18:16Z</time>
      </trkpt>
      <trkpt lat="44.68521" lon="5.93738">
        <ele>1409.43</ele>
        <time>2016-08-04T12:18:30Z</time>
      </trkpt>
      <trkpt lat="44.68531" lon="5.93742">
        <ele>1407.03</ele>
        <time>2016-08-04T12:18:44Z</time>
      </trkpt>
      <trkpt lat="44.68541" lon="5.93747">
        <ele>1403.66</ele>
        <time>2016-08-04T12:18:58Z</time>
      </trkpt>
      <trkpt lat="44.68545" lon="5.9375">
        <ele>1402.22</ele>
        <time>2016-08-04T12:19:07Z</time>
      </trkpt>
      <trkpt lat="44.68556" lon="5.93753">
        <ele>1399.34</ele>
        <time>2016-08-04T12:19:22Z</time>
      </trkpt>
      <trkpt lat="44.68563" lon="5.93757">
        <ele>1397.41</ele>
        <time>2016-08-04T12:19:31Z</time>
      </trkpt>
      <trkpt lat="44.68574" lon="5.93766">
        <ele>1395.01</ele>
        <time>2016-08-04T12:19:44Z</time>
      </trkpt>
      <trkpt lat="44.68582" lon="5.93769">
        <ele>1392.61</ele>
        <time>2016-08-04T12:19:58Z</time>
      </trkpt>
      <trkpt lat="44.68587" lon="5.93776">
        <ele>1390.2</ele>
        <time>2016-08-04T12:20:10Z</time>
      </trkpt>
      <trkpt lat="44.68594" lon="5.93784">
        <ele>1387.32</ele>
        <time>2016-08-04T12:20:23Z</time>
      </trkpt>
      <trkpt lat="44.68604" lon="5.93798">
        <ele>1383.96</ele>
        <time>2016-08-04T12:20:40Z</time>
      </trkpt>
      <trkpt lat="44.68611" lon="5.93811">
        <ele>1381.07</ele>
        <time>2016-08-04T12:20:54Z</time>
      </trkpt>
      <trkpt lat="44.68617" lon="5.93823">
        <ele>1377.71</ele>
        <time>2016-08-04T12:21:09Z</time>
      </trkpt>
      <trkpt lat="44.68621" lon="5.93836">
        <ele>1375.3</ele>
        <time>2016-08-04T12:21:23Z</time>
      </trkpt>
      <trkpt lat="44.68623" lon="5.93845">
        <ele>1372.9</ele>
        <time>2016-08-04T12:21:37Z</time>
      </trkpt>
      <trkpt lat="44.68627" lon="5.93856">
        <ele>1370.98</ele>
        <time>2016-08-04T12:21:49Z</time>
      </trkpt>
      <trkpt lat="44.68633" lon="5.9387">
        <ele>1368.09</ele>
        <time>2016-08-04T12:22:04Z</time>
      </trkpt>
      <trkpt lat="44.68638" lon="5.93867">
        <ele>1365.69</ele>
        <time>2016-08-04T12:22:15Z</time>
      </trkpt>
      <trkpt lat="44.68648" lon="5.93859">
        <ele>1363.29</ele>
        <time>2016-08-04T12:22:28Z</time>
      </trkpt>
      <trkpt lat="44.68649" lon="5.9386">
        <ele>1362.33</ele>
        <time>2016-08-04T12:22:38Z</time>
      </trkpt>
      <trkpt lat="44.68659" lon="5.93854">
        <ele>1360.88</ele>
        <time>2016-08-04T12:22:52Z</time>
      </trkpt>
      <trkpt lat="44.68662" lon="5.93854">
        <ele>1360.4</ele>
        <time>2016-08-04T12:22:55Z</time>
      </trkpt>
      <trkpt lat="44.68675" lon="5.93867">
        <ele>1358.96</ele>
        <time>2016-08-04T12:23:08Z</time>
      </trkpt>
      <trkpt lat="44.68681" lon="5.93872">
        <ele>1358</ele>
        <time>2016-08-04T12:23:14Z</time>
      </trkpt>
      <trkpt lat="44.68691" lon="5.93879">
        <ele>1357.52</ele>
        <time>2016-08-04T12:23:28Z</time>
      </trkpt>
      <trkpt lat="44.68701" lon="5.9388">
        <ele>1355.6</ele>
        <time>2016-08-04T12:23:42Z</time>
      </trkpt>
      <trkpt lat="44.68711" lon="5.93887">
        <ele>1352.71</ele>
        <time>2016-08-04T12:23:56Z</time>
      </trkpt>
      <trkpt lat="44.68723" lon="5.93893">
        <ele>1349.35</ele>
        <time>2016-08-04T12:24:11Z</time>
      </trkpt>
      <trkpt lat="44.68729" lon="5.939">
        <ele>1346.46</ele>
        <time>2016-08-04T12:24:25Z</time>
      </trkpt>
      <trkpt lat="44.68735" lon="5.9391">
        <ele>1343.1</ele>
        <time>2016-08-04T12:24:37Z</time>
      </trkpt>
      <trkpt lat="44.68736" lon="5.93911">
        <ele>1342.62</ele>
        <time>2016-08-04T12:24:39Z</time>
      </trkpt>
      <trkpt lat="44.68739" lon="5.93915">
        <ele>1341.18</ele>
        <time>2016-08-04T12:24:44Z</time>
      </trkpt>
      <trkpt lat="44.68744" lon="5.93927">
        <ele>1338.77</ele>
        <time>2016-08-04T12:24:57Z</time>
      </trkpt>
      <trkpt lat="44.68748" lon="5.93936">
        <ele>1336.37</ele>
        <time>2016-08-04T12:25:08Z</time>
      </trkpt>
      <trkpt lat="44.68753" lon="5.93948">
        <ele>1333.97</ele>
        <time>2016-08-04T12:25:22Z</time>
      </trkpt>
      <trkpt lat="44.68757" lon="5.93958">
        <ele>1332.04</ele>
        <time>2016-08-04T12:25:34Z</time>
      </trkpt>
      <trkpt lat="44.68762" lon="5.93969">
        <ele>1329.16</ele>
        <time>2016-08-04T12:25:48Z</time>
      </trkpt>
      <trkpt lat="44.68764" lon="5.93974">
        <ele>1327.72</ele>
        <time>2016-08-04T12:25:54Z</time>
      </trkpt>
      <trkpt lat="44.68764" lon="5.93987">
        <ele>1325.31</ele>
        <time>2016-08-04T12:26:06Z</time>
      </trkpt>
      <trkpt lat="44.68761" lon="5.93988">
        <ele>1325.8</ele>
        <time>2016-08-04T12:26:20Z</time>
      </trkpt>
      <trkpt lat="44.6876" lon="5.93987">
        <ele>1325.8</ele>
        <time>2016-08-04T12:26:45Z</time>
      </trkpt>
      <trkpt lat="44.68763" lon="5.93988">
        <ele>1325.31</ele>
        <time>2016-08-04T12:26:59Z</time>
      </trkpt>
      <trkpt lat="44.68765" lon="5.93985">
        <ele>1325.31</ele>
        <time>2016-08-04T12:27:16Z</time>
      </trkpt>
      <trkpt lat="44.68765" lon="5.93986">
        <ele>1325.31</ele>
        <time>2016-08-04T12:27:43Z</time>
      </trkpt>
      <trkpt lat="44.68766" lon="5.93984">
        <ele>1325.31</ele>
        <time>2016-08-04T12:27:57Z</time>
      </trkpt>
      <trkpt lat="44.68765" lon="5.93984">
        <ele>1325.31</ele>
        <time>2016-08-04T12:28:15Z</time>
      </trkpt>
      <trkpt lat="44.68766" lon="5.93986">
        <ele>1325.31</ele>
        <time>2016-08-04T12:28:41Z</time>
      </trkpt>
      <trkpt lat="44.68764" lon="5.93981">
        <ele>1324.83</ele>
        <time>2016-08-04T12:29:10Z</time>
      </trkpt>
      <trkpt lat="44.68765" lon="5.93984">
        <ele>1324.83</ele>
        <time>2016-08-04T12:29:31Z</time>
      </trkpt>
      <trkpt lat="44.68764" lon="5.93982">
        <ele>1324.83</ele>
        <time>2016-08-04T12:29:45Z</time>
      </trkpt>
      <trkpt lat="44.68765" lon="5.93982">
        <ele>1324.35</ele>
        <time>2016-08-04T12:30:02Z</time>
      </trkpt>
      <trkpt lat="44.68767" lon="5.93986">
        <ele>1324.35</ele>
        <time>2016-08-04T12:30:17Z</time>
      </trkpt>
      <trkpt lat="44.68768" lon="5.93985">
        <ele>1324.35</ele>
        <time>2016-08-04T12:30:22Z</time>
      </trkpt>
      <trkpt lat="44.68772" lon="5.93984">
        <ele>1323.39</ele>
        <time>2016-08-04T12:30:26Z</time>
      </trkpt>
      <trkpt lat="44.68776" lon="5.93985">
        <ele>1322.43</ele>
        <time>2016-08-04T12:30:42Z</time>
      </trkpt>
      <trkpt lat="44.68778" lon="5.93983">
        <ele>1322.43</ele>
        <time>2016-08-04T12:31:01Z</time>
      </trkpt>
      <trkpt lat="44.68788" lon="5.9398">
        <ele>1320.51</ele>
        <time>2016-08-04T12:31:14Z</time>
      </trkpt>
      <trkpt lat="44.6879" lon="5.93979">
        <ele>1320.51</ele>
        <time>2016-08-04T12:31:16Z</time>
      </trkpt>
      <trkpt lat="44.68803" lon="5.93976">
        <ele>1318.1</ele>
        <time>2016-08-04T12:31:31Z</time>
      </trkpt>
      <trkpt lat="44.68816" lon="5.93979">
        <ele>1316.18</ele>
        <time>2016-08-04T12:31:44Z</time>
      </trkpt>
      <trkpt lat="44.68826" lon="5.93993">
        <ele>1314.26</ele>
        <time>2016-08-04T12:31:58Z</time>
      </trkpt>
      <trkpt lat="44.68834" lon="5.94007">
        <ele>1312.34</ele>
        <time>2016-08-04T12:32:13Z</time>
      </trkpt>
      <trkpt lat="44.68836" lon="5.94013">
        <ele>1311.38</ele>
        <time>2016-08-04T12:32:18Z</time>
      </trkpt>
      <trkpt lat="44.68846" lon="5.9403">
        <ele>1309.45</ele>
        <time>2016-08-04T12:32:36Z</time>
      </trkpt>
      <trkpt lat="44.6885" lon="5.94037">
        <ele>1308.49</ele>
        <time>2016-08-04T12:32:43Z</time>
      </trkpt>
      <trkpt lat="44.68859" lon="5.9405">
        <ele>1307.05</ele>
        <time>2016-08-04T12:32:57Z</time>
      </trkpt>
      <trkpt lat="44.68869" lon="5.94063">
        <ele>1305.13</ele>
        <time>2016-08-04T12:33:12Z</time>
      </trkpt>
      <trkpt lat="44.6887" lon="5.94064">
        <ele>1304.65</ele>
        <time>2016-08-04T12:33:14Z</time>
      </trkpt>
      <trkpt lat="44.68881" lon="5.94076">
        <ele>1302.72</ele>
        <time>2016-08-04T12:33:29Z</time>
      </trkpt>
      <trkpt lat="44.68893" lon="5.94085">
        <ele>1300.32</ele>
        <time>2016-08-04T12:33:44Z</time>
      </trkpt>
      <trkpt lat="44.68904" lon="5.94088">
        <ele>1298.88</ele>
        <time>2016-08-04T12:33:58Z</time>
      </trkpt>
      <trkpt lat="44.68906" lon="5.94084">
        <ele>1299.36</ele>
        <time>2016-08-04T12:34:07Z</time>
      </trkpt>
      <trkpt lat="44.68907" lon="5.94071">
        <ele>1299.84</ele>
        <time>2016-08-04T12:34:20Z</time>
      </trkpt>
      <trkpt lat="44.68912" lon="5.9406">
        <ele>1299.84</ele>
        <time>2016-08-04T12:34:32Z</time>
      </trkpt>
      <trkpt lat="44.68916" lon="5.94043">
        <ele>1299.84</ele>
        <time>2016-08-04T12:34:44Z</time>
      </trkpt>
      <trkpt lat="44.68922" lon="5.94027">
        <ele>1299.84</ele>
        <time>2016-08-04T12:34:56Z</time>
      </trkpt>
      <trkpt lat="44.68924" lon="5.94021">
        <ele>1299.36</ele>
        <time>2016-08-04T12:35:00Z</time>
      </trkpt>
      <trkpt lat="44.68932" lon="5.94001">
        <ele>1298.88</ele>
        <time>2016-08-04T12:35:16Z</time>
      </trkpt>
      <trkpt lat="44.68937" lon="5.93991">
        <ele>1299.36</ele>
        <time>2016-08-04T12:35:24Z</time>
      </trkpt>
      <trkpt lat="44.68941" lon="5.93984">
        <ele>1298.4</ele>
        <time>2016-08-04T12:35:32Z</time>
      </trkpt>
      <trkpt lat="44.68953" lon="5.9397">
        <ele>1297.44</ele>
        <time>2016-08-04T12:35:46Z</time>
      </trkpt>
      <trkpt lat="44.68957" lon="5.93964">
        <ele>1297.44</ele>
        <time>2016-08-04T12:35:52Z</time>
      </trkpt>
      <trkpt lat="44.68964" lon="5.93955">
        <ele>1296.96</ele>
        <time>2016-08-04T12:36:01Z</time>
      </trkpt>
      <trkpt lat="44.68966" lon="5.93953">
        <ele>1296.96</ele>
        <time>2016-08-04T12:36:03Z</time>
      </trkpt>
      <trkpt lat="44.68973" lon="5.93948">
        <ele>1296.48</ele>
        <time>2016-08-04T12:36:11Z</time>
      </trkpt>
      <trkpt lat="44.68975" lon="5.93945">
        <ele>1296.48</ele>
        <time>2016-08-04T12:36:14Z</time>
      </trkpt>
      <trkpt lat="44.68982" lon="5.9394">
        <ele>1295.99</ele>
        <time>2016-08-04T12:36:21Z</time>
      </trkpt>
      <trkpt lat="44.68996" lon="5.93931">
        <ele>1295.03</ele>
        <time>2016-08-04T12:36:36Z</time>
      </trkpt>
      <trkpt lat="44.68999" lon="5.93929">
        <ele>1295.03</ele>
        <time>2016-08-04T12:36:39Z</time>
      </trkpt>
      <trkpt lat="44.69001" lon="5.93928">
        <ele>1295.03</ele>
        <time>2016-08-04T12:36:41Z</time>
      </trkpt>
      <trkpt lat="44.69011" lon="5.9392">
        <ele>1295.51</ele>
        <time>2016-08-04T12:36:52Z</time>
      </trkpt>
      <trkpt lat="44.69016" lon="5.93912">
        <ele>1296.48</ele>
        <time>2016-08-04T12:37:00Z</time>
      </trkpt>
      <trkpt lat="44.69019" lon="5.93909">
        <ele>1296.96</ele>
        <time>2016-08-04T12:37:04Z</time>
      </trkpt>
      <trkpt lat="44.6902" lon="5.93905">
        <ele>1296.96</ele>
        <time>2016-08-04T12:37:07Z</time>
      </trkpt>
      <trkpt lat="44.69023" lon="5.93902">
        <ele>1296.96</ele>
        <time>2016-08-04T12:37:10Z</time>
      </trkpt>
      <trkpt lat="44.69027" lon="5.93882">
        <ele>1297.44</ele>
        <time>2016-08-04T12:37:24Z</time>
      </trkpt>
      <trkpt lat="44.69027" lon="5.93879">
        <ele>1296.96</ele>
        <time>2016-08-04T12:37:26Z</time>
      </trkpt>
      <trkpt lat="44.69029" lon="5.93874">
        <ele>1297.44</ele>
        <time>2016-08-04T12:37:30Z</time>
      </trkpt>
      <trkpt lat="44.69033" lon="5.93863">
        <ele>1297.92</ele>
        <time>2016-08-04T12:37:40Z</time>
      </trkpt>
      <trkpt lat="44.69037" lon="5.93858">
        <ele>1298.4</ele>
        <time>2016-08-04T12:37:45Z</time>
      </trkpt>
      <trkpt lat="44.6904" lon="5.93853">
        <ele>1298.88</ele>
        <time>2016-08-04T12:37:50Z</time>
      </trkpt>
      <trkpt lat="44.69049" lon="5.93844">
        <ele>1300.8</ele>
        <time>2016-08-04T12:38:01Z</time>
      </trkpt>
      <trkpt lat="44.69051" lon="5.93842">
        <ele>1300.8</ele>
        <time>2016-08-04T12:38:04Z</time>
      </trkpt>
      <trkpt lat="44.69061" lon="5.93831">
        <ele>1302.72</ele>
        <time>2016-08-04T12:38:17Z</time>
      </trkpt>
      <trkpt lat="44.69069" lon="5.93817">
        <ele>1304.17</ele>
        <time>2016-08-04T12:38:30Z</time>
      </trkpt>
      <trkpt lat="44.69073" lon="5.9381">
        <ele>1305.13</ele>
        <time>2016-08-04T12:38:37Z</time>
      </trkpt>
      <trkpt lat="44.69083" lon="5.93793">
        <ele>1305.61</ele>
        <time>2016-08-04T12:38:52Z</time>
      </trkpt>
      <trkpt lat="44.69088" lon="5.93786">
        <ele>1305.61</ele>
        <time>2016-08-04T12:38:58Z</time>
      </trkpt>
      <trkpt lat="44.69089" lon="5.93784">
        <ele>1305.13</ele>
        <time>2016-08-04T12:39:00Z</time>
      </trkpt>
      <trkpt lat="44.69093" lon="5.93781">
        <ele>1305.61</ele>
        <time>2016-08-04T12:39:04Z</time>
      </trkpt>
      <trkpt lat="44.69094" lon="5.93778">
        <ele>1305.61</ele>
        <time>2016-08-04T12:39:06Z</time>
      </trkpt>
      <trkpt lat="44.69096" lon="5.93776">
        <ele>1305.61</ele>
        <time>2016-08-04T12:39:08Z</time>
      </trkpt>
      <trkpt lat="44.69099" lon="5.93772">
        <ele>1305.61</ele>
        <time>2016-08-04T12:39:12Z</time>
      </trkpt>
      <trkpt lat="44.69102" lon="5.93768">
        <ele>1305.61</ele>
        <time>2016-08-04T12:39:16Z</time>
      </trkpt>
      <trkpt lat="44.69104" lon="5.93766">
        <ele>1305.61</ele>
        <time>2016-08-04T12:39:18Z</time>
      </trkpt>
      <trkpt lat="44.69106" lon="5.93764">
        <ele>1305.61</ele>
        <time>2016-08-04T12:39:21Z</time>
      </trkpt>
      <trkpt lat="44.69109" lon="5.9376">
        <ele>1305.61</ele>
        <time>2016-08-04T12:39:25Z</time>
      </trkpt>
      <trkpt lat="44.69111" lon="5.93758">
        <ele>1305.61</ele>
        <time>2016-08-04T12:39:27Z</time>
      </trkpt>
      <trkpt lat="44.69118" lon="5.9375">
        <ele>1305.61</ele>
        <time>2016-08-04T12:39:36Z</time>
      </trkpt>
      <trkpt lat="44.69123" lon="5.93749">
        <ele>1305.61</ele>
        <time>2016-08-04T12:39:48Z</time>
      </trkpt>
      <trkpt lat="44.69126" lon="5.9375">
        <ele>1305.61</ele>
        <time>2016-08-04T12:40:06Z</time>
      </trkpt>
      <trkpt lat="44.69128" lon="5.93744">
        <ele>1306.09</ele>
        <time>2016-08-04T12:40:22Z</time>
      </trkpt>
      <trkpt lat="44.69134" lon="5.93741">
        <ele>1306.09</ele>
        <time>2016-08-04T12:40:29Z</time>
      </trkpt>
      <trkpt lat="44.6915" lon="5.93734">
        <ele>1307.05</ele>
        <time>2016-08-04T12:40:45Z</time>
      </trkpt>
      <trkpt lat="44.69163" lon="5.93729">
        <ele>1307.53</ele>
        <time>2016-08-04T12:40:58Z</time>
      </trkpt>
      <trkpt lat="44.69176" lon="5.93724">
        <ele>1307.05</ele>
        <time>2016-08-04T12:41:11Z</time>
      </trkpt>
      <trkpt lat="44.69182" lon="5.93722">
        <ele>1307.53</ele>
        <time>2016-08-04T12:41:16Z</time>
      </trkpt>
      <trkpt lat="44.69186" lon="5.93721">
        <ele>1307.53</ele>
        <time>2016-08-04T12:41:20Z</time>
      </trkpt>
      <trkpt lat="44.69199" lon="5.93715">
        <ele>1308.97</ele>
        <time>2016-08-04T12:41:33Z</time>
      </trkpt>
      <trkpt lat="44.69206" lon="5.9371">
        <ele>1309.45</ele>
        <time>2016-08-04T12:41:41Z</time>
      </trkpt>
      <trkpt lat="44.69215" lon="5.93703">
        <ele>1309.45</ele>
        <time>2016-08-04T12:41:51Z</time>
      </trkpt>
      <trkpt lat="44.69223" lon="5.937">
        <ele>1309.93</ele>
        <time>2016-08-04T12:41:59Z</time>
      </trkpt>
      <trkpt lat="44.69225" lon="5.93699">
        <ele>1309.93</ele>
        <time>2016-08-04T12:42:01Z</time>
      </trkpt>
      <trkpt lat="44.69233" lon="5.93695">
        <ele>1309.45</ele>
        <time>2016-08-04T12:42:10Z</time>
      </trkpt>
      <trkpt lat="44.69243" lon="5.93692">
        <ele>1308.97</ele>
        <time>2016-08-04T12:42:21Z</time>
      </trkpt>
      <trkpt lat="44.6925" lon="5.93688">
        <ele>1308.49</ele>
        <time>2016-08-04T12:42:31Z</time>
      </trkpt>
      <trkpt lat="44.69252" lon="5.93687">
        <ele>1308.01</ele>
        <time>2016-08-04T12:42:33Z</time>
      </trkpt>
      <trkpt lat="44.69259" lon="5.93683">
        <ele>1307.05</ele>
        <time>2016-08-04T12:42:42Z</time>
      </trkpt>
      <trkpt lat="44.69262" lon="5.93681">
        <ele>1306.57</ele>
        <time>2016-08-04T12:42:45Z</time>
      </trkpt>
      <trkpt lat="44.69264" lon="5.9368">
        <ele>1306.57</ele>
        <time>2016-08-04T12:42:47Z</time>
      </trkpt>
      <trkpt lat="44.6927" lon="5.93677">
        <ele>1306.09</ele>
        <time>2016-08-04T12:42:54Z</time>
      </trkpt>
      <trkpt lat="44.69272" lon="5.93676">
        <ele>1305.61</ele>
        <time>2016-08-04T12:42:57Z</time>
      </trkpt>
      <trkpt lat="44.69288" lon="5.93671">
        <ele>1304.65</ele>
        <time>2016-08-04T12:43:13Z</time>
      </trkpt>
      <trkpt lat="44.69291" lon="5.9367">
        <ele>1304.17</ele>
        <time>2016-08-04T12:43:16Z</time>
      </trkpt>
      <trkpt lat="44.69293" lon="5.93668">
        <ele>1304.17</ele>
        <time>2016-08-04T12:43:18Z</time>
      </trkpt>
      <trkpt lat="44.69301" lon="5.93665">
        <ele>1303.69</ele>
        <time>2016-08-04T12:43:26Z</time>
      </trkpt>
      <trkpt lat="44.69303" lon="5.93664">
        <ele>1303.69</ele>
        <time>2016-08-04T12:43:28Z</time>
      </trkpt>
      <trkpt lat="44.69305" lon="5.93662">
        <ele>1303.69</ele>
        <time>2016-08-04T12:43:30Z</time>
      </trkpt>
      <trkpt lat="44.69319" lon="5.93655">
        <ele>1302.72</ele>
        <time>2016-08-04T12:43:44Z</time>
      </trkpt>
      <trkpt lat="44.69327" lon="5.93652">
        <ele>1302.24</ele>
        <time>2016-08-04T12:43:53Z</time>
      </trkpt>
      <trkpt lat="44.69344" lon="5.93641">
        <ele>1301.28</ele>
        <time>2016-08-04T12:44:11Z</time>
      </trkpt>
      <trkpt lat="44.69349" lon="5.93637">
        <ele>1301.28</ele>
        <time>2016-08-04T12:44:16Z</time>
      </trkpt>
      <trkpt lat="44.69355" lon="5.9363">
        <ele>1301.28</ele>
        <time>2016-08-04T12:44:24Z</time>
      </trkpt>
      <trkpt lat="44.69358" lon="5.93626">
        <ele>1301.76</ele>
        <time>2016-08-04T12:44:28Z</time>
      </trkpt>
      <trkpt lat="44.6936" lon="5.93624">
        <ele>1301.76</ele>
        <time>2016-08-04T12:44:30Z</time>
      </trkpt>
      <trkpt lat="44.69364" lon="5.93618">
        <ele>1301.76</ele>
        <time>2016-08-04T12:44:36Z</time>
      </trkpt>
      <trkpt lat="44.69372" lon="5.93611">
        <ele>1301.76</ele>
        <time>2016-08-04T12:44:44Z</time>
      </trkpt>
      <trkpt lat="44.69378" lon="5.93607">
        <ele>1302.24</ele>
        <time>2016-08-04T12:44:52Z</time>
      </trkpt>
      <trkpt lat="44.69381" lon="5.93603">
        <ele>1301.76</ele>
        <time>2016-08-04T12:44:57Z</time>
      </trkpt>
      <trkpt lat="44.69385" lon="5.93599">
        <ele>1301.76</ele>
        <time>2016-08-04T12:45:02Z</time>
      </trkpt>
      <trkpt lat="44.69386" lon="5.93596">
        <ele>1302.24</ele>
        <time>2016-08-04T12:45:04Z</time>
      </trkpt>
      <trkpt lat="44.69389" lon="5.93593">
        <ele>1301.76</ele>
        <time>2016-08-04T12:45:07Z</time>
      </trkpt>
      <trkpt lat="44.69402" lon="5.93583">
        <ele>1302.24</ele>
        <time>2016-08-04T12:45:22Z</time>
      </trkpt>
      <trkpt lat="44.69408" lon="5.9358">
        <ele>1301.76</ele>
        <time>2016-08-04T12:45:33Z</time>
      </trkpt>
      <trkpt lat="44.69412" lon="5.93582">
        <ele>1301.76</ele>
        <time>2016-08-04T12:45:52Z</time>
      </trkpt>
      <trkpt lat="44.6941" lon="5.93583">
        <ele>1302.24</ele>
        <time>2016-08-04T12:46:22Z</time>
      </trkpt>
      <trkpt lat="44.69412" lon="5.9358">
        <ele>1302.72</ele>
        <time>2016-08-04T12:46:37Z</time>
      </trkpt>
      <trkpt lat="44.69414" lon="5.93578">
        <ele>1302.72</ele>
        <time>2016-08-04T12:46:40Z</time>
      </trkpt>
      <trkpt lat="44.69425" lon="5.93562">
        <ele>1303.2</ele>
        <time>2016-08-04T12:46:55Z</time>
      </trkpt>
      <trkpt lat="44.6943" lon="5.93555">
        <ele>1303.2</ele>
        <time>2016-08-04T12:47:03Z</time>
      </trkpt>
      <trkpt lat="44.69432" lon="5.93553">
        <ele>1303.2</ele>
        <time>2016-08-04T12:47:06Z</time>
      </trkpt>
      <trkpt lat="44.69437" lon="5.93548">
        <ele>1303.2</ele>
        <time>2016-08-04T12:47:12Z</time>
      </trkpt>
      <trkpt lat="44.69451" lon="5.93537">
        <ele>1303.2</ele>
        <time>2016-08-04T12:47:26Z</time>
      </trkpt>
      <trkpt lat="44.69452" lon="5.93535">
        <ele>1303.69</ele>
        <time>2016-08-04T12:47:28Z</time>
      </trkpt>
      <trkpt lat="44.69463" lon="5.93525">
        <ele>1303.69</ele>
        <time>2016-08-04T12:47:41Z</time>
      </trkpt>
      <trkpt lat="44.69479" lon="5.93513">
        <ele>1303.69</ele>
        <time>2016-08-04T12:47:58Z</time>
      </trkpt>
      <trkpt lat="44.6948" lon="5.93512">
        <ele>1303.69</ele>
        <time>2016-08-04T12:47:59Z</time>
      </trkpt>
      <trkpt lat="44.69495" lon="5.93505">
        <ele>1303.2</ele>
        <time>2016-08-04T12:48:13Z</time>
      </trkpt>
      <trkpt lat="44.69498" lon="5.93503">
        <ele>1303.2</ele>
        <time>2016-08-04T12:48:16Z</time>
      </trkpt>
      <trkpt lat="44.69503" lon="5.93502">
        <ele>1302.72</ele>
        <time>2016-08-04T12:48:20Z</time>
      </trkpt>
      <trkpt lat="44.69515" lon="5.93495">
        <ele>1301.76</ele>
        <time>2016-08-04T12:48:32Z</time>
      </trkpt>
      <trkpt lat="44.69531" lon="5.93496">
        <ele>1300.8</ele>
        <time>2016-08-04T12:48:46Z</time>
      </trkpt>
      <trkpt lat="44.69535" lon="5.93498">
        <ele>1300.8</ele>
        <time>2016-08-04T12:48:51Z</time>
      </trkpt>
      <trkpt lat="44.6954" lon="5.93496">
        <ele>1300.32</ele>
        <time>2016-08-04T12:48:56Z</time>
      </trkpt>
      <trkpt lat="44.6956" lon="5.93494">
        <ele>1297.92</ele>
        <time>2016-08-04T12:49:14Z</time>
      </trkpt>
      <trkpt lat="44.69577" lon="5.93489">
        <ele>1296.96</ele>
        <time>2016-08-04T12:49:31Z</time>
      </trkpt>
      <trkpt lat="44.69585" lon="5.93485">
        <ele>1295.99</ele>
        <time>2016-08-04T12:49:39Z</time>
      </trkpt>
    </trkseg>
  </trk>
</gpx>